Darstellungsparameter: Aktuell verwendete Einstellungen:
Skalierung der Graphiken ... ?
xyx+y,   Skalierungsfaktor:      Skalierung: Modus: x, Faktor: 1
Darstellungszeitraum ... ?
Vom - - bis: - -   Zeitraum: 29.01.2009 - 18.02.2009
Min/Max/Avg-Anzeige ... ?
Zeige MMA aktuell
Zeige MMA Monat
Zeige MMA alles
Zeige --A aktuell
Zeige --A Monat
Zeige --A alles
Keine MMA-Anzeige
MMA:
Keine MMA-Graphiken
MMA-Basis: 29.01.2009 - 18.02.2009
Quicknavigation für Darstellung... ?
Tage:      1T, 2T, 3T, 5T -1T -2T -3T -5T +1T +2T +3T +5T
Wochen: 1W, 2W, 3W -1W -2W -3W +1W +2W +3W
Monate: 1M, 3M, 6M -1M -3M -6M +1M +3M +6M
Jahre:    1J, 3J, 5J, 10J -1J -3J -5J -10J +1J +3J +5J +10J
Nutze für die Darstellung ... ?
Originaldaten oder Mittelwerte auf ...
Stundenbasis Tagesbasis Wochenbasis
Monatsbasis Jahresbasis      Datenbasis: Original-Daten
Darstellen als:
Statistik (Auto) Statistik J:M      Darstellung:
Zur Graphik,    zurück zur Übersicht aller Sensoren.
 
Tabellarische Datenbersicht: ?
 
Sensor: Nr:Datum:Temp:Feuchte:Taupunkt:
Aussen-T/F 1 29-01-2009 00:09:44 0.7 C 68 % -4.51 C
2 29-01-2009 00:21:44 0.7 C 68 % -4.51 C
3 29-01-2009 00:33:44 0.7 C 68 % -4.51 C
4 29-01-2009 00:45:44 0.7 C 68 % -4.51 C
5 29-01-2009 00:57:44 0.7 C 68 % -4.51 C
6 29-01-2009 01:09:44 0.7 C 67 % -4.71 C
7 29-01-2009 01:21:44 0.7 C 66 % -4.91 C
8 29-01-2009 01:33:44 0.6 C 67 % -4.81 C
9 29-01-2009 01:45:44 0.5 C 67 % -4.9 C
10 29-01-2009 01:57:44 0.4 C 67 % -5 C
11 29-01-2009 02:09:45 0.4 C 64 % -5.6 C
12 29-01-2009 02:21:45 0.5 C 64 % -5.5 C
13 29-01-2009 02:33:45 0.6 C 62 % -5.82 C
14 29-01-2009 02:45:45 0.6 C 61 % -6.04 C
15 29-01-2009 02:57:45 0.5 C 62 % -5.92 C
16 29-01-2009 03:09:45 0.5 C 63 % -5.71 C
17 29-01-2009 03:21:45 0.5 C 62 % -5.92 C
18 29-01-2009 03:33:45 0.6 C 62 % -5.82 C
19 29-01-2009 03:45:45 0.6 C 63 % -5.61 C
20 29-01-2009 03:57:45 0.7 C 60 % -6.16 C
21 29-01-2009 04:09:45 0.6 C 62 % -5.82 C
22 29-01-2009 04:21:45 0.7 C 62 % -5.73 C
23 29-01-2009 04:33:45 0.7 C 62 % -5.73 C
24 29-01-2009 04:45:45 0.6 C 63 % -5.61 C
25 29-01-2009 04:57:45 0.6 C 63 % -5.61 C
Sensor: Nr:Datum:Temp:Feuchte:Taupunkt:
Aussen-T/F 26 29-01-2009 05:09:45 0.8 C 61 % -5.85 C
27 29-01-2009 05:21:45 0.8 C 62 % -5.63 C
28 29-01-2009 05:33:45 0.7 C 63 % -5.52 C
29 29-01-2009 05:45:45 0.7 C 64 % -5.31 C
30 29-01-2009 05:57:45 0.7 C 65 % -5.11 C
31 29-01-2009 06:09:46 0.7 C 66 % -4.91 C
32 29-01-2009 06:21:46 0.8 C 65 % -5.01 C
33 29-01-2009 06:33:46 0.8 C 64 % -5.22 C
34 29-01-2009 06:45:44 0.8 C 64 % -5.22 C
35 29-01-2009 06:57:44 0.8 C 63 % -5.42 C
36 29-01-2009 07:09:44 0.9 C 63 % -5.33 C
37 29-01-2009 07:21:43 0.8 C 63 % -5.42 C
38 29-01-2009 07:33:43 0.8 C 62 % -5.63 C
39 29-01-2009 07:45:43 0.8 C 62 % -5.63 C
40 29-01-2009 07:57:43 0.8 C 62 % -5.63 C
41 29-01-2009 08:09:43 0.8 C 63 % -5.42 C
42 29-01-2009 08:21:42 0.8 C 63 % -5.42 C
43 29-01-2009 08:33:43 0.8 C 62 % -5.63 C
44 29-01-2009 08:45:42 0.8 C 62 % -5.63 C
45 29-01-2009 08:57:42 0.8 C 61 % -5.85 C
46 29-01-2009 09:09:42 0.9 C 61 % -5.75 C
47 29-01-2009 09:21:43 1 C 59 % -6.09 C
48 29-01-2009 09:33:42 1.1 C 57 % -6.45 C
49 29-01-2009 09:45:42 1.2 C 57 % -6.36 C
50 29-01-2009 09:57:42 1.4 C 57 % -6.17 C
Sensor: Nr:Datum:Temp:Feuchte:Taupunkt:
Aussen-T/F 51 29-01-2009 10:09:42 1.6 C 56 % -6.21 C
52 29-01-2009 10:21:42 1.5 C 55 % -6.54 C
53 29-01-2009 10:33:41 1.2 C 55 % -6.82 C
54 29-01-2009 10:45:41 1 C 57 % -6.54 C
55 29-01-2009 10:57:42 1 C 58 % -6.32 C
56 29-01-2009 11:09:41 1 C 60 % -5.87 C
57 29-01-2009 11:21:41 1.4 C 57 % -6.17 C
58 29-01-2009 11:33:41 1.6 C 56 % -6.21 C
59 29-01-2009 11:45:41 1.7 C 55 % -6.35 C
60 29-01-2009 11:57:41 2 C 54 % -6.31 C
61 29-01-2009 12:09:41 2.2 C 53 % -6.37 C
62 29-01-2009 12:21:40 2.6 C 52 % -6.25 C
63 29-01-2009 12:33:40 2.9 C 51 % -6.22 C
64 29-01-2009 12:45:40 3.3 C 49 % -6.37 C
65 29-01-2009 12:57:40 3.9 C 47 % -6.36 C
66 29-01-2009 13:09:40 4.2 C 45 % -6.65 C
67 29-01-2009 13:21:39 4.4 C 43 % -7.06 C
68 29-01-2009 13:33:40 4.8 C 42 % -7 C
69 29-01-2009 13:45:40 5.1 C 40 % -7.36 C
70 29-01-2009 13:57:40 5.3 C 40 % -7.18 C
71 29-01-2009 14:09:39 5.5 C 38 % -7.66 C
72 29-01-2009 14:21:40 5.8 C 38 % -7.4 C
73 29-01-2009 14:33:39 6.1 C 36 % -7.82 C
74 29-01-2009 14:45:39 6.2 C 36 % -7.74 C
75 29-01-2009 14:57:39 6.4 C 35 % -7.92 C
Sensor: Nr:Datum:Temp:Feuchte:Taupunkt:
Aussen-T/F 76 29-01-2009 15:09:39 6.6 C 35 % -7.74 C
77 29-01-2009 15:21:39 6.8 C 35 % -7.57 C
78 29-01-2009 15:33:39 6.5 C 35 % -7.83 C
79 29-01-2009 15:45:39 6.4 C 35 % -7.92 C
80 29-01-2009 15:57:39 5.6 C 36 % -8.27 C
81 29-01-2009 16:09:39 4.7 C 40 % -7.72 C
82 29-01-2009 16:21:38 4 C 41 % -8.04 C
83 29-01-2009 16:33:38 3.5 C 45 % -7.29 C
84 29-01-2009 16:45:38 3 C 46 % -7.47 C
85 29-01-2009 16:57:38 2.5 C 49 % -7.11 C
86 29-01-2009 17:09:38 2.1 C 51 % -6.96 C
87 29-01-2009 17:21:37 1.7 C 53 % -6.83 C
88 29-01-2009 17:33:37 1.2 C 56 % -6.59 C
89 29-01-2009 17:45:37 1 C 57 % -6.54 C
90 29-01-2009 17:57:37 0.7 C 60 % -6.16 C
91 29-01-2009 18:09:37 0.5 C 61 % -6.13 C
92 29-01-2009 18:21:38 0.4 C 62 % -6.01 C
93 29-01-2009 18:33:37 0.3 C 63 % -5.9 C
94 29-01-2009 18:45:37 0.2 C 63 % -5.99 C
95 29-01-2009 18:57:37 0.1 C 64 % -5.88 C
96 29-01-2009 19:09:37 -0.1 C 65 % -5.88 C
97 29-01-2009 19:21:36 -0.3 C 66 % -5.87 C
98 29-01-2009 19:33:36 -0.4 C 66 % -5.96 C
99 29-01-2009 19:45:36 -0.6 C 67 % -5.96 C
100 29-01-2009 19:57:37 -0.8 C 68 % -5.96 C
Sensor: Nr:Datum:Temp:Feuchte:Taupunkt:
Aussen-T/F 101 29-01-2009 20:09:36 -0.9 C 69 % -5.86 C
102 29-01-2009 20:21:36 -0.9 C 69 % -5.86 C
103 29-01-2009 20:33:36 -1.1 C 70 % -5.86 C
104 29-01-2009 20:45:36 -1.1 C 70 % -5.86 C
105 29-01-2009 20:57:36 -1.2 C 70 % -5.96 C
106 29-01-2009 21:09:35 -1.4 C 70 % -6.15 C
107 29-01-2009 21:21:35 -1.5 C 71 % -6.06 C
108 29-01-2009 21:34:36 -1.6 C 72 % -5.98 C
109 29-01-2009 21:46:36 -1.7 C 73 % -5.89 C
110 29-01-2009 21:58:36 -1.8 C 73 % -5.99 C
111 29-01-2009 22:10:36 -2 C 73 % -6.18 C
112 29-01-2009 22:22:36 -1.9 C 74 % -5.91 C
113 29-01-2009 22:34:36 -2 C 74 % -6 C
114 29-01-2009 22:46:36 -2.2 C 74 % -6.2 C
115 29-01-2009 22:58:36 -2.4 C 74 % -6.39 C
116 29-01-2009 23:10:36 -2.3 C 75 % -6.12 C
117 29-01-2009 23:22:36 -2.4 C 75 % -6.22 C
118 29-01-2009 23:34:36 -2.5 C 75 % -6.31 C
119 29-01-2009 23:46:36 -2.5 C 76 % -6.14 C
120 29-01-2009 23:58:36 -2.5 C 76 % -6.14 C
121 30-01-2009 00:10:36 -2.5 C 77 % -5.97 C
122 30-01-2009 00:22:37 -2.5 C 77 % -5.97 C
123 30-01-2009 00:34:37 -2.5 C 77 % -5.97 C
124 30-01-2009 00:46:37 -2.6 C 77 % -6.07 C
125 30-01-2009 00:58:37 -2.7 C 77 % -6.16 C
Sensor: Nr:Datum:Temp:Feuchte:Taupunkt:
Aussen-T/F 126 30-01-2009 01:10:37 -2.7 C 77 % -6.16 C
127 30-01-2009 01:22:37 -2.9 C 77 % -6.36 C
128 30-01-2009 01:34:37 -2.8 C 78 % -6.09 C
129 30-01-2009 01:46:37 -3 C 78 % -6.29 C
130 30-01-2009 01:58:37 -3.1 C 77 % -6.55 C
131 30-01-2009 02:10:37 -3.2 C 78 % -6.48 C
132 30-01-2009 02:22:37 -3.2 C 78 % -6.48 C
133 30-01-2009 02:34:37 -3.5 C 78 % -6.77 C
134 30-01-2009 02:46:37 -3.5 C 78 % -6.77 C
135 30-01-2009 02:58:37 -3.5 C 78 % -6.77 C
136 30-01-2009 03:10:37 -3.6 C 78 % -6.87 C
137 30-01-2009 03:22:37 -3.7 C 79 % -6.8 C
138 30-01-2009 03:34:37 -3.8 C 79 % -6.9 C
139 30-01-2009 03:46:37 -3.6 C 80 % -6.54 C
140 30-01-2009 03:58:37 -3.7 C 80 % -6.64 C
141 30-01-2009 04:10:37 -3.8 C 80 % -6.74 C
142 30-01-2009 04:22:37 -3.8 C 80 % -6.74 C
143 30-01-2009 04:34:38 -3.9 C 80 % -6.83 C
144 30-01-2009 04:46:38 -3.9 C 81 % -6.67 C
145 30-01-2009 04:58:38 -3.9 C 81 % -6.67 C
146 30-01-2009 05:10:38 -3.9 C 81 % -6.67 C
147 30-01-2009 05:22:38 -3.8 C 82 % -6.41 C
148 30-01-2009 05:34:38 -3.8 C 82 % -6.41 C
149 30-01-2009 05:46:38 -3.8 C 82 % -6.41 C
150 30-01-2009 05:58:38 -3.9 C 82 % -6.51 C
Sensor: Nr:Datum:Temp:Feuchte:Taupunkt:
Aussen-T/F 151 30-01-2009 06:10:38 -3.9 C 82 % -6.51 C
152 30-01-2009 06:22:38 -4.1 C 82 % -6.71 C
153 30-01-2009 06:34:35 -4.1 C 82 % -6.71 C
154 30-01-2009 06:46:35 -4.3 C 82 % -6.9 C
155 30-01-2009 06:58:35 -4.3 C 82 % -6.9 C
156 30-01-2009 07:10:35 -4.4 C 82 % -7 C
157 30-01-2009 07:22:35 -4.6 C 82 % -7.2 C
158 30-01-2009 07:34:34 -4.8 C 82 % -7.39 C
159 30-01-2009 07:46:35 -4.8 C 82 % -7.39 C
160 30-01-2009 07:58:35 -4.7 C 82 % -7.3 C
161 30-01-2009 08:10:34 -4.7 C 83 % -7.14 C
162 30-01-2009 08:22:34 -4.6 C 83 % -7.04 C
163 30-01-2009 08:34:34 -4.2 C 84 % -6.49 C
164 30-01-2009 08:46:34 -3.6 C 85 % -5.75 C
165 30-01-2009 08:58:34 -3.3 C 86 % -5.3 C
166 30-01-2009 09:10:33 -3 C 86 % -5.01 C
167 30-01-2009 09:22:34 -2.7 C 86 % -4.71 C
168 30-01-2009 09:34:34 -2.5 C 85 % -4.67 C
169 30-01-2009 09:46:33 -2.2 C 84 % -4.53 C
170 30-01-2009 09:58:33 -1.8 C 83 % -4.3 C
171 30-01-2009 10:10:34 -1.5 C 81 % -4.33 C
172 30-01-2009 10:22:33 -1.2 C 77 % -4.71 C
173 30-01-2009 10:34:33 -1 C 72 % -5.4 C
174 30-01-2009 10:46:32 -0.8 C 70 % -5.58 C
175 30-01-2009 10:58:32 -0.7 C 69 % -5.67 C
Sensor: Nr:Datum:Temp:Feuchte:Taupunkt:
Aussen-T/F 176 30-01-2009 11:10:33 -0.5 C 67 % -5.86 C
177 30-01-2009 11:22:32 -0.3 C 65 % -6.07 C
178 30-01-2009 11:34:32 0 C 64 % -5.98 C
179 30-01-2009 11:46:32 0.2 C 63 % -5.99 C
180 30-01-2009 11:58:32 0.5 C 63 % -5.71 C
181 30-01-2009 12:10:32 0.4 C 60 % -6.44 C
182 30-01-2009 12:22:32 0.4 C 60 % -6.44 C
183 30-01-2009 12:34:31 0.4 C 60 % -6.44 C
184 30-01-2009 12:46:32 0.6 C 60 % -6.25 C
185 30-01-2009 12:58:32 1.1 C 58 % -6.22 C
186 30-01-2009 13:10:31 1.4 C 56 % -6.4 C
187 30-01-2009 13:22:31 2 C 53 % -6.55 C
188 30-01-2009 13:34:31 2.5 C 51 % -6.59 C
189 30-01-2009 13:46:31 2.8 C 50 % -6.57 C
190 30-01-2009 13:58:31 3 C 46 % -7.47 C
191 30-01-2009 14:10:30 3.3 C 46 % -7.19 C
192 30-01-2009 14:22:31 3.4 C 45 % -7.38 C
193 30-01-2009 14:34:30 3.6 C 45 % -7.2 C
194 30-01-2009 14:46:30 3.8 C 45 % -7.02 C
195 30-01-2009 14:58:30 3.8 C 44 % -7.31 C
196 30-01-2009 15:10:30 3.9 C 43 % -7.51 C
197 30-01-2009 15:22:30 4.2 C 42 % -7.55 C
198 30-01-2009 15:34:30 3.9 C 43 % -7.51 C
199 30-01-2009 15:46:30 3.7 C 43 % -7.7 C
200 30-01-2009 15:58:30 3.6 C 44 % -7.49 C
Sensor: Nr:Datum:Temp:Feuchte:Taupunkt:
Aussen-T/F 201 30-01-2009 16:10:30 2.8 C 46 % -7.65 C
202 30-01-2009 16:22:29 2 C 49 % -7.57 C
203 30-01-2009 16:34:29 1.5 C 52 % -7.27 C
204 30-01-2009 16:46:29 0.8 C 56 % -6.96 C
205 30-01-2009 16:58:29 0.4 C 58 % -6.88 C
206 30-01-2009 17:10:29 0 C 60 % -6.82 C
207 30-01-2009 17:22:29 -0.2 C 60 % -7.02 C
208 30-01-2009 17:34:29 -0.5 C 62 % -6.87 C
209 30-01-2009 17:46:28 -0.8 C 63 % -6.95 C
210 30-01-2009 17:58:28 -0.9 C 64 % -6.84 C
211 30-01-2009 18:10:29 -1 C 65 % -6.74 C
212 30-01-2009 18:22:29 -1 C 66 % -6.54 C
213 30-01-2009 18:34:28 -1.1 C 66 % -6.63 C
214 30-01-2009 18:46:29 -1.1 C 67 % -6.44 C
215 30-01-2009 18:58:29 -1.2 C 67 % -6.53 C
216 30-01-2009 19:10:28 -1.2 C 68 % -6.34 C
217 30-01-2009 19:22:28 -1.2 C 68 % -6.34 C
218 30-01-2009 19:34:27 -1.3 C 69 % -6.24 C
219 30-01-2009 19:46:28 -1.5 C 70 % -6.25 C
220 30-01-2009 19:58:28 -1.5 C 70 % -6.25 C
221 30-01-2009 20:10:27 -1.5 C 71 % -6.06 C
222 30-01-2009 20:22:27 -1.7 C 71 % -6.26 C
223 30-01-2009 20:34:27 -1.7 C 72 % -6.07 C
224 30-01-2009 20:46:27 -1.7 C 72 % -6.07 C
225 30-01-2009 20:58:27 -1.8 C 72 % -6.17 C
Sensor: Nr:Datum:Temp:Feuchte:Taupunkt:
Aussen-T/F 226 30-01-2009 21:10:27 -1.8 C 73 % -5.99 C
227 30-01-2009 21:22:26 -1.8 C 73 % -5.99 C
228 30-01-2009 21:34:26 -2 C 73 % -6.18 C
229 30-01-2009 21:46:26 -2.1 C 74 % -6.1 C
230 30-01-2009 21:58:26 -2 C 74 % -6 C
231 30-01-2009 22:10:26 -2.1 C 73 % -6.28 C
232 30-01-2009 22:22:26 -2.2 C 73 % -6.38 C
233 30-01-2009 22:34:26 -2.3 C 73 % -6.47 C
234 30-01-2009 22:46:26 -2.4 C 73 % -6.57 C
235 30-01-2009 22:58:26 -2.4 C 73 % -6.57 C
236 30-01-2009 23:10:25 -2.4 C 73 % -6.57 C
237 30-01-2009 23:22:26 -2.6 C 73 % -6.76 C
238 30-01-2009 23:35:25 -2.8 C 73 % -6.95 C
239 30-01-2009 23:47:25 -2.8 C 74 % -6.78 C
240 30-01-2009 23:59:25 -2.8 C 75 % -6.6 C
241 31-01-2009 00:11:25 -2.7 C 75 % -6.51 C
242 31-01-2009 00:23:25 -2.3 C 75 % -6.12 C
243 31-01-2009 00:35:25 -2.1 C 74 % -6.1 C
244 31-01-2009 00:47:25 -1.8 C 73 % -5.99 C
245 31-01-2009 00:59:26 -1.7 C 71 % -6.26 C
246 31-01-2009 01:11:26 -1.6 C 70 % -6.34 C
247 31-01-2009 01:23:26 -1.5 C 68 % -6.63 C
248 31-01-2009 01:35:26 -1.4 C 68 % -6.53 C
249 31-01-2009 01:47:26 -1.3 C 67 % -6.63 C
250 31-01-2009 01:59:26 -1.2 C 65 % -6.93 C
Sensor: Nr:Datum:Temp:Feuchte:Taupunkt:
Aussen-T/F 251 31-01-2009 02:11:26 -1.2 C 64 % -7.13 C
252 31-01-2009 02:23:26 -1.2 C 63 % -7.33 C
253 31-01-2009 02:35:26 -1.2 C 63 % -7.33 C
254 31-01-2009 02:47:26 -1.1 C 62 % -7.44 C
255 31-01-2009 02:59:26 -1.1 C 62 % -7.44 C
256 31-01-2009 03:11:26 -1.1 C 61 % -7.65 C
257 31-01-2009 03:23:26 -1.1 C 61 % -7.65 C
258 31-01-2009 03:35:26 -1 C 60 % -7.77 C
259 31-01-2009 03:47:26 -1 C 61 % -7.56 C
260 31-01-2009 03:59:26 -1 C 60 % -7.77 C
261 31-01-2009 04:11:26 -0.9 C 60 % -7.68 C
262 31-01-2009 04:23:26 -0.9 C 60 % -7.68 C
263 31-01-2009 04:35:26 -0.9 C 60 % -7.68 C
264 31-01-2009 04:47:26 -0.9 C 61 % -7.46 C
265 31-01-2009 04:59:27 -0.9 C 60 % -7.68 C
266 31-01-2009 05:11:27 -0.9 C 60 % -7.68 C
267 31-01-2009 05:23:27 -0.8 C 59 % -7.8 C
268 31-01-2009 05:35:27 -0.8 C 58 % -8.02 C
269 31-01-2009 05:47:27 -0.7 C 58 % -7.92 C
270 31-01-2009 05:59:27 -0.7 C 59 % -7.7 C
271 31-01-2009 06:11:27 -0.7 C 58 % -7.92 C
272 31-01-2009 06:23:27 -0.7 C 58 % -7.92 C
273 31-01-2009 06:35:27 -0.6 C 57 % -8.05 C
274 31-01-2009 06:47:27 -0.6 C 56 % -8.28 C
275 31-01-2009 06:59:27 -0.6 C 56 % -8.28 C
Sensor: Nr:Datum:Temp:Feuchte:Taupunkt:
Aussen-T/F 276 31-01-2009 07:11:27 -0.6 C 56 % -8.28 C
277 31-01-2009 07:23:27 -0.6 C 56 % -8.28 C
278 31-01-2009 07:35:27 -0.6 C 56 % -8.28 C
279 31-01-2009 07:47:27 -0.6 C 56 % -8.28 C
280 31-01-2009 07:59:27 -0.5 C 55 % -8.42 C
281 31-01-2009 08:11:27 -0.6 C 55 % -8.51 C
282 31-01-2009 08:23:27 -0.5 C 55 % -8.42 C
283 31-01-2009 08:35:27 -0.5 C 55 % -8.42 C
284 31-01-2009 08:47:27 -0.4 C 55 % -8.33 C
285 31-01-2009 08:59:28 -0.4 C 55 % -8.33 C
286 31-01-2009 09:11:25 -0.4 C 55 % -8.33 C
287 31-01-2009 09:23:25 -0.3 C 55 % -8.23 C
288 31-01-2009 09:35:26 -0.3 C 54 % -8.47 C
289 31-01-2009 09:47:25 -0.2 C 53 % -8.61 C
290 31-01-2009 09:59:25 -0.2 C 53 % -8.61 C
291 31-01-2009 10:11:25 -0.1 C 53 % -8.52 C
292 31-01-2009 10:23:25 -0.1 C 53 % -8.52 C
293 31-01-2009 10:35:25 0 C 54 % -8.18 C
294 31-01-2009 10:47:24 0.1 C 53 % -8.32 C
295 31-01-2009 10:59:24 0.1 C 53 % -8.32 C
296 31-01-2009 11:11:25 0.2 C 52 % -8.47 C
297 31-01-2009 11:23:24 0.3 C 52 % -8.38 C
298 31-01-2009 11:35:24 0.5 C 51 % -8.44 C
299 31-01-2009 11:47:23 0.5 C 51 % -8.44 C
300 31-01-2009 11:59:23 0.6 C 50 % -8.6 C
Sensor: Nr:Datum:Temp:Feuchte:Taupunkt:
Aussen-T/F 301 31-01-2009 12:11:24 0.7 C 50 % -8.51 C
302 31-01-2009 12:23:23 0.7 C 49 % -8.77 C
303 31-01-2009 12:35:23 0.6 C 49 % -8.86 C
304 31-01-2009 12:47:24 0.7 C 49 % -8.77 C
305 31-01-2009 12:59:24 0.7 C 49 % -8.77 C
306 31-01-2009 13:11:23 0.6 C 48 % -9.12 C
307 31-01-2009 13:23:23 0.8 C 48 % -8.94 C
308 31-01-2009 13:35:23 0.8 C 47 % -9.21 C
309 31-01-2009 13:47:23 0.8 C 47 % -9.21 C
310 31-01-2009 13:59:23 0.7 C 48 % -9.03 C
311 31-01-2009 14:11:22 0.8 C 48 % -8.94 C
312 31-01-2009 14:23:23 1 C 46 % -9.3 C
313 31-01-2009 14:35:22 1.1 C 46 % -9.2 C
314 31-01-2009 14:47:22 1.3 C 46 % -9.02 C
315 31-01-2009 14:59:22 1.3 C 44 % -9.58 C
316 31-01-2009 15:11:22 1.2 C 44 % -9.68 C
317 31-01-2009 15:23:22 1.5 C 42 % -9.99 C
318 31-01-2009 15:35:22 2.5 C 40 % -9.7 C
319 31-01-2009 15:47:22 3.1 C 37 % -10.15 C
320 31-01-2009 15:59:22 3.3 C 37 % -9.97 C
321 31-01-2009 16:11:22 2.5 C 40 % -9.7 C
322 31-01-2009 16:23:21 1.8 C 44 % -9.13 C
323 31-01-2009 16:35:21 1.6 C 45 % -9.03 C
324 31-01-2009 16:47:21 1.4 C 46 % -8.93 C
325 31-01-2009 16:59:21 0.8 C 49 % -8.68 C
Sensor: Nr:Datum:Temp:Feuchte:Taupunkt:
Aussen-T/F 326 31-01-2009 17:11:21 0.5 C 51 % -8.44 C
327 31-01-2009 17:23:20 0.2 C 51 % -8.72 C
328 31-01-2009 17:35:21 0.1 C 52 % -8.56 C
329 31-01-2009 17:47:20 0.1 C 52 % -8.56 C
330 31-01-2009 17:59:20 0.1 C 51 % -8.81 C
331 31-01-2009 18:11:20 0.2 C 51 % -8.72 C
332 31-01-2009 18:23:20 0.2 C 51 % -8.72 C
333 31-01-2009 18:35:20 0.4 C 49 % -9.04 C
334 31-01-2009 18:47:19 0.6 C 49 % -8.86 C
335 31-01-2009 18:59:19 0.8 C 48 % -8.94 C
336 31-01-2009 19:11:20 0.8 C 48 % -8.94 C
337 31-01-2009 19:23:20 0.8 C 48 % -8.94 C
338 31-01-2009 19:35:19 0.7 C 50 % -8.51 C
339 31-01-2009 19:47:20 0.7 C 49 % -8.77 C
340 31-01-2009 19:59:20 0.7 C 50 % -8.51 C
341 31-01-2009 20:11:19 1 C 47 % -9.02 C
342 31-01-2009 20:23:19 1.1 C 45 % -9.48 C
343 31-01-2009 20:35:18 1 C 46 % -9.3 C
344 31-01-2009 20:47:19 1.1 C 44 % -9.77 C
345 31-01-2009 20:59:19 1.2 C 44 % -9.68 C
346 31-01-2009 21:11:18 1.2 C 43 % -9.97 C
347 31-01-2009 21:23:19 1.1 C 44 % -9.77 C
348 31-01-2009 21:35:18 1.2 C 42 % -10.26 C
349 31-01-2009 21:47:18 1 C 43 % -10.15 C
350 31-01-2009 21:59:18 1 C 44 % -9.86 C
Sensor: Nr:Datum:Temp:Feuchte:Taupunkt:
Aussen-T/F 351 31-01-2009 22:11:18 0.7 C 47 % -9.3 C
352 31-01-2009 22:24:20 0.6 C 48 % -9.12 C
353 31-01-2009 22:36:20 0.5 C 49 % -8.95 C
354 31-01-2009 22:48:20 0.3 C 51 % -8.63 C
355 31-01-2009 23:00:20 0.5 C 52 % -8.19 C
356 31-01-2009 23:12:20 0.3 C 53 % -8.14 C
357 31-01-2009 23:24:20 0 C 54 % -8.18 C
358 31-01-2009 23:36:20 -0.3 C 55 % -8.23 C
359 31-01-2009 23:48:20 -0.4 C 56 % -8.09 C
360 01-02-2009 00:00:20 -0.4 C 57 % -7.87 C
361 01-02-2009 00:12:20 -0.3 C 56 % -8 C
362 01-02-2009 00:24:20 -0.3 C 56 % -8 C
363 01-02-2009 00:36:20 -0.3 C 56 % -8 C
364 01-02-2009 00:48:20 -0.2 C 55 % -8.14 C
365 01-02-2009 01:00:20 -0.2 C 52 % -8.86 C
366 01-02-2009 01:12:20 -0.2 C 50 % -9.36 C
367 01-02-2009 01:24:20 -0.2 C 49 % -9.61 C
368 01-02-2009 01:36:20 -0.2 C 48 % -9.87 C
369 01-02-2009 01:48:21 -0.1 C 46 % -10.32 C
370 01-02-2009 02:00:21 -0.1 C 45 % -10.6 C
371 01-02-2009 02:12:21 -0.1 C 45 % -10.6 C
372 01-02-2009 02:24:21 -0.1 C 45 % -10.6 C
373 01-02-2009 02:36:21 -0.2 C 45 % -10.69 C
374 01-02-2009 02:48:21 -0.2 C 44 % -10.97 C
375 01-02-2009 03:00:21 -0.1 C 42 % -11.46 C
Sensor: Nr:Datum:Temp:Feuchte:Taupunkt:
Aussen-T/F 376 01-02-2009 03:12:21 -0.1 C 41 % -11.76 C
377 01-02-2009 03:24:21 -0.1 C 42 % -11.46 C
378 01-02-2009 03:36:21 -0.2 C 42 % -11.55 C
379 01-02-2009 03:48:21 -0.2 C 43 % -11.26 C
380 01-02-2009 04:00:21 -0.2 C 41 % -11.85 C
381 01-02-2009 04:12:21 -0.1 C 41 % -11.76 C
382 01-02-2009 04:24:21 -0.2 C 41 % -11.85 C
383 01-02-2009 04:36:21 -0.3 C 43 % -11.35 C
384 01-02-2009 04:48:21 -0.4 C 45 % -10.87 C
385 01-02-2009 05:00:21 -0.4 C 47 % -10.32 C
386 01-02-2009 05:12:21 -0.5 C 49 % -9.89 C
387 01-02-2009 05:24:21 -0.4 C 50 % -9.54 C
388 01-02-2009 05:36:21 -0.5 C 48 % -10.15 C
389 01-02-2009 05:48:22 -0.5 C 46 % -10.69 C
390 01-02-2009 06:00:22 -0.6 C 45 % -11.05 C
391 01-02-2009 06:12:22 -0.6 C 44 % -11.33 C
392 01-02-2009 06:24:22 -0.7 C 43 % -11.71 C
393 01-02-2009 06:36:22 -0.7 C 43 % -11.71 C
394 01-02-2009 06:48:22 -0.8 C 43 % -11.8 C
395 01-02-2009 07:00:22 -0.9 C 43 % -11.89 C
396 01-02-2009 07:12:22 -0.9 C 43 % -11.89 C
397 01-02-2009 07:24:22 -1 C 43 % -11.98 C
398 01-02-2009 07:36:22 -1 C 43 % -11.98 C
399 01-02-2009 07:48:22 -1 C 44 % -11.7 C
400 01-02-2009 08:00:22 -1.1 C 45 % -11.51 C
Sensor: Nr:Datum:Temp:Feuchte:Taupunkt:
Aussen-T/F 401 01-02-2009 08:12:22 -1.1 C 45 % -11.51 C
402 01-02-2009 08:24:22 -1.1 C 46 % -11.24 C
403 01-02-2009 08:36:19 -1.1 C 47 % -10.97 C
404 01-02-2009 08:48:19 -1.1 C 47 % -10.97 C
405 01-02-2009 09:00:19 -1 C 47 % -10.87 C
406 01-02-2009 09:12:19 -0.9 C 47 % -10.78 C
407 01-02-2009 09:24:18 -0.8 C 47 % -10.69 C
408 01-02-2009 09:36:19 -0.8 C 47 % -10.69 C
409 01-02-2009 09:48:18 -0.8 C 47 % -10.69 C
410 01-02-2009 10:00:18 -0.6 C 46 % -10.78 C
411 01-02-2009 10:12:18 -0.4 C 46 % -10.59 C
412 01-02-2009 10:24:18 -0.2 C 46 % -10.41 C
413 01-02-2009 10:36:18 -0.1 C 44 % -10.88 C
414 01-02-2009 10:48:17 0 C 45 % -10.49 C
415 01-02-2009 11:00:18 0 C 44 % -10.77 C
416 01-02-2009 11:12:18 0.2 C 44 % -10.59 C
417 01-02-2009 11:24:18 0.1 C 44 % -10.68 C
418 01-02-2009 11:36:17 0.4 C 45 % -10.12 C
419 01-02-2009 11:48:18 0.6 C 42 % -10.81 C
420 01-02-2009 12:00:17 0.8 C 42 % -10.63 C
421 01-02-2009 12:12:17 1 C 40 % -11.05 C
422 01-02-2009 12:24:17 1.1 C 41 % -10.66 C
423 01-02-2009 12:36:17 0.5 C 44 % -10.31 C
424 01-02-2009 12:48:17 0.5 C 46 % -9.75 C
425 01-02-2009 13:00:16 0.8 C 47 % -9.21 C
Sensor: Nr:Datum:Temp:Feuchte:Taupunkt:
Aussen-T/F 426 01-02-2009 13:12:16 0.9 C 45 % -9.67 C
427 01-02-2009 13:24:17 1.2 C 41 % -10.57 C
428 01-02-2009 13:36:17 1.3 C 40 % -10.78 C
429 01-02-2009 13:48:16 1.5 C 39 % -10.92 C
430 01-02-2009 14:00:16 1.8 C 40 % -10.33 C
431 01-02-2009 14:12:16 2.1 C 37 % -11.04 C
432 01-02-2009 14:24:16 2.5 C 35 % -11.38 C
433 01-02-2009 14:36:15 2.1 C 35 % -11.73 C
434 01-02-2009 14:48:16 1.8 C 36 % -11.65 C
435 01-02-2009 15:00:15 1.9 C 38 % -10.89 C
436 01-02-2009 15:12:15 1.7 C 37 % -11.4 C
437 01-02-2009 15:24:15 1.6 C 39 % -10.83 C
438 01-02-2009 15:36:16 1.4 C 39 % -11.01 C
439 01-02-2009 15:48:15 1.3 C 39 % -11.1 C
440 01-02-2009 16:00:15 1 C 40 % -11.05 C
441 01-02-2009 16:12:15 1 C 41 % -10.75 C
442 01-02-2009 16:24:14 0.9 C 43 % -10.24 C
443 01-02-2009 16:36:15 0.8 C 44 % -10.04 C
444 01-02-2009 16:48:14 0.7 C 45 % -9.85 C
445 01-02-2009 17:00:14 0.6 C 46 % -9.66 C
446 01-02-2009 17:12:14 0.6 C 49 % -8.86 C
447 01-02-2009 17:24:14 0.4 C 50 % -8.79 C
448 01-02-2009 17:36:14 0.3 C 51 % -8.63 C
449 01-02-2009 17:48:13 0.2 C 51 % -8.72 C
450 01-02-2009 18:00:14 0.2 C 51 % -8.72 C
Sensor: Nr:Datum:Temp:Feuchte:Taupunkt:
Aussen-T/F 451 01-02-2009 18:12:14 0.2 C 50 % -8.97 C
452 01-02-2009 18:24:13 0.1 C 50 % -9.06 C
453 01-02-2009 18:36:13 0 C 51 % -8.91 C
454 01-02-2009 18:48:13 -0.1 C 52 % -8.76 C
455 01-02-2009 19:00:13 -0.2 C 53 % -8.61 C
456 01-02-2009 19:12:13 -0.4 C 53 % -8.8 C
457 01-02-2009 19:24:13 -0.5 C 54 % -8.65 C
458 01-02-2009 19:36:13 -0.6 C 53 % -8.99 C
459 01-02-2009 19:48:13 -0.7 C 53 % -9.08 C
460 01-02-2009 20:00:12 -0.8 C 53 % -9.17 C
461 01-02-2009 20:12:12 -0.9 C 53 % -9.26 C
462 01-02-2009 20:24:13 -1 C 53 % -9.36 C
463 01-02-2009 20:36:12 -1 C 53 % -9.36 C
464 01-02-2009 20:48:12 -1.1 C 53 % -9.45 C
465 01-02-2009 21:00:12 -1.2 C 53 % -9.54 C
466 01-02-2009 21:12:13 -1.1 C 53 % -9.45 C
467 01-02-2009 21:24:11 -1 C 53 % -9.36 C
468 01-02-2009 21:36:12 -1 C 52 % -9.6 C
469 01-02-2009 21:48:11 -1 C 52 % -9.6 C
470 01-02-2009 22:00:11 -0.9 C 52 % -9.51 C
471 01-02-2009 22:12:11 -1 C 52 % -9.6 C
472 01-02-2009 22:24:12 -1 C 52 % -9.6 C
473 01-02-2009 22:36:11 -0.9 C 52 % -9.51 C
474 01-02-2009 22:49:13 -1 C 52 % -9.6 C
475 01-02-2009 23:01:13 -1 C 52 % -9.6 C
Sensor: Nr:Datum:Temp:Feuchte:Taupunkt:
Aussen-T/F 476 01-02-2009 23:13:13 -1.1 C 53 % -9.45 C
477 01-02-2009 23:25:13 -1.1 C 53 % -9.45 C
478 01-02-2009 23:37:13 -1.2 C 53 % -9.54 C
479 01-02-2009 23:49:13 -1.1 C 54 % -9.21 C
480 02-02-2009 00:01:13 -1 C 54 % -9.12 C
481 02-02-2009 00:13:13 -1 C 54 % -9.12 C
482 02-02-2009 00:25:13 -1.2 C 54 % -9.31 C
483 02-02-2009 00:37:13 -1.4 C 55 % -9.26 C
484 02-02-2009 00:49:13 -1.7 C 56 % -9.31 C
485 02-02-2009 01:01:13 -1.8 C 56 % -9.41 C
486 02-02-2009 01:13:13 -1.8 C 57 % -9.18 C
487 02-02-2009 01:25:13 -2.1 C 58 % -9.24 C
488 02-02-2009 01:37:13 -2.1 C 59 % -9.02 C
489 02-02-2009 01:49:13 -2.3 C 59 % -9.21 C
490 02-02-2009 02:01:14 -2.3 C 60 % -9 C
491 02-02-2009 02:13:14 -2.1 C 61 % -8.6 C
492 02-02-2009 02:25:14 -1.9 C 60 % -8.62 C
493 02-02-2009 02:37:14 -1.7 C 60 % -8.43 C
494 02-02-2009 02:49:14 -1.5 C 59 % -8.46 C
495 02-02-2009 03:01:14 -1.3 C 58 % -8.49 C
496 02-02-2009 03:13:14 -1.3 C 57 % -8.71 C
497 02-02-2009 03:25:14 -1.3 C 57 % -8.71 C
498 02-02-2009 03:37:14 -1.2 C 57 % -8.62 C
499 02-02-2009 03:49:14 -1.1 C 57 % -8.52 C
500 02-02-2009 04:01:14 -1 C 57 % -8.43 C
Sensor: Nr:Datum:Temp:Feuchte:Taupunkt:
Aussen-T/F 501 02-02-2009 04:13:14 -0.8 C 56 % -8.47 C
502 02-02-2009 04:25:14 -0.7 C 56 % -8.38 C
503 02-02-2009 04:37:14 -0.7 C 55 % -8.61 C
504 02-02-2009 04:49:14 -0.8 C 55 % -8.7 C
505 02-02-2009 05:01:14 -0.8 C 56 % -8.47 C
506 02-02-2009 05:13:14 -0.8 C 56 % -8.47 C
507 02-02-2009 05:25:14 -0.8 C 56 % -8.47 C
508 02-02-2009 05:37:14 -0.7 C 56 % -8.38 C
509 02-02-2009 05:49:15 -0.8 C 57 % -8.24 C
510 02-02-2009 06:01:15 -0.7 C 56 % -8.38 C
511 02-02-2009 06:13:15 -0.8 C 57 % -8.24 C
512 02-02-2009 06:25:15 -0.8 C 58 % -8.02 C
513 02-02-2009 06:37:15 -0.8 C 58 % -8.02 C
514 02-02-2009 06:49:12 -0.8 C 58 % -8.02 C
515 02-02-2009 07:01:12 -0.9 C 58 % -8.11 C
516 02-02-2009 07:13:12 -0.9 C 59 % -7.89 C
517 02-02-2009 07:25:12 -0.8 C 60 % -7.58 C
518 02-02-2009 07:37:12 -0.6 C 60 % -7.39 C
519 02-02-2009 07:49:11 -0.5 C 61 % -7.08 C
520 02-02-2009 08:01:11 -0.5 C 61 % -7.08 C
521 02-02-2009 08:13:12 -0.4 C 60 % -7.2 C
522 02-02-2009 08:25:11 -0.3 C 59 % -7.33 C
523 02-02-2009 08:37:11 -0.6 C 60 % -7.39 C
524 02-02-2009 08:49:10 -0.8 C 61 % -7.37 C
525 02-02-2009 09:01:11 -0.7 C 60 % -7.49 C
Sensor: Nr:Datum:Temp:Feuchte:Taupunkt:
Aussen-T/F 526 02-02-2009 09:13:11 -0.5 C 60 % -7.3 C
527 02-02-2009 09:25:11 -0.2 C 57 % -7.68 C
528 02-02-2009 09:37:10 -0.2 C 58 % -7.45 C
529 02-02-2009 09:49:11 -0.1 C 58 % -7.36 C
530 02-02-2009 10:01:10 0.1 C 57 % -7.39 C
531 02-02-2009 10:13:10 0.3 C 56 % -7.43 C
532 02-02-2009 10:25:10 0.4 C 55 % -7.57 C
533 02-02-2009 10:37:09 0.9 C 53 % -7.58 C
534 02-02-2009 10:49:10 1.2 C 52 % -7.54 C
535 02-02-2009 11:01:10 1.5 C 50 % -7.77 C
536 02-02-2009 11:13:10 1.8 C 49 % -7.75 C
537 02-02-2009 11:25:09 2.1 C 47 % -8.01 C
538 02-02-2009 11:37:10 2.5 C 46 % -7.92 C
539 02-02-2009 11:49:09 2.8 C 46 % -7.65 C
540 02-02-2009 12:01:09 3.3 C 45 % -7.47 C
541 02-02-2009 12:13:09 4 C 42 % -7.73 C
542 02-02-2009 12:25:09 4.2 C 40 % -8.17 C
543 02-02-2009 12:37:09 4.4 C 38 % -8.65 C
544 02-02-2009 12:49:08 4.6 C 38 % -8.47 C
545 02-02-2009 13:01:09 4.6 C 37 % -8.81 C
546 02-02-2009 13:13:09 4.7 C 38 % -8.38 C
547 02-02-2009 13:25:08 4.8 C 38 % -8.29 C
548 02-02-2009 13:37:08 4.9 C 37 % -8.54 C
549 02-02-2009 13:49:08 5 C 36 % -8.8 C
550 02-02-2009 14:01:08 5.3 C 36 % -8.54 C
Sensor: Nr:Datum:Temp:Feuchte:Taupunkt:
Aussen-T/F 551 02-02-2009 14:13:08 5.3 C 36 % -8.54 C
552 02-02-2009 14:25:08 5.4 C 36 % -8.45 C
553 02-02-2009 14:37:07 5.1 C 37 % -8.36 C
554 02-02-2009 14:49:08 5.1 C 39 % -7.69 C
555 02-02-2009 15:01:07 5.2 C 38 % -7.93 C
556 02-02-2009 15:13:07 5.1 C 39 % -7.69 C
557 02-02-2009 15:25:07 5.1 C 39 % -7.69 C
558 02-02-2009 15:37:07 5.1 C 39 % -7.69 C
559 02-02-2009 15:49:07 5 C 40 % -7.45 C
560 02-02-2009 16:01:06 4.9 C 40 % -7.54 C
561 02-02-2009 16:13:06 4.6 C 42 % -7.18 C
562 02-02-2009 16:25:07 4.3 C 43 % -7.15 C
563 02-02-2009 16:37:07 3.9 C 46 % -6.64 C
564 02-02-2009 16:49:06 3.7 C 47 % -6.55 C
565 02-02-2009 17:01:06 3.5 C 48 % -6.46 C
566 02-02-2009 17:13:06 3.3 C 49 % -6.37 C
567 02-02-2009 17:25:06 3.1 C 50 % -6.29 C
568 02-02-2009 17:37:06 3.1 C 50 % -6.29 C
569 02-02-2009 17:49:06 3 C 51 % -6.13 C
570 02-02-2009 18:01:05 2.6 C 53 % -6 C
571 02-02-2009 18:13:05 2.7 C 53 % -5.9 C
572 02-02-2009 18:25:06 2.6 C 53 % -6 C
573 02-02-2009 18:37:06 2.2 C 55 % -5.89 C
574 02-02-2009 18:49:06 2.1 C 56 % -5.74 C
575 02-02-2009 19:01:06 1.8 C 58 % -5.57 C
Sensor: Nr:Datum:Temp:Feuchte:Taupunkt:
Aussen-T/F 576 02-02-2009 19:13:06 1.5 C 59 % -5.62 C
577 02-02-2009 19:25:05 1.3 C 61 % -5.37 C
578 02-02-2009 19:37:05 1.1 C 62 % -5.35 C
579 02-02-2009 19:49:04 1.3 C 62 % -5.16 C
580 02-02-2009 20:01:05 1.2 C 61 % -5.47 C
581 02-02-2009 20:13:05 1 C 63 % -5.23 C
582 02-02-2009 20:25:04 1.3 C 63 % -4.95 C
583 02-02-2009 20:37:04 1.2 C 62 % -5.26 C
584 02-02-2009 20:49:05 1.4 C 62 % -5.07 C
585 02-02-2009 21:01:03 1.6 C 62 % -4.88 C
586 02-02-2009 21:13:03 1.3 C 62 % -5.16 C
587 02-02-2009 21:26:05 1.5 C 62 % -4.97 C
588 02-02-2009 21:38:05 1.4 C 62 % -5.07 C
589 02-02-2009 21:50:06 1.2 C 62 % -5.26 C
590 02-02-2009 22:02:06 1.1 C 64 % -4.93 C
591 02-02-2009 22:14:06 0.8 C 65 % -5.01 C
592 02-02-2009 22:26:06 0.6 C 68 % -4.61 C
593 02-02-2009 22:38:06 0.4 C 69 % -4.61 C
594 02-02-2009 22:50:06 0.3 C 70 % -4.51 C
595 02-02-2009 23:02:06 0.1 C 70 % -4.71 C
596 02-02-2009 23:14:06 0 C 71 % -4.61 C
597 02-02-2009 23:26:06 -0.1 C 72 % -4.53 C
598 02-02-2009 23:38:06 -0.3 C 72 % -4.72 C
599 02-02-2009 23:50:06 -0.3 C 73 % -4.54 C
600 03-02-2009 00:02:06 -0.4 C 74 % -4.46 C
Sensor: Nr:Datum:Temp:Feuchte:Taupunkt:
Aussen-T/F 601 03-02-2009 00:14:06 -0.5 C 74 % -4.55 C
602 03-02-2009 00:26:06 -0.7 C 74 % -4.75 C
603 03-02-2009 00:38:06 -0.9 C 75 % -4.76 C
604 03-02-2009 00:50:06 -1.1 C 75 % -4.96 C
605 03-02-2009 01:02:06 -1.2 C 77 % -4.71 C
606 03-02-2009 01:14:06 -1.3 C 77 % -4.8 C
607 03-02-2009 01:26:06 -1.3 C 78 % -4.63 C
608 03-02-2009 01:38:06 -1.4 C 78 % -4.73 C
609 03-02-2009 01:50:07 -1.4 C 79 % -4.56 C
610 03-02-2009 02:02:07 -1.4 C 79 % -4.56 C
611 03-02-2009 02:14:07 -1.4 C 80 % -4.4 C
612 03-02-2009 02:26:07 -1.4 C 81 % -4.23 C
613 03-02-2009 02:38:07 -1.6 C 81 % -4.43 C
614 03-02-2009 02:50:07 -1.7 C 81 % -4.52 C
615 03-02-2009 03:02:07 -1.7 C 81 % -4.52 C
616 03-02-2009 03:14:07 -1.9 C 81 % -4.72 C
617 03-02-2009 03:26:07 -2 C 81 % -4.82 C
618 03-02-2009 03:38:07 -1.9 C 81 % -4.72 C
619 03-02-2009 03:50:07 -2 C 82 % -4.65 C
620 03-02-2009 04:02:07 -2.1 C 82 % -4.75 C
621 03-02-2009 04:14:07 -2.3 C 82 % -4.95 C
622 03-02-2009 04:26:07 -2.3 C 83 % -4.79 C
623 03-02-2009 04:38:07 -2.3 C 83 % -4.79 C
624 03-02-2009 04:50:07 -2.5 C 83 % -4.98 C
625 03-02-2009 05:02:07 -2.3 C 83 % -4.79 C
Sensor: Nr:Datum:Temp:Feuchte:Taupunkt:
Aussen-T/F 626 03-02-2009 05:14:07 -2.3 C 84 % -4.63 C
627 03-02-2009 05:26:07 -2.4 C 84 % -4.73 C
628 03-02-2009 05:38:08 -2.4 C 84 % -4.73 C
629 03-02-2009 05:50:08 -2.6 C 84 % -4.92 C
630 03-02-2009 06:02:08 -2.6 C 84 % -4.92 C
631 03-02-2009 06:14:08 -2.6 C 84 % -4.92 C
632 03-02-2009 06:26:08 -2.8 C 84 % -5.12 C
633 03-02-2009 06:38:08 -2.8 C 84 % -5.12 C
634 03-02-2009 06:50:08 -2.9 C 84 % -5.22 C
635 03-02-2009 07:02:04 -3 C 84 % -5.32 C
636 03-02-2009 07:14:05 -3 C 84 % -5.32 C
637 03-02-2009 07:26:05 -3 C 84 % -5.32 C
638 03-02-2009 07:38:04 -3 C 84 % -5.32 C
639 03-02-2009 07:50:04 -3.1 C 84 % -5.41 C
640 03-02-2009 08:02:04 -3.1 C 84 % -5.41 C
641 03-02-2009 08:14:04 -3.1 C 84 % -5.41 C
642 03-02-2009 08:26:04 -3.1 C 84 % -5.41 C
643 03-02-2009 08:38:03 -2.8 C 84 % -5.12 C
644 03-02-2009 08:50:04 -2.7 C 84 % -5.02 C
645 03-02-2009 09:02:04 -2.7 C 84 % -5.02 C
646 03-02-2009 09:14:03 -2.7 C 84 % -5.02 C
647 03-02-2009 09:26:03 -2.5 C 84 % -4.83 C
648 03-02-2009 09:38:03 -2.3 C 84 % -4.63 C
649 03-02-2009 09:50:03 -2.1 C 84 % -4.43 C
650 03-02-2009 10:02:03 -1.9 C 84 % -4.24 C
Sensor: Nr:Datum:Temp:Feuchte:Taupunkt:
Aussen-T/F 651 03-02-2009 10:14:02 -1.8 C 84 % -4.14 C
652 03-02-2009 10:26:02 -1.6 C 84 % -3.94 C
653 03-02-2009 10:38:03 -1.3 C 84 % -3.65 C
654 03-02-2009 10:50:02 -0.9 C 84 % -3.26 C
655 03-02-2009 11:02:02 -0.2 C 85 % -2.41 C
656 03-02-2009 11:14:03 0.3 C 84 % -2.08 C
657 03-02-2009 11:26:03 0.6 C 84 % -1.78 C
658 03-02-2009 11:38:02 1 C 81 % -1.88 C
659 03-02-2009 11:50:02 1.2 C 80 % -1.86 C
660 03-02-2009 12:02:01 1.4 C 79 % -1.83 C
661 03-02-2009 12:14:02 2 C 77 % -1.6 C
662 03-02-2009 12:26:02 2.5 C 75 % -1.47 C
663 03-02-2009 12:38:01 3 C 71 % -1.73 C
664 03-02-2009 12:50:01 3.2 C 68 % -2.12 C
665 03-02-2009 13:02:01 3.7 C 65 % -2.25 C
666 03-02-2009 13:14:01 4.2 C 62 % -2.42 C
667 03-02-2009 13:26:01 4.7 C 61 % -2.16 C
668 03-02-2009 13:38:01 5.5 C 56 % -2.56 C
669 03-02-2009 13:50:01 5.9 C 54 % -2.68 C
670 03-02-2009 14:02:01 6 C 52 % -3.09 C
671 03-02-2009 14:14:00 6.5 C 50 % -3.16 C
672 03-02-2009 14:26:00 6.3 C 49 % -3.61 C
673 03-02-2009 14:38:00 6.2 C 50 % -3.43 C
674 03-02-2009 14:50:00 6.1 C 50 % -3.52 C
675 03-02-2009 15:02:00 6.2 C 51 % -3.17 C
Sensor: Nr:Datum:Temp:Feuchte:Taupunkt:
Aussen-T/F 676 03-02-2009 15:14:59 5.9 C 52 % -3.19 C
677 03-02-2009 15:25:59 5.7 C 53 % -3.12 C
678 03-02-2009 15:38:00 5.8 C 53 % -3.02 C
679 03-02-2009 15:50:59 5.5 C 53 % -3.3 C
680 03-02-2009 16:02:59 5.7 C 54 % -2.87 C
681 03-02-2009 16:14:00 5.8 C 53 % -3.02 C
682 03-02-2009 16:26:00 5.3 C 54 % -3.24 C
683 03-02-2009 16:38:59 4.6 C 57 % -3.17 C
684 03-02-2009 16:50:59 4.1 C 59 % -3.18 C
685 03-02-2009 17:02:59 3.6 C 62 % -2.98 C
686 03-02-2009 17:14:59 3.3 C 63 % -3.05 C
687 03-02-2009 17:26:59 3.1 C 65 % -2.83 C
688 03-02-2009 17:38:58 2.9 C 66 % -2.81 C
689 03-02-2009 17:50:59 2.5 C 67 % -2.99 C
690 03-02-2009 18:02:58 2.3 C 69 % -2.79 C
691 03-02-2009 18:14:58 2 C 70 % -2.88 C
692 03-02-2009 18:26:58 2 C 71 % -2.69 C
693 03-02-2009 18:38:58 1.8 C 73 % -2.51 C
694 03-02-2009 18:50:58 1.7 C 74 % -2.42 C
695 03-02-2009 19:02:58 1.7 C 74 % -2.42 C
696 03-02-2009 19:14:57 1.7 C 75 % -2.24 C
697 03-02-2009 19:26:57 1.6 C 74 % -2.52 C
698 03-02-2009 19:38:58 1.7 C 75 % -2.24 C
699 03-02-2009 19:50:57 1.5 C 75 % -2.44 C
700 03-02-2009 20:02:57 1.3 C 75 % -2.63 C
Sensor: Nr:Datum:Temp:Feuchte:Taupunkt:
Aussen-T/F 701 03-02-2009 20:14:57 1.2 C 76 % -2.55 C
702 03-02-2009 20:26:57 1.2 C 77 % -2.37 C
703 03-02-2009 20:38:57 1.3 C 78 % -2.1 C
704 03-02-2009 20:50:56 1.3 C 79 % -1.93 C
705 03-02-2009 21:02:56 1.2 C 78 % -2.2 C
706 03-02-2009 21:14:57 1 C 78 % -2.39 C
707 03-02-2009 21:26:57 1.1 C 79 % -2.12 C
708 03-02-2009 21:38:56 1.4 C 81 % -1.49 C
709 03-02-2009 21:50:56 1.5 C 81 % -1.4 C
710 03-02-2009 22:03:57 1.7 C 83 % -0.87 C
711 03-02-2009 22:15:57 1.9 C 83 % -0.67 C
712 03-02-2009 22:27:57 2 C 82 % -0.74 C
713 03-02-2009 22:39:57 2.1 C 82 % -0.64 C
714 03-02-2009 22:51:57 2.1 C 81 % -0.81 C
715 03-02-2009 23:03:57 2 C 81 % -0.91 C
716 03-02-2009 23:15:57 2 C 80 % -1.08 C
717 03-02-2009 23:27:57 2.1 C 80 % -0.98 C
718 03-02-2009 23:39:57 2.1 C 80 % -0.98 C
719 03-02-2009 23:51:58 2.1 C 79 % -1.15 C
720 04-02-2009 00:03:58 2.2 C 80 % -0.88 C
721 04-02-2009 00:15:58 2.2 C 79 % -1.05 C
722 04-02-2009 00:27:58 2.2 C 79 % -1.05 C
723 04-02-2009 00:39:58 2.2 C 80 % -0.88 C
724 04-02-2009 00:51:58 2.2 C 80 % -0.88 C
725 04-02-2009 01:03:58 2.3 C 80 % -0.79 C
Sensor: Nr:Datum:Temp:Feuchte:Taupunkt:
Aussen-T/F 726 04-02-2009 01:15:58 2.2 C 80 % -0.88 C
727 04-02-2009 01:27:58 2.2 C 80 % -0.88 C
728 04-02-2009 01:39:58 2.2 C 80 % -0.88 C
729 04-02-2009 01:51:58 2.2 C 80 % -0.88 C
730 04-02-2009 02:03:58 2.2 C 80 % -0.88 C
731 04-02-2009 02:15:58 2.2 C 79 % -1.05 C
732 04-02-2009 02:27:58 2.1 C 79 % -1.15 C
733 04-02-2009 02:39:58 2.1 C 79 % -1.15 C
734 04-02-2009 02:51:58 2.1 C 79 % -1.15 C
735 04-02-2009 03:03:58 2 C 80 % -1.08 C
736 04-02-2009 03:15:58 2 C 80 % -1.08 C
737 04-02-2009 03:27:58 2 C 80 % -1.08 C
738 04-02-2009 03:39:59 2 C 80 % -1.08 C
739 04-02-2009 03:51:59 2 C 80 % -1.08 C
740 04-02-2009 04:03:59 2 C 80 % -1.08 C
741 04-02-2009 04:15:59 1.9 C 80 % -1.18 C
742 04-02-2009 04:27:59 1.8 C 80 % -1.27 C
743 04-02-2009 04:39:59 1.8 C 80 % -1.27 C
744 04-02-2009 04:51:59 1.8 C 80 % -1.27 C
745 04-02-2009 05:03:59 1.8 C 80 % -1.27 C
746 04-02-2009 05:15:59 1.8 C 80 % -1.27 C
747 04-02-2009 05:27:59 1.8 C 80 % -1.27 C
748 04-02-2009 05:39:59 1.8 C 80 % -1.27 C
749 04-02-2009 05:51:59 1.6 C 80 % -1.47 C
750 04-02-2009 06:03:59 1.5 C 80 % -1.57 C
Sensor: Nr:Datum:Temp:Feuchte:Taupunkt:
Aussen-T/F 751 04-02-2009 06:15:59 1.5 C 81 % -1.4 C
752 04-02-2009 06:27:59 1.6 C 81 % -1.3 C
753 04-02-2009 06:39:58 1.6 C 82 % -1.13 C
754 04-02-2009 06:51:57 1.6 C 82 % -1.13 C
755 04-02-2009 07:03:57 1.6 C 82 % -1.13 C
756 04-02-2009 07:15:57 1.6 C 82 % -1.13 C
757 04-02-2009 07:27:57 1.7 C 82 % -1.03 C
758 04-02-2009 07:39:57 1.7 C 82 % -1.03 C
759 04-02-2009 07:51:57 1.7 C 82 % -1.03 C
760 04-02-2009 08:03:57 1.7 C 82 % -1.03 C
761 04-02-2009 08:15:56 1.6 C 82 % -1.13 C
762 04-02-2009 08:27:56 1.7 C 82 % -1.03 C
763 04-02-2009 08:39:56 1.7 C 83 % -0.87 C
764 04-02-2009 08:51:56 1.7 C 82 % -1.03 C
765 04-02-2009 09:03:56 1.7 C 82 % -1.03 C
766 04-02-2009 09:15:55 1.7 C 82 % -1.03 C
767 04-02-2009 09:27:55 1.7 C 83 % -0.87 C
768 04-02-2009 09:39:56 1.8 C 83 % -0.77 C
769 04-02-2009 09:51:55 1.9 C 83 % -0.67 C
770 04-02-2009 10:03:55 2.1 C 83 % -0.48 C
771 04-02-2009 10:15:56 2.2 C 82 % -0.55 C
772 04-02-2009 10:27:56 2.3 C 82 % -0.45 C
773 04-02-2009 10:39:55 2.4 C 82 % -0.35 C
774 04-02-2009 10:51:55 2.8 C 82 % 0.04 C
775 04-02-2009 11:03:55 3 C 80 % -0.1 C
Sensor: Nr:Datum:Temp:Feuchte:Taupunkt:
Aussen-T/F 776 04-02-2009 11:15:55 3.1 C 79 % -0.18 C
777 04-02-2009 11:27:55 3.1 C 78 % -0.35 C
778 04-02-2009 11:39:54 3.3 C 77 % -0.34 C
779 04-02-2009 11:51:54 3.2 C 76 % -0.61 C
780 04-02-2009 12:03:54 3.1 C 76 % -0.71 C
781 04-02-2009 12:15:54 3.4 C 77 % -0.24 C
782 04-02-2009 12:27:54 3.9 C 77 % 0.25 C
783 04-02-2009 12:39:54 4.1 C 77 % 0.44 C
784 04-02-2009 12:51:54 4.4 C 77 % 0.73 C
785 04-02-2009 13:03:54 4.6 C 77 % 0.92 C
786 04-02-2009 13:15:53 4.8 C 76 % 0.94 C
787 04-02-2009 13:27:53 5 C 74 % 0.76 C
788 04-02-2009 13:39:53 5.3 C 73 % 0.86 C
789 04-02-2009 13:51:53 5.7 C 71 % 0.86 C
790 04-02-2009 14:03:53 6 C 68 % 0.55 C
791 04-02-2009 14:15:52 6.1 C 66 % 0.24 C
792 04-02-2009 14:27:52 6.2 C 66 % 0.33 C
793 04-02-2009 14:39:53 6.2 C 66 % 0.33 C
794 04-02-2009 14:51:52 5.9 C 66 % 0.05 C
795 04-02-2009 15:03:52 6 C 66 % 0.14 C
796 04-02-2009 15:15:53 6.7 C 65 % 0.6 C
797 04-02-2009 15:27:53 6.3 C 64 % 0 C
798 04-02-2009 15:39:52 6.1 C 65 % 0.03 C
799 04-02-2009 15:51:52 6 C 66 % 0.14 C
800 04-02-2009 16:03:52 6.1 C 67 % 0.44 C
Sensor: Nr:Datum:Temp:Feuchte:Taupunkt:
Aussen-T/F 801 04-02-2009 16:15:52 6.1 C 67 % 0.44 C
802 04-02-2009 16:27:53 5.9 C 67 % 0.25 C
803 04-02-2009 16:39:51 5.7 C 68 % 0.27 C
804 04-02-2009 16:51:51 4.7 C 71 % -0.1 C
805 04-02-2009 17:03:52 4.6 C 73 % 0.19 C
806 04-02-2009 17:15:51 4.5 C 74 % 0.28 C
807 04-02-2009 17:27:51 4.5 C 74 % 0.28 C
808 04-02-2009 17:39:51 4.5 C 74 % 0.28 C
809 04-02-2009 17:51:51 4.6 C 74 % 0.38 C
810 04-02-2009 18:03:51 4.4 C 74 % 0.18 C
811 04-02-2009 18:15:50 4.2 C 74 % -0.01 C
812 04-02-2009 18:27:50 4 C 75 % -0.02 C
813 04-02-2009 18:39:51 3.7 C 76 % -0.13 C
814 04-02-2009 18:51:50 3.4 C 77 % -0.24 C
815 04-02-2009 19:03:50 3.3 C 77 % -0.34 C
816 04-02-2009 19:15:49 3.3 C 78 % -0.16 C
817 04-02-2009 19:27:49 3.2 C 78 % -0.26 C
818 04-02-2009 19:39:50 3.3 C 78 % -0.16 C
819 04-02-2009 19:51:49 3.2 C 78 % -0.26 C
820 04-02-2009 20:03:49 3.1 C 77 % -0.53 C
821 04-02-2009 20:15:50 3.1 C 78 % -0.35 C
822 04-02-2009 20:27:50 3 C 78 % -0.45 C
823 04-02-2009 20:39:49 3.2 C 78 % -0.26 C
824 04-02-2009 20:51:49 2.9 C 79 % -0.37 C
825 04-02-2009 21:03:49 2.9 C 78 % -0.55 C
Sensor: Nr:Datum:Temp:Feuchte:Taupunkt:
Aussen-T/F 826 04-02-2009 21:15:48 2.9 C 79 % -0.37 C
827 04-02-2009 21:27:48 2.8 C 78 % -0.65 C
828 04-02-2009 21:39:49 2.7 C 78 % -0.74 C
829 04-02-2009 21:51:48 2.4 C 78 % -1.03 C
830 04-02-2009 22:04:49 2 C 78 % -1.42 C
831 04-02-2009 22:16:50 1.9 C 80 % -1.18 C
832 04-02-2009 22:28:50 2.1 C 80 % -0.98 C
833 04-02-2009 22:40:50 2 C 79 % -1.25 C
834 04-02-2009 22:52:50 1.6 C 80 % -1.47 C
835 04-02-2009 23:04:50 1.6 C 81 % -1.3 C
836 04-02-2009 23:16:50 1.4 C 81 % -1.49 C
837 04-02-2009 23:28:50 1.5 C 82 % -1.23 C
838 04-02-2009 23:40:50 1.3 C 82 % -1.43 C
839 04-02-2009 23:52:50 1.2 C 82 % -1.52 C
840 05-02-2009 00:04:50 1 C 82 % -1.72 C
841 05-02-2009 00:16:50 0.9 C 83 % -1.65 C
842 05-02-2009 00:28:50 0.6 C 83 % -1.95 C
843 05-02-2009 00:40:50 0.4 C 83 % -2.14 C
844 05-02-2009 00:52:50 0.3 C 84 % -2.08 C
845 05-02-2009 01:04:50 0.1 C 84 % -2.27 C
846 05-02-2009 01:16:50 -0.1 C 84 % -2.47 C
847 05-02-2009 01:28:50 -0.2 C 84 % -2.57 C
848 05-02-2009 01:40:50 -0.5 C 84 % -2.86 C
849 05-02-2009 01:52:50 -0.6 C 84 % -2.96 C
850 05-02-2009 02:04:51 -0.6 C 85 % -2.8 C
Sensor: Nr:Datum:Temp:Feuchte:Taupunkt:
Aussen-T/F 851 05-02-2009 02:16:51 -0.8 C 86 % -2.84 C
852 05-02-2009 02:28:51 -1 C 86 % -3.04 C
853 05-02-2009 02:40:51 -1 C 86 % -3.04 C
854 05-02-2009 02:52:51 -1.1 C 87 % -2.98 C
855 05-02-2009 03:04:51 -1.1 C 87 % -2.98 C
856 05-02-2009 03:16:51 -1.2 C 88 % -2.93 C
857 05-02-2009 03:28:51 -1.2 C 88 % -2.93 C
858 05-02-2009 03:40:51 -1.1 C 89 % -2.68 C
859 05-02-2009 03:52:51 -0.9 C 89 % -2.48 C
860 05-02-2009 04:04:51 -0.9 C 89 % -2.48 C
861 05-02-2009 04:16:51 -0.9 C 89 % -2.48 C
862 05-02-2009 04:28:51 -0.6 C 90 % -2.03 C
863 05-02-2009 04:40:51 -0.9 C 89 % -2.48 C
864 05-02-2009 04:52:51 -0.7 C 90 % -2.13 C
865 05-02-2009 05:04:51 -0.8 C 90 % -2.23 C
866 05-02-2009 05:16:51 -0.7 C 90 % -2.13 C
867 05-02-2009 05:28:51 -0.7 C 90 % -2.13 C
868 05-02-2009 05:40:51 -0.6 C 90 % -2.03 C
869 05-02-2009 05:52:52 -0.8 C 90 % -2.23 C
870 05-02-2009 06:04:52 -0.9 C 90 % -2.33 C
871 05-02-2009 06:16:52 -1 C 90 % -2.43 C
872 05-02-2009 06:28:52 -1.1 C 90 % -2.53 C
873 05-02-2009 06:40:52 -1.2 C 90 % -2.63 C
874 05-02-2009 06:52:52 -1.3 C 90 % -2.73 C
875 05-02-2009 07:04:49 -1.4 C 90 % -2.82 C
Sensor: Nr:Datum:Temp:Feuchte:Taupunkt:
Aussen-T/F 876 05-02-2009 07:16:49 -1.2 C 90 % -2.63 C
877 05-02-2009 07:28:49 -1.1 C 91 % -2.38 C
878 05-02-2009 07:40:49 -1.1 C 91 % -2.38 C
879 05-02-2009 07:52:49 -1 C 91 % -2.28 C
880 05-02-2009 08:04:48 -0.9 C 91 % -2.18 C
881 05-02-2009 08:16:48 -0.6 C 92 % -1.74 C
882 05-02-2009 08:28:49 -0.3 C 92 % -1.44 C
883 05-02-2009 08:40:48 0 C 92 % -1.14 C
884 05-02-2009 08:52:48 0.2 C 93 % -0.79 C
885 05-02-2009 09:04:47 0.6 C 93 % -0.4 C
886 05-02-2009 09:16:48 0.9 C 93 % -0.1 C
887 05-02-2009 09:28:48 0.7 C 92 % -0.45 C
888 05-02-2009 09:40:48 1 C 91 % -0.3 C
889 05-02-2009 09:52:47 1 C 91 % -0.3 C
890 05-02-2009 10:04:48 1.2 C 91 % -0.1 C
891 05-02-2009 10:16:47 1.5 C 90 % 0.04 C
892 05-02-2009 10:28:47 1.7 C 89 % 0.09 C
893 05-02-2009 10:40:47 1.9 C 89 % 0.28 C
894 05-02-2009 10:52:47 2.4 C 89 % 0.78 C
895 05-02-2009 11:04:47 3.1 C 87 % 1.15 C
896 05-02-2009 11:16:46 3.6 C 87 % 1.64 C
897 05-02-2009 11:28:46 3.8 C 86 % 1.68 C
898 05-02-2009 11:40:46 4.3 C 81 % 1.34 C
899 05-02-2009 11:52:46 4.7 C 78 % 1.2 C
900 05-02-2009 12:04:46 5.1 C 73 % 0.67 C
Sensor: Nr:Datum:Temp:Feuchte:Taupunkt:
Aussen-T/F 901 05-02-2009 12:16:46 5.7 C 71 % 0.86 C
902 05-02-2009 12:28:46 6.2 C 67 % 0.54 C
903 05-02-2009 12:40:46 7 C 63 % 0.45 C
904 05-02-2009 12:52:46 8.1 C 57 % 0.11 C
905 05-02-2009 13:04:45 8.8 C 55 % 0.27 C
906 05-02-2009 13:16:46 8.8 C 54 % 0.02 C
907 05-02-2009 13:28:46 8.7 C 55 % 0.18 C
908 05-02-2009 13:40:45 9.3 C 53 % 0.23 C
909 05-02-2009 13:52:45 9.5 C 52 % 0.15 C
910 05-02-2009 14:04:45 9.8 C 51 % 0.16 C
911 05-02-2009 14:16:45 10.2 C 49 % -0.02 C
912 05-02-2009 14:28:45 10.6 C 47 % -0.23 C
913 05-02-2009 14:40:45 10.3 C 48 % -0.21 C
914 05-02-2009 14:52:44 10.1 C 48 % -0.4 C
915 05-02-2009 15:04:45 10.2 C 49 % -0.02 C
916 05-02-2009 15:16:44 10 C 50 % 0.07 C
917 05-02-2009 15:28:44 9.8 C 51 % 0.16 C
918 05-02-2009 15:40:44 9.8 C 51 % 0.16 C
919 05-02-2009 15:52:44 10 C 51 % 0.34 C
920 05-02-2009 16:04:44 9.9 C 52 % 0.52 C
921 05-02-2009 16:16:44 9.7 C 52 % 0.33 C
922 05-02-2009 16:28:44 9.5 C 53 % 0.41 C
923 05-02-2009 16:40:43 9.6 C 52 % 0.24 C
924 05-02-2009 16:52:44 9.2 C 53 % 0.13 C
925 05-02-2009 17:04:43 8.6 C 56 % 0.33 C
Sensor: Nr:Datum:Temp:Feuchte:Taupunkt:
Aussen-T/F 926 05-02-2009 17:16:43 7.8 C 58 % 0.07 C
927 05-02-2009 17:28:43 7.2 C 61 % 0.2 C
928 05-02-2009 17:40:43 6.9 C 63 % 0.36 C
929 05-02-2009 17:52:43 6.5 C 64 % 0.19 C
930 05-02-2009 18:04:43 6.1 C 66 % 0.24 C
931 05-02-2009 18:16:42 5.8 C 68 % 0.36 C
932 05-02-2009 18:28:42 5.5 C 69 % 0.28 C
933 05-02-2009 18:40:43 5 C 70 % 0 C
934 05-02-2009 18:52:42 4.8 C 73 % 0.38 C
935 05-02-2009 19:04:42 4.6 C 73 % 0.19 C
936 05-02-2009 19:16:42 4.4 C 75 % 0.37 C
937 05-02-2009 19:28:42 4.1 C 75 % 0.08 C
938 05-02-2009 19:40:42 4 C 76 % 0.16 C
939 05-02-2009 19:52:41 3.8 C 78 % 0.33 C
940 05-02-2009 20:04:42 3.7 C 79 % 0.4 C
941 05-02-2009 20:16:42 3.7 C 80 % 0.58 C
942 05-02-2009 20:28:42 3.8 C 81 % 0.85 C
943 05-02-2009 20:40:41 4.1 C 81 % 1.14 C
944 05-02-2009 20:52:42 3.9 C 80 % 0.77 C
945 05-02-2009 21:04:41 3.7 C 80 % 0.58 C
946 05-02-2009 21:16:41 3.7 C 82 % 0.92 C
947 05-02-2009 21:28:41 3.5 C 82 % 0.72 C
948 05-02-2009 21:40:41 3.4 C 83 % 0.79 C
949 05-02-2009 21:52:41 3.4 C 83 % 0.79 C
950 05-02-2009 22:04:40 3.4 C 84 % 0.96 C
Sensor: Nr:Datum:Temp:Feuchte:Taupunkt:
Aussen-T/F 951 05-02-2009 22:16:41 3.4 C 84 % 0.96 C
952 05-02-2009 22:28:41 3.4 C 84 % 0.96 C
953 05-02-2009 22:40:40 3.5 C 85 % 1.22 C
954 05-02-2009 22:52:40 3.6 C 85 % 1.32 C
955 05-02-2009 23:04:40 3.9 C 85 % 1.61 C
956 05-02-2009 23:16:40 3.8 C 83 % 1.19 C
957 05-02-2009 23:28:40 3.7 C 83 % 1.09 C
958 05-02-2009 23:40:40 3.8 C 82 % 1.02 C
959 05-02-2009 23:52:39 3.7 C 82 % 0.92 C
960 06-02-2009 00:04:40 3.3 C 81 % 0.36 C
961 06-02-2009 00:16:39 3 C 81 % 0.07 C
962 06-02-2009 00:28:39 2.4 C 82 % -0.35 C
963 06-02-2009 00:40:39 2.3 C 82 % -0.45 C
964 06-02-2009 00:52:39 2.1 C 83 % -0.48 C
965 06-02-2009 01:04:38 2 C 83 % -0.58 C
966 06-02-2009 01:16:39 1.9 C 84 % -0.51 C
967 06-02-2009 01:28:39 1.9 C 85 % -0.35 C
968 06-02-2009 01:40:38 1.7 C 85 % -0.54 C
969 06-02-2009 01:52:38 1.6 C 85 % -0.64 C
970 06-02-2009 02:04:39 1.5 C 85 % -0.74 C
971 06-02-2009 02:16:38 1.5 C 85 % -0.74 C
972 06-02-2009 02:28:38 1.4 C 85 % -0.84 C
973 06-02-2009 02:40:38 1.4 C 86 % -0.68 C
974 06-02-2009 02:53:40 1.3 C 86 % -0.78 C
975 06-02-2009 03:05:40 1.2 C 86 % -0.88 C
Sensor: Nr:Datum:Temp:Feuchte:Taupunkt:
Aussen-T/F 976 06-02-2009 03:17:40 1.3 C 86 % -0.78 C
977 06-02-2009 03:29:39 1.3 C 86 % -0.78 C
978 06-02-2009 03:41:39 1.4 C 87 % -0.52 C
979 06-02-2009 03:53:39 1.7 C 87 % -0.23 C
980 06-02-2009 04:05:39 1.6 C 87 % -0.32 C
981 06-02-2009 04:17:39 1.6 C 86 % -0.48 C
982 06-02-2009 04:29:39 1.6 C 86 % -0.48 C
983 06-02-2009 04:41:39 1.7 C 86 % -0.38 C
984 06-02-2009 04:53:38 1.8 C 86 % -0.29 C
985 06-02-2009 05:05:38 1.7 C 86 % -0.38 C
986 06-02-2009 05:17:39 1.6 C 86 % -0.48 C
987 06-02-2009 05:29:38 1.6 C 86 % -0.48 C
988 06-02-2009 05:41:38 1.5 C 86 % -0.58 C
989 06-02-2009 05:53:38 1.5 C 86 % -0.58 C
990 06-02-2009 06:05:38 1.1 C 86 % -0.97 C
991 06-02-2009 06:17:38 0.9 C 87 % -1.01 C
992 06-02-2009 06:29:37 0.9 C 87 % -1.01 C
993 06-02-2009 06:41:37 0.8 C 88 % -0.96 C
994 06-02-2009 06:53:38 0.8 C 88 % -0.96 C
995 06-02-2009 07:05:37 1 C 88 % -0.76 C
996 06-02-2009 07:17:37 0.7 C 89 % -0.9 C
997 06-02-2009 07:29:37 1 C 89 % -0.6 C
998 06-02-2009 07:41:37 1 C 90 % -0.45 C
999 06-02-2009 07:53:37 1 C 90 % -0.45 C
1000 06-02-2009 08:05:36 1 C 90 % -0.45 C
Sensor: Nr:Datum:Temp:Feuchte:Taupunkt:
Aussen-T/F 1001 06-02-2009 08:17:37 0.9 C 91 % -0.4 C
1002 06-02-2009 08:29:37 0.7 C 90 % -0.75 C
1003 06-02-2009 08:41:37 0.9 C 90 % -0.55 C
1004 06-02-2009 08:53:36 1.1 C 90 % -0.35 C
1005 06-02-2009 09:05:37 1 C 90 % -0.45 C
1006 06-02-2009 09:17:36 1.1 C 90 % -0.35 C
1007 06-02-2009 09:29:36 1 C 90 % -0.45 C
1008 06-02-2009 09:41:36 1 C 91 % -0.3 C
1009 06-02-2009 09:53:36 1.2 C 91 % -0.1 C
1010 06-02-2009 10:05:36 1.6 C 91 % 0.29 C
1011 06-02-2009 10:17:35 2 C 91 % 0.69 C
1012 06-02-2009 10:29:35 2.2 C 91 % 0.89 C
1013 06-02-2009 10:41:35 2.6 C 91 % 1.28 C
1014 06-02-2009 10:53:35 3.1 C 91 % 1.78 C
1015 06-02-2009 11:05:35 3.7 C 91 % 2.37 C
1016 06-02-2009 11:17:35 4.3 C 90 % 2.81 C
1017 06-02-2009 11:29:34 4.7 C 89 % 3.05 C
1018 06-02-2009 11:41:34 5.2 C 88 % 3.38 C
1019 06-02-2009 11:53:35 5 C 84 % 2.53 C
1020 06-02-2009 12:05:34 5.2 C 81 % 2.21 C
1021 06-02-2009 12:17:34 5.8 C 81 % 2.8 C
1022 06-02-2009 12:29:34 6.4 C 79 % 3.03 C
1023 06-02-2009 12:41:34 6.6 C 74 % 2.31 C
1024 06-02-2009 12:53:34 7.1 C 72 % 2.4 C
1025 06-02-2009 13:05:33 7.7 C 70 % 2.58 C
Sensor: Nr:Datum:Temp:Feuchte:Taupunkt:
Aussen-T/F 1026 06-02-2009 13:17:38 7.9 C 65 % 1.74 C
1027 06-02-2009 13:29:34 7.9 C 63 % 1.3 C
1028 06-02-2009 13:41:34 7.9 C 63 % 1.3 C
1029 06-02-2009 13:53:33 8.3 C 61 % 1.23 C
1030 06-02-2009 14:05:33 9.1 C 60 % 1.76 C
1031 06-02-2009 14:17:33 9.2 C 57 % 1.14 C
1032 06-02-2009 14:29:33 9.2 C 56 % 0.89 C
1033 06-02-2009 14:41:33 9 C 57 % 0.95 C
1034 06-02-2009 14:53:33 9.1 C 56 % 0.8 C
1035 06-02-2009 15:05:33 9 C 56 % 0.71 C
1036 06-02-2009 15:17:32 9 C 56 % 0.71 C
1037 06-02-2009 15:29:32 8.9 C 57 % 0.86 C
1038 06-02-2009 15:41:32 8.7 C 57 % 0.67 C
1039 06-02-2009 15:53:32 8.4 C 58 % 0.63 C
1040 06-02-2009 16:05:33 8.1 C 59 % 0.58 C
1041 06-02-2009 16:17:32 7.9 C 61 % 0.86 C
1042 06-02-2009 16:29:32 7.8 C 61 % 0.76 C
1043 06-02-2009 16:41:32 7.7 C 62 % 0.89 C
1044 06-02-2009 16:53:31 7.6 C 62 % 0.8 C
1045 06-02-2009 17:05:32 7.5 C 63 % 0.92 C
1046 06-02-2009 17:17:31 7.3 C 63 % 0.74 C
1047 06-02-2009 17:29:31 7.1 C 64 % 0.76 C
1048 06-02-2009 17:41:31 7 C 64 % 0.67 C
1049 06-02-2009 17:53:31 6.9 C 66 % 1 C
1050 06-02-2009 18:05:31 6.9 C 66 % 1 C
Sensor: Nr:Datum:Temp:Feuchte:Taupunkt:
Aussen-T/F 1051 06-02-2009 18:17:31 6.7 C 67 % 1.02 C
1052 06-02-2009 18:29:31 6.6 C 67 % 0.92 C
1053 06-02-2009 18:41:31 6.4 C 68 % 0.94 C
1054 06-02-2009 18:53:31 6.3 C 68 % 0.84 C
1055 06-02-2009 19:05:30 6.3 C 69 % 1.04 C
1056 06-02-2009 19:17:31 6.2 C 70 % 1.15 C
1057 06-02-2009 19:29:30 6.1 C 70 % 1.05 C
1058 06-02-2009 19:41:30 6.2 C 71 % 1.34 C
1059 06-02-2009 19:53:30 6.2 C 71 % 1.34 C
1060 06-02-2009 20:05:29 6.1 C 71 % 1.25 C
1061 06-02-2009 20:17:30 6 C 71 % 1.15 C
1062 06-02-2009 20:29:30 5.9 C 72 % 1.25 C
1063 06-02-2009 20:41:30 5.8 C 73 % 1.34 C
1064 06-02-2009 20:53:29 5.9 C 73 % 1.44 C
1065 06-02-2009 21:05:29 5.9 C 73 % 1.44 C
1066 06-02-2009 21:17:29 5.9 C 74 % 1.63 C
1067 06-02-2009 21:29:29 5.9 C 73 % 1.44 C
1068 06-02-2009 21:41:29 5.8 C 73 % 1.34 C
1069 06-02-2009 21:53:29 5.9 C 74 % 1.63 C
1070 06-02-2009 22:05:29 5.6 C 74 % 1.34 C
1071 06-02-2009 22:17:28 5.6 C 74 % 1.34 C
1072 06-02-2009 22:29:29 5.6 C 75 % 1.53 C
1073 06-02-2009 22:41:29 5.4 C 75 % 1.33 C
1074 06-02-2009 22:54:28 5.3 C 76 % 1.42 C
1075 06-02-2009 23:06:28 5 C 76 % 1.13 C
Sensor: Nr:Datum:Temp:Feuchte:Taupunkt:
Aussen-T/F 1076 06-02-2009 23:18:28 4.9 C 77 % 1.22 C
1077 06-02-2009 23:30:28 4.8 C 78 % 1.3 C
1078 06-02-2009 23:42:28 4.8 C 78 % 1.3 C
1079 06-02-2009 23:54:28 4.8 C 79 % 1.47 C
1080 07-02-2009 00:06:28 4.9 C 79 % 1.57 C
1081 07-02-2009 00:18:28 5 C 78 % 1.49 C
1082 07-02-2009 00:30:28 5 C 77 % 1.31 C
1083 07-02-2009 00:42:28 5.1 C 77 % 1.41 C
1084 07-02-2009 00:54:28 5 C 77 % 1.31 C
1085 07-02-2009 01:06:28 5 C 77 % 1.31 C
1086 07-02-2009 01:18:28 4.9 C 78 % 1.39 C
1087 07-02-2009 01:30:28 4.8 C 77 % 1.12 C
1088 07-02-2009 01:42:29 4.7 C 77 % 1.02 C
1089 07-02-2009 01:54:29 4.7 C 78 % 1.2 C
1090 07-02-2009 02:06:29 4.8 C 78 % 1.3 C
1091 07-02-2009 02:18:29 4.8 C 78 % 1.3 C
1092 07-02-2009 02:30:29 4.8 C 78 % 1.3 C
1093 07-02-2009 02:42:29 4.7 C 78 % 1.2 C
1094 07-02-2009 02:54:29 4.6 C 78 % 1.1 C
1095 07-02-2009 03:06:29 4.6 C 78 % 1.1 C
1096 07-02-2009 03:18:29 4.5 C 79 % 1.18 C
1097 07-02-2009 03:30:29 4.4 C 79 % 1.09 C
1098 07-02-2009 03:42:29 4.4 C 79 % 1.09 C
1099 07-02-2009 03:54:29 4.3 C 79 % 0.99 C
1100 07-02-2009 04:06:29 4.3 C 79 % 0.99 C
Sensor: Nr:Datum:Temp:Feuchte:Taupunkt:
Aussen-T/F 1101 07-02-2009 04:18:29 4.3 C 79 % 0.99 C
1102 07-02-2009 04:30:29 4.2 C 79 % 0.89 C
1103 07-02-2009 04:42:29 4.1 C 79 % 0.79 C
1104 07-02-2009 04:54:29 4.1 C 79 % 0.79 C
1105 07-02-2009 05:06:29 4.1 C 79 % 0.79 C
1106 07-02-2009 05:18:29 4 C 79 % 0.7 C
1107 07-02-2009 05:30:29 3.9 C 80 % 0.77 C
1108 07-02-2009 05:42:30 3.9 C 80 % 0.77 C
1109 07-02-2009 05:54:30 3.8 C 80 % 0.68 C
1110 07-02-2009 06:06:30 3.8 C 80 % 0.68 C
1111 07-02-2009 06:18:30 3.7 C 80 % 0.58 C
1112 07-02-2009 06:30:30 3.6 C 80 % 0.48 C
1113 07-02-2009 06:42:30 3.7 C 81 % 0.75 C
1114 07-02-2009 06:54:30 3.6 C 81 % 0.65 C
1115 07-02-2009 07:06:30 3.6 C 81 % 0.65 C
1116 07-02-2009 07:18:28 3.7 C 81 % 0.75 C
1117 07-02-2009 07:30:29 3.7 C 81 % 0.75 C
1118 07-02-2009 07:42:30 3.7 C 81 % 0.75 C
1119 07-02-2009 07:54:28 3.6 C 81 % 0.65 C
1120 07-02-2009 08:06:28 3.6 C 81 % 0.65 C
1121 07-02-2009 08:18:28 3.5 C 82 % 0.72 C
1122 07-02-2009 08:30:28 3.5 C 82 % 0.72 C
1123 07-02-2009 08:42:28 3.5 C 83 % 0.89 C
1124 07-02-2009 08:54:28 3.6 C 84 % 1.16 C
1125 07-02-2009 09:06:28 3.6 C 84 % 1.16 C
Sensor: Nr:Datum:Temp:Feuchte:Taupunkt:
Aussen-T/F 1126 07-02-2009 09:18:27 3.7 C 86 % 1.58 C
1127 07-02-2009 09:30:27 3.8 C 87 % 1.84 C
1128 07-02-2009 09:42:28 3.8 C 88 % 2 C
1129 07-02-2009 09:54:27 3.6 C 88 % 1.8 C
1130 07-02-2009 10:06:27 3.8 C 89 % 2.16 C
1131 07-02-2009 10:18:26 4 C 89 % 2.36 C
1132 07-02-2009 10:30:27 4.2 C 89 % 2.55 C
1133 07-02-2009 10:42:27 4.2 C 89 % 2.55 C
1134 07-02-2009 10:54:26 4.3 C 89 % 2.65 C
1135 07-02-2009 11:06:26 4.2 C 89 % 2.55 C
1136 07-02-2009 11:18:27 4.5 C 89 % 2.85 C
1137 07-02-2009 11:30:26 4.6 C 89 % 2.95 C
1138 07-02-2009 11:42:26 4.6 C 89 % 2.95 C
1139 07-02-2009 11:54:26 4.7 C 89 % 3.05 C
1140 07-02-2009 12:06:26 4.8 C 89 % 3.14 C
1141 07-02-2009 12:18:26 4.8 C 89 % 3.14 C
1142 07-02-2009 12:30:25 4.8 C 89 % 3.14 C
1143 07-02-2009 12:42:25 4.9 C 89 % 3.24 C
1144 07-02-2009 12:54:26 5 C 88 % 3.18 C
1145 07-02-2009 13:06:25 5 C 88 % 3.18 C
1146 07-02-2009 13:18:25 5 C 89 % 3.34 C
1147 07-02-2009 13:30:25 5 C 89 % 3.34 C
1148 07-02-2009 13:42:25 5 C 89 % 3.34 C
1149 07-02-2009 13:54:01 5.3 C 90 % 3.8 C
1150 07-02-2009 14:06:01 5.4 C 90 % 3.89 C
Sensor: Nr:Datum:Temp:Feuchte:Taupunkt:
Aussen-T/F 1151 07-02-2009 14:18:01 5.8 C 90 % 4.29 C
1152 07-02-2009 14:30:01 5.7 C 90 % 4.19 C
1153 07-02-2009 14:42:00 5.6 C 89 % 3.93 C
1154 07-02-2009 14:54:01 5.8 C 89 % 4.13 C
1155 07-02-2009 15:06:01 5.7 C 88 % 3.87 C
1156 07-02-2009 15:18:00 5.4 C 87 % 3.41 C
1157 07-02-2009 15:30:00 5.1 C 86 % 2.96 C
1158 07-02-2009 15:42:00 4.6 C 87 % 2.63 C
1159 07-02-2009 15:54:00 4.4 C 87 % 2.43 C
1160 07-02-2009 16:06:00 4.3 C 87 % 2.33 C
1161 07-02-2009 16:18:59 4.2 C 87 % 2.23 C
1162 07-02-2009 16:30:00 4.2 C 87 % 2.23 C
1163 07-02-2009 16:42:00 4.1 C 86 % 1.97 C
1164 07-02-2009 16:54:59 4 C 85 % 1.71 C
1165 07-02-2009 17:06:59 3.9 C 86 % 1.78 C
1166 07-02-2009 17:18:00 3.7 C 86 % 1.58 C
1167 07-02-2009 17:30:00 3.6 C 86 % 1.48 C
1168 07-02-2009 17:42:59 3.6 C 87 % 1.64 C
1169 07-02-2009 17:54:59 3.4 C 86 % 1.29 C
1170 07-02-2009 18:06:59 3.4 C 86 % 1.29 C
1171 07-02-2009 18:18:59 3.3 C 86 % 1.19 C
1172 07-02-2009 18:30:58 3.2 C 86 % 1.09 C
1173 07-02-2009 18:42:58 3.3 C 86 % 1.19 C
1174 07-02-2009 18:54:59 3.1 C 85 % 0.83 C
1175 07-02-2009 19:06:58 3 C 86 % 0.89 C
Sensor: Nr:Datum:Temp:Feuchte:Taupunkt:
Aussen-T/F 1176 07-02-2009 19:18:58 3.1 C 86 % 0.99 C
1177 07-02-2009 19:30:58 3 C 85 % 0.73 C
1178 07-02-2009 19:42:58 3 C 85 % 0.73 C
1179 07-02-2009 19:54:58 3.1 C 84 % 0.67 C
1180 07-02-2009 20:06:58 3.1 C 83 % 0.5 C
1181 07-02-2009 20:18:57 3.1 C 83 % 0.5 C
1182 07-02-2009 20:30:58 3 C 82 % 0.24 C
1183 07-02-2009 20:42:58 3 C 81 % 0.07 C
1184 07-02-2009 20:54:57 3 C 80 % -0.1 C
1185 07-02-2009 21:06:57 3 C 80 % -0.1 C
1186 07-02-2009 21:18:56 3 C 79 % -0.28 C
1187 07-02-2009 21:30:57 3.1 C 78 % -0.35 C
1188 07-02-2009 21:42:57 3.1 C 77 % -0.53 C
1189 07-02-2009 21:54:56 3.1 C 77 % -0.53 C
1190 07-02-2009 22:07:57 3.1 C 76 % -0.71 C
1191 07-02-2009 22:19:57 3.1 C 75 % -0.89 C
1192 07-02-2009 22:31:57 3 C 75 % -0.99 C
1193 07-02-2009 22:43:58 3 C 74 % -1.17 C
1194 07-02-2009 22:55:58 2.9 C 74 % -1.27 C
1195 07-02-2009 23:07:58 2.8 C 74 % -1.36 C
1196 07-02-2009 23:19:58 2.7 C 74 % -1.46 C
1197 07-02-2009 23:31:58 2.5 C 74 % -1.65 C
1198 07-02-2009 23:43:58 2.7 C 74 % -1.46 C
1199 07-02-2009 23:55:58 2.5 C 72 % -2.02 C
1200 08-02-2009 00:07:58 2.3 C 73 % -2.03 C
Sensor: Nr:Datum:Temp:Feuchte:Taupunkt:
Aussen-T/F 1201 08-02-2009 00:19:58 2.3 C 74 % -1.85 C
1202 08-02-2009 00:31:58 2 C 74 % -2.13 C
1203 08-02-2009 00:43:58 1.8 C 75 % -2.15 C
1204 08-02-2009 00:55:58 1.7 C 74 % -2.42 C
1205 08-02-2009 01:07:58 1.7 C 74 % -2.42 C
1206 08-02-2009 01:19:58 1.6 C 74 % -2.52 C
1207 08-02-2009 01:31:58 1.8 C 73 % -2.51 C
1208 08-02-2009 01:43:58 1.9 C 72 % -2.6 C
1209 08-02-2009 01:55:58 1.9 C 72 % -2.6 C
1210 08-02-2009 02:07:58 2 C 71 % -2.69 C
1211 08-02-2009 02:19:58 2 C 71 % -2.69 C
1212 08-02-2009 02:31:58 1.9 C 72 % -2.6 C
1213 08-02-2009 02:43:58 1.8 C 72 % -2.7 C
1214 08-02-2009 02:55:59 1.8 C 73 % -2.51 C
1215 08-02-2009 03:07:59 1.8 C 71 % -2.88 C
1216 08-02-2009 03:19:59 1.7 C 71 % -2.98 C
1217 08-02-2009 03:31:59 1.6 C 71 % -3.08 C
1218 08-02-2009 03:43:59 1.7 C 71 % -2.98 C
1219 08-02-2009 03:55:59 1.7 C 71 % -2.98 C
1220 08-02-2009 04:07:59 1.7 C 70 % -3.17 C
1221 08-02-2009 04:19:59 1.7 C 70 % -3.17 C
1222 08-02-2009 04:31:59 1.7 C 70 % -3.17 C
1223 08-02-2009 04:43:59 1.7 C 70 % -3.17 C
1224 08-02-2009 04:55:59 1.7 C 70 % -3.17 C
1225 08-02-2009 05:07:59 1.7 C 70 % -3.17 C
Sensor: Nr:Datum:Temp:Feuchte:Taupunkt:
Aussen-T/F 1226 08-02-2009 05:19:59 1.7 C 70 % -3.17 C
1227 08-02-2009 05:31:59 1.7 C 69 % -3.36 C
1228 08-02-2009 05:43:59 1.6 C 69 % -3.46 C
1229 08-02-2009 05:55:59 1.5 C 69 % -3.55 C
1230 08-02-2009 06:07:59 1.4 C 69 % -3.65 C
1231 08-02-2009 06:19:59 1.4 C 70 % -3.46 C
1232 08-02-2009 06:31:59 1.3 C 70 % -3.55 C
1233 08-02-2009 06:43:59 1.3 C 70 % -3.55 C
1234 08-02-2009 06:56:00 1.3 C 68 % -3.94 C
1235 08-02-2009 07:08:00 1.5 C 64 % -4.55 C
1236 08-02-2009 07:19:57 1.3 C 64 % -4.74 C
1237 08-02-2009 07:31:57 1.3 C 64 % -4.74 C
1238 08-02-2009 07:43:58 1.4 C 63 % -4.86 C
1239 08-02-2009 07:55:56 1.4 C 63 % -4.86 C
1240 08-02-2009 08:07:57 1.5 C 63 % -4.76 C
1241 08-02-2009 08:19:56 1.6 C 62 % -4.88 C
1242 08-02-2009 08:31:56 1.7 C 61 % -5 C
1243 08-02-2009 08:43:56 1.7 C 63 % -4.57 C
1244 08-02-2009 08:55:56 1.8 C 62 % -4.69 C
1245 08-02-2009 09:07:56 1.9 C 61 % -4.81 C
1246 08-02-2009 09:19:55 2 C 60 % -4.93 C
1247 08-02-2009 09:31:55 2.1 C 59 % -5.06 C
1248 08-02-2009 09:43:55 2.1 C 59 % -5.06 C
1249 08-02-2009 09:55:55 2.2 C 59 % -4.96 C
1250 08-02-2009 10:07:55 2.3 C 60 % -4.65 C
Sensor: Nr:Datum:Temp:Feuchte:Taupunkt:
Aussen-T/F 1251 08-02-2009 10:19:55 2.5 C 58 % -4.91 C
1252 08-02-2009 10:31:55 2.7 C 57 % -4.95 C
1253 08-02-2009 10:43:55 2.9 C 56 % -4.99 C
1254 08-02-2009 10:55:55 3.3 C 54 % -5.1 C
1255 08-02-2009 11:07:54 3.4 C 53 % -5.25 C
1256 08-02-2009 11:19:55 3.4 C 54 % -5.01 C
1257 08-02-2009 11:31:54 3.6 C 54 % -4.82 C
1258 08-02-2009 11:43:54 3.8 C 53 % -4.88 C
1259 08-02-2009 11:55:54 4 C 51 % -5.2 C
1260 08-02-2009 12:07:55 4.1 C 50 % -5.37 C
1261 08-02-2009 12:19:54 4.3 C 49 % -5.45 C
1262 08-02-2009 12:31:53 4.3 C 46 % -6.28 C
1263 08-02-2009 12:43:53 4.4 C 46 % -6.18 C
1264 08-02-2009 12:55:54 4.4 C 47 % -5.9 C
1265 08-02-2009 13:07:53 4.5 C 46 % -6.09 C
1266 08-02-2009 13:19:53 4.5 C 47 % -5.81 C
1267 08-02-2009 13:31:54 4.6 C 48 % -5.45 C
1268 08-02-2009 13:43:54 4.5 C 47 % -5.81 C
1269 08-02-2009 13:55:53 4.5 C 46 % -6.09 C
1270 08-02-2009 14:07:53 4.8 C 46 % -5.82 C
1271 08-02-2009 14:19:53 5.3 C 44 % -5.94 C
1272 08-02-2009 14:31:53 5.6 C 42 % -6.28 C
1273 08-02-2009 14:43:54 5.7 C 39 % -7.15 C
1274 08-02-2009 14:55:52 5.1 C 40 % -7.36 C
1275 08-02-2009 15:07:52 4.7 C 43 % -6.79 C
Sensor: Nr:Datum:Temp:Feuchte:Taupunkt:
Aussen-T/F 1276 08-02-2009 15:19:52 4.7 C 43 % -6.79 C
1277 08-02-2009 15:31:52 4.7 C 43 % -6.79 C
1278 08-02-2009 15:43:52 4.5 C 42 % -7.27 C
1279 08-02-2009 15:55:51 4.4 C 45 % -6.47 C
1280 08-02-2009 16:07:52 4.1 C 47 % -6.18 C
1281 08-02-2009 16:19:52 4 C 48 % -6 C
1282 08-02-2009 16:31:51 3.8 C 49 % -5.91 C
1283 08-02-2009 16:43:51 3.8 C 50 % -5.65 C
1284 08-02-2009 16:55:52 3.7 C 50 % -5.74 C
1285 08-02-2009 17:07:51 3.6 C 46 % -6.92 C
1286 08-02-2009 17:19:51 3.5 C 44 % -7.58 C
1287 08-02-2009 17:31:51 3.4 C 43 % -7.97 C
1288 08-02-2009 17:43:51 3.4 C 43 % -7.97 C
1289 08-02-2009 17:55:51 3.2 C 43 % -8.15 C
1290 08-02-2009 18:07:51 3.2 C 44 % -7.85 C
1291 08-02-2009 18:19:50 3.1 C 43 % -8.24 C
1292 08-02-2009 18:31:51 3 C 43 % -8.33 C
1293 08-02-2009 18:43:51 2.9 C 44 % -8.13 C
1294 08-02-2009 18:55:50 2.8 C 44 % -8.22 C
1295 08-02-2009 19:07:50 2.6 C 45 % -8.11 C
1296 08-02-2009 19:19:49 2.3 C 46 % -8.11 C
1297 08-02-2009 19:31:50 2.1 C 47 % -8.01 C
1298 08-02-2009 19:43:50 2.1 C 47 % -8.01 C
1299 08-02-2009 19:55:49 2.1 C 49 % -7.48 C
1300 08-02-2009 20:07:50 2.1 C 49 % -7.48 C
Sensor: Nr:Datum:Temp:Feuchte:Taupunkt:
Aussen-T/F 1301 08-02-2009 20:19:49 2.3 C 48 % -7.56 C
1302 08-02-2009 20:31:49 2.2 C 48 % -7.65 C
1303 08-02-2009 20:43:49 2.2 C 49 % -7.39 C
1304 08-02-2009 20:55:49 2.1 C 50 % -7.22 C
1305 08-02-2009 21:07:49 2.2 C 50 % -7.12 C
1306 08-02-2009 21:19:49 2.2 C 50 % -7.12 C
1307 08-02-2009 21:31:49 2.3 C 50 % -7.03 C
1308 08-02-2009 21:43:49 2.2 C 50 % -7.12 C
1309 08-02-2009 21:55:48 2.1 C 51 % -6.96 C
1310 08-02-2009 22:07:49 2.2 C 52 % -6.62 C
1311 08-02-2009 22:20:49 2.2 C 53 % -6.37 C
1312 08-02-2009 22:32:49 2.3 C 53 % -6.28 C
1313 08-02-2009 22:44:49 2.3 C 54 % -6.03 C
1314 08-02-2009 22:56:49 2.2 C 55 % -5.89 C
1315 08-02-2009 23:08:49 2.2 C 55 % -5.89 C
1316 08-02-2009 23:20:49 2.1 C 56 % -5.74 C
1317 08-02-2009 23:32:50 2.2 C 56 % -5.65 C
1318 08-02-2009 23:44:50 2.3 C 56 % -5.56 C
1319 08-02-2009 23:56:50 2.3 C 56 % -5.56 C
1320 09-02-2009 00:08:50 2.4 C 56 % -5.46 C
1321 09-02-2009 00:20:50 2.4 C 56 % -5.46 C
1322 09-02-2009 00:32:50 2.3 C 57 % -5.32 C
1323 09-02-2009 00:44:50 2.3 C 57 % -5.32 C
1324 09-02-2009 00:56:50 2.3 C 57 % -5.32 C
1325 09-02-2009 01:08:50 2.3 C 57 % -5.32 C
Sensor: Nr:Datum:Temp:Feuchte:Taupunkt:
Aussen-T/F 1326 09-02-2009 01:20:50 2.3 C 57 % -5.32 C
1327 09-02-2009 01:32:50 2.2 C 57 % -5.42 C
1328 09-02-2009 01:44:50 2.2 C 58 % -5.19 C
1329 09-02-2009 01:56:50 2.1 C 58 % -5.28 C
1330 09-02-2009 02:08:50 2.1 C 58 % -5.28 C
1331 09-02-2009 02:20:50 2.2 C 58 % -5.19 C
1332 09-02-2009 02:32:50 2.2 C 58 % -5.19 C
1333 09-02-2009 02:44:50 2.1 C 58 % -5.28 C
1334 09-02-2009 02:56:50 2.1 C 58 % -5.28 C
1335 09-02-2009 03:08:50 1.8 C 60 % -5.12 C
1336 09-02-2009 03:20:50 1.6 C 60 % -5.31 C
1337 09-02-2009 03:32:50 1.7 C 61 % -5 C
1338 09-02-2009 03:44:51 1.5 C 61 % -5.19 C
1339 09-02-2009 03:56:51 1.4 C 62 % -5.07 C
1340 09-02-2009 04:08:51 1.3 C 63 % -4.95 C
1341 09-02-2009 04:20:51 1.1 C 64 % -4.93 C
1342 09-02-2009 04:32:51 0.9 C 65 % -4.92 C
1343 09-02-2009 04:44:51 0.4 C 66 % -5.19 C
1344 09-02-2009 04:56:51 0 C 67 % -5.38 C
1345 09-02-2009 05:08:51 0.1 C 70 % -4.71 C
1346 09-02-2009 05:20:51 0.5 C 69 % -4.51 C
1347 09-02-2009 05:32:51 1.2 C 63 % -5.05 C
1348 09-02-2009 05:44:51 1.4 C 60 % -5.5 C
1349 09-02-2009 05:56:51 1.4 C 60 % -5.5 C
1350 09-02-2009 06:08:51 1.5 C 59 % -5.62 C
Sensor: Nr:Datum:Temp:Feuchte:Taupunkt:
Aussen-T/F 1351 09-02-2009 06:20:51 1.7 C 59 % -5.43 C
1352 09-02-2009 06:32:51 1.8 C 57 % -5.79 C
1353 09-02-2009 06:44:48 1.9 C 58 % -5.47 C
1354 09-02-2009 06:56:48 1.9 C 58 % -5.47 C
1355 09-02-2009 07:08:49 1.8 C 59 % -5.34 C
1356 09-02-2009 07:20:48 1.9 C 59 % -5.25 C
1357 09-02-2009 07:32:48 2 C 58 % -5.38 C
1358 09-02-2009 07:44:48 1.9 C 59 % -5.25 C
1359 09-02-2009 07:56:48 1.8 C 59 % -5.34 C
1360 09-02-2009 08:08:48 2 C 58 % -5.38 C
1361 09-02-2009 08:20:48 2.1 C 57 % -5.51 C
1362 09-02-2009 08:32:48 2.2 C 57 % -5.42 C
1363 09-02-2009 08:44:48 2.3 C 57 % -5.32 C
1364 09-02-2009 08:56:48 2.1 C 59 % -5.06 C
1365 09-02-2009 09:08:47 1.8 C 63 % -4.48 C
1366 09-02-2009 09:20:48 1.9 C 65 % -3.97 C
1367 09-02-2009 09:32:47 2 C 64 % -4.08 C
1368 09-02-2009 09:44:47 2.1 C 62 % -4.4 C
1369 09-02-2009 09:56:47 2.2 C 62 % -4.31 C
1370 09-02-2009 10:08:46 2.4 C 61 % -4.34 C
1371 09-02-2009 10:20:47 2.5 C 61 % -4.24 C
1372 09-02-2009 10:32:47 2.6 C 61 % -4.15 C
1373 09-02-2009 10:44:46 2.7 C 60 % -4.27 C
1374 09-02-2009 10:56:46 2.9 C 59 % -4.31 C
1375 09-02-2009 11:08:47 3 C 58 % -4.44 C
Sensor: Nr:Datum:Temp:Feuchte:Taupunkt:
Aussen-T/F 1376 09-02-2009 11:20:46 3.1 C 58 % -4.34 C
1377 09-02-2009 11:32:46 3.2 C 58 % -4.25 C
1378 09-02-2009 11:44:46 3.2 C 59 % -4.02 C
1379 09-02-2009 11:56:46 3.2 C 59 % -4.02 C
1380 09-02-2009 12:08:46 3.4 C 59 % -3.84 C
1381 09-02-2009 12:20:46 3.4 C 60 % -3.61 C
1382 09-02-2009 12:32:45 3.5 C 61 % -3.3 C
1383 09-02-2009 12:44:46 3.5 C 61 % -3.3 C
1384 09-02-2009 12:56:46 3.8 C 61 % -3.01 C
1385 09-02-2009 13:08:45 3.8 C 61 % -3.01 C
1386 09-02-2009 13:20:45 4.1 C 58 % -3.41 C
1387 09-02-2009 13:32:45 4.3 C 58 % -3.22 C
1388 09-02-2009 13:44:45 4.2 C 57 % -3.54 C
1389 09-02-2009 13:56:45 4 C 59 % -3.27 C
1390 09-02-2009 14:08:44 4 C 59 % -3.27 C
1391 09-02-2009 14:20:45 4.5 C 58 % -3.03 C
1392 09-02-2009 14:32:45 4.4 C 57 % -3.36 C
1393 09-02-2009 14:44:45 4.4 C 58 % -3.12 C
1394 09-02-2009 14:56:45 4.2 C 59 % -3.08 C
1395 09-02-2009 15:08:45 4 C 59 % -3.27 C
1396 09-02-2009 15:20:44 4 C 60 % -3.05 C
1397 09-02-2009 15:32:44 4 C 60 % -3.05 C
1398 09-02-2009 15:44:43 3.9 C 62 % -2.7 C
1399 09-02-2009 15:56:43 3.9 C 62 % -2.7 C
1400 09-02-2009 16:08:43 3.8 C 62 % -2.8 C
Sensor: Nr:Datum:Temp:Feuchte:Taupunkt:
Aussen-T/F 1401 09-02-2009 16:20:44 3.8 C 62 % -2.8 C
1402 09-02-2009 16:32:43 3.7 C 63 % -2.68 C
1403 09-02-2009 16:44:43 3.6 C 63 % -2.77 C
1404 09-02-2009 16:56:43 3.6 C 63 % -2.77 C
1405 09-02-2009 17:08:43 3.5 C 63 % -2.86 C
1406 09-02-2009 17:20:43 3.4 C 64 % -2.75 C
1407 09-02-2009 17:32:43 3.3 C 65 % -2.64 C
1408 09-02-2009 17:44:43 3.3 C 65 % -2.64 C
1409 09-02-2009 17:56:43 3.1 C 66 % -2.62 C
1410 09-02-2009 18:08:43 3 C 67 % -2.51 C
1411 09-02-2009 18:20:42 2.8 C 70 % -2.11 C
1412 09-02-2009 18:32:42 2.6 C 73 % -1.74 C
1413 09-02-2009 18:44:42 2.4 C 76 % -1.39 C
1414 09-02-2009 18:56:42 2.2 C 78 % -1.23 C
1415 09-02-2009 19:08:42 2.1 C 80 % -0.98 C
1416 09-02-2009 19:20:41 2 C 82 % -0.74 C
1417 09-02-2009 19:32:42 2 C 83 % -0.58 C
1418 09-02-2009 19:44:42 2 C 84 % -0.41 C
1419 09-02-2009 19:56:42 1.8 C 85 % -0.45 C
1420 09-02-2009 20:08:41 1.8 C 86 % -0.29 C
1421 09-02-2009 20:20:41 1.7 C 86 % -0.38 C
1422 09-02-2009 20:32:41 1.7 C 87 % -0.23 C
1423 09-02-2009 20:44:41 1.7 C 87 % -0.23 C
1424 09-02-2009 20:56:41 1.6 C 87 % -0.32 C
1425 09-02-2009 21:08:40 1.3 C 87 % -0.62 C
Sensor: Nr:Datum:Temp:Feuchte:Taupunkt:
Aussen-T/F 1426 09-02-2009 21:20:41 1.4 C 88 % -0.36 C
1427 09-02-2009 21:33:40 1.4 C 89 % -0.21 C
1428 09-02-2009 21:45:40 1.3 C 89 % -0.31 C
1429 09-02-2009 21:57:40 1.1 C 89 % -0.51 C
1430 09-02-2009 22:09:40 1 C 89 % -0.6 C
1431 09-02-2009 22:21:40 1.3 C 90 % -0.15 C
1432 09-02-2009 22:33:40 1.4 C 90 % -0.06 C
1433 09-02-2009 22:45:40 1.5 C 91 % 0.19 C
1434 09-02-2009 22:57:40 1.7 C 91 % 0.39 C
1435 09-02-2009 23:09:40 1.7 C 91 % 0.39 C
1436 09-02-2009 23:21:40 1.7 C 91 % 0.39 C
1437 09-02-2009 23:33:40 1.7 C 91 % 0.39 C
1438 09-02-2009 23:45:40 1.7 C 91 % 0.39 C
1439 09-02-2009 23:57:40 1.8 C 92 % 0.64 C
1440 10-02-2009 00:09:40 1.8 C 92 % 0.64 C
1441 10-02-2009 00:21:41 1.9 C 92 % 0.74 C
1442 10-02-2009 00:33:41 1.9 C 93 % 0.89 C
1443 10-02-2009 00:45:41 2 C 92 % 0.84 C
1444 10-02-2009 00:57:41 2 C 93 % 0.99 C
1445 10-02-2009 01:09:41 2.1 C 93 % 1.09 C
1446 10-02-2009 01:21:41 2.2 C 93 % 1.19 C
1447 10-02-2009 01:33:41 2.3 C 93 % 1.29 C
1448 10-02-2009 01:45:41 2.4 C 94 % 1.54 C
1449 10-02-2009 01:57:41 2.5 C 94 % 1.63 C
1450 10-02-2009 02:09:41 2.6 C 94 % 1.73 C
Sensor: Nr:Datum:Temp:Feuchte:Taupunkt:
Aussen-T/F 1451 10-02-2009 02:21:41 2.8 C 94 % 1.93 C
1452 10-02-2009 02:33:41 3 C 94 % 2.13 C
1453 10-02-2009 02:45:41 3.3 C 94 % 2.43 C
1454 10-02-2009 02:57:41 3.4 C 95 % 2.68 C
1455 10-02-2009 03:09:41 3.6 C 95 % 2.88 C
1456 10-02-2009 03:21:41 3.8 C 95 % 3.07 C
1457 10-02-2009 03:33:41 3.9 C 95 % 3.17 C
1458 10-02-2009 03:45:41 4.1 C 95 % 3.37 C
1459 10-02-2009 03:57:41 4.3 C 95 % 3.57 C
1460 10-02-2009 04:09:41 4.5 C 95 % 3.77 C
1461 10-02-2009 04:21:42 4.8 C 95 % 4.07 C
1462 10-02-2009 04:33:42 5.1 C 95 % 4.37 C
1463 10-02-2009 04:45:42 5.1 C 95 % 4.37 C
1464 10-02-2009 04:57:42 5.2 C 95 % 4.47 C
1465 10-02-2009 05:09:42 5.3 C 95 % 4.57 C
1466 10-02-2009 05:21:42 5.7 C 95 % 4.96 C
1467 10-02-2009 05:33:40 5.7 C 95 % 4.96 C
1468 10-02-2009 05:45:40 5.9 C 95 % 5.16 C
1469 10-02-2009 05:57:40 6.2 C 95 % 5.46 C
1470 10-02-2009 06:09:41 6.4 C 95 % 5.66 C
1471 10-02-2009 06:21:40 6.4 C 95 % 5.66 C
1472 10-02-2009 06:33:40 6.4 C 94 % 5.51 C
1473 10-02-2009 06:45:39 6.4 C 94 % 5.51 C
1474 10-02-2009 06:57:39 6.5 C 94 % 5.61 C
1475 10-02-2009 07:09:40 6.5 C 93 % 5.45 C
Sensor: Nr:Datum:Temp:Feuchte:Taupunkt:
Aussen-T/F 1476 10-02-2009 07:21:40 6.4 C 93 % 5.35 C
1477 10-02-2009 07:33:39 6.3 C 93 % 5.25 C
1478 10-02-2009 07:45:39 6.5 C 92 % 5.3 C
1479 10-02-2009 07:57:39 6.5 C 92 % 5.3 C
1480 10-02-2009 08:09:39 6.5 C 90 % 4.98 C
1481 10-02-2009 08:21:39 6.4 C 90 % 4.88 C
1482 10-02-2009 08:33:38 6.4 C 90 % 4.88 C
1483 10-02-2009 08:45:39 6.4 C 90 % 4.88 C
1484 10-02-2009 08:57:39 6.6 C 89 % 4.92 C
1485 10-02-2009 09:09:39 6.6 C 88 % 4.76 C
1486 10-02-2009 09:21:38 6.6 C 86 % 4.43 C
1487 10-02-2009 09:33:38 6.6 C 86 % 4.43 C
1488 10-02-2009 09:45:38 6.8 C 86 % 4.63 C
1489 10-02-2009 09:57:38 6.8 C 86 % 4.63 C
1490 10-02-2009 10:09:38 6.9 C 86 % 4.72 C
1491 10-02-2009 10:21:37 7.1 C 84 % 4.58 C
1492 10-02-2009 10:33:38 7.5 C 80 % 4.28 C
1493 10-02-2009 10:45:37 7.6 C 74 % 3.27 C
1494 10-02-2009 10:57:37 7.2 C 68 % 1.7 C
1495 10-02-2009 11:09:37 6.7 C 69 % 1.43 C
1496 10-02-2009 11:21:38 6.1 C 67 % 0.44 C
1497 10-02-2009 11:33:37 5.7 C 69 % 0.47 C
1498 10-02-2009 11:45:37 6 C 63 % -0.5 C
1499 10-02-2009 11:57:37 6.1 C 63 % -0.4 C
1500 10-02-2009 12:09:37 6.4 C 61 % -0.56 C
Sensor: Nr:Datum:Temp:Feuchte:Taupunkt:
Aussen-T/F 1501 10-02-2009 12:21:37 6.3 C 59 % -1.11 C
1502 10-02-2009 12:33:36 5.8 C 60 % -1.35 C
1503 10-02-2009 12:45:37 5.2 C 61 % -1.69 C
1504 10-02-2009 12:57:37 5 C 62 % -1.66 C
1505 10-02-2009 13:09:36 4.7 C 64 % -1.51 C
1506 10-02-2009 13:21:36 4.4 C 68 % -0.98 C
1507 10-02-2009 13:33:36 4.4 C 67 % -1.18 C
1508 10-02-2009 13:45:36 4.4 C 67 % -1.18 C
1509 10-02-2009 13:57:36 4.3 C 66 % -1.48 C
1510 10-02-2009 14:09:36 4.4 C 66 % -1.38 C
1511 10-02-2009 14:21:35 4.4 C 66 % -1.38 C
1512 10-02-2009 14:33:36 4.4 C 65 % -1.59 C
1513 10-02-2009 14:45:35 4.4 C 64 % -1.8 C
1514 10-02-2009 14:57:35 4.3 C 64 % -1.89 C
1515 10-02-2009 15:09:35 4.3 C 64 % -1.89 C
1516 10-02-2009 15:21:35 4.2 C 64 % -1.99 C
1517 10-02-2009 15:33:35 4.1 C 61 % -2.73 C
1518 10-02-2009 15:45:34 3.7 C 62 % -2.89 C
1519 10-02-2009 15:57:34 3.7 C 63 % -2.68 C
1520 10-02-2009 16:09:34 3.3 C 66 % -2.43 C
1521 10-02-2009 16:21:35 2.7 C 73 % -1.64 C
1522 10-02-2009 16:33:34 2.1 C 79 % -1.15 C
1523 10-02-2009 16:45:34 1.9 C 83 % -0.67 C
1524 10-02-2009 16:57:34 1.9 C 84 % -0.51 C
1525 10-02-2009 17:09:34 1.9 C 84 % -0.51 C
Sensor: Nr:Datum:Temp:Feuchte:Taupunkt:
Aussen-T/F 1526 10-02-2009 17:21:34 2 C 83 % -0.58 C
1527 10-02-2009 17:33:33 2 C 82 % -0.74 C
1528 10-02-2009 17:45:34 2.1 C 83 % -0.48 C
1529 10-02-2009 17:57:34 2.1 C 84 % -0.31 C
1530 10-02-2009 18:09:33 2.2 C 83 % -0.38 C
1531 10-02-2009 18:21:33 2.3 C 82 % -0.45 C
1532 10-02-2009 18:33:33 2.5 C 79 % -0.76 C
1533 10-02-2009 18:45:33 2.5 C 79 % -0.76 C
1534 10-02-2009 18:57:33 2.6 C 78 % -0.84 C
1535 10-02-2009 19:09:33 2.5 C 78 % -0.94 C
1536 10-02-2009 19:21:32 2.6 C 77 % -1.02 C
1537 10-02-2009 19:33:33 2.6 C 77 % -1.02 C
1538 10-02-2009 19:45:32 2.5 C 77 % -1.11 C
1539 10-02-2009 19:57:32 2.4 C 79 % -0.86 C
1540 10-02-2009 20:09:32 2.6 C 77 % -1.02 C
1541 10-02-2009 20:21:32 2.9 C 73 % -1.45 C
1542 10-02-2009 20:33:32 2.9 C 70 % -2.02 C
1543 10-02-2009 20:45:32 3 C 67 % -2.51 C
1544 10-02-2009 20:57:32 3 C 66 % -2.72 C
1545 10-02-2009 21:09:31 3.1 C 66 % -2.62 C
1546 10-02-2009 21:22:32 3 C 66 % -2.72 C
1547 10-02-2009 21:34:32 3.1 C 65 % -2.83 C
1548 10-02-2009 21:46:32 2.7 C 69 % -2.4 C
1549 10-02-2009 21:58:32 2.1 C 76 % -1.68 C
1550 10-02-2009 22:10:32 2 C 80 % -1.08 C
Sensor: Nr:Datum:Temp:Feuchte:Taupunkt:
Aussen-T/F 1551 10-02-2009 22:22:32 2.1 C 79 % -1.15 C
1552 10-02-2009 22:34:32 2.1 C 78 % -1.33 C
1553 10-02-2009 22:46:32 2.3 C 76 % -1.48 C
1554 10-02-2009 22:58:32 2.4 C 74 % -1.75 C
1555 10-02-2009 23:10:32 2.5 C 71 % -2.21 C
1556 10-02-2009 23:22:32 2.6 C 71 % -2.12 C
1557 10-02-2009 23:34:32 2.8 C 69 % -2.31 C
1558 10-02-2009 23:46:32 2.8 C 68 % -2.51 C
1559 10-02-2009 23:58:32 2.8 C 67 % -2.7 C
1560 11-02-2009 00:10:32 2.9 C 66 % -2.81 C
1561 11-02-2009 00:22:32 2.8 C 65 % -3.11 C
1562 11-02-2009 00:34:32 2.8 C 65 % -3.11 C
1563 11-02-2009 00:46:32 2.8 C 65 % -3.11 C
1564 11-02-2009 00:58:32 2.7 C 64 % -3.41 C
1565 11-02-2009 01:10:33 2.7 C 63 % -3.62 C
1566 11-02-2009 01:22:33 2.6 C 64 % -3.51 C
1567 11-02-2009 01:34:33 2.5 C 63 % -3.81 C
1568 11-02-2009 01:46:33 2.4 C 62 % -4.12 C
1569 11-02-2009 01:58:33 2.5 C 63 % -3.81 C
1570 11-02-2009 02:10:33 2.5 C 64 % -3.6 C
1571 11-02-2009 02:22:33 2.5 C 66 % -3.19 C
1572 11-02-2009 02:34:33 2.6 C 66 % -3.1 C
1573 11-02-2009 02:46:33 2.5 C 65 % -3.4 C
1574 11-02-2009 02:58:33 2.3 C 65 % -3.59 C
1575 11-02-2009 03:10:33 2.3 C 66 % -3.38 C
Sensor: Nr:Datum:Temp:Feuchte:Taupunkt:
Aussen-T/F 1576 11-02-2009 03:22:33 2.2 C 66 % -3.48 C
1577 11-02-2009 03:34:33 2.3 C 68 % -2.98 C
1578 11-02-2009 03:46:33 2.4 C 67 % -3.09 C
1579 11-02-2009 03:58:33 2.5 C 67 % -2.99 C
1580 11-02-2009 04:10:33 2.4 C 68 % -2.89 C
1581 11-02-2009 04:22:33 2.3 C 69 % -2.79 C
1582 11-02-2009 04:34:33 2.2 C 71 % -2.5 C
1583 11-02-2009 04:46:33 2.2 C 72 % -2.31 C
1584 11-02-2009 04:58:34 2.2 C 72 % -2.31 C
1585 11-02-2009 05:10:34 2.2 C 71 % -2.5 C
1586 11-02-2009 05:22:34 2.2 C 70 % -2.69 C
1587 11-02-2009 05:34:34 2.1 C 70 % -2.79 C
1588 11-02-2009 05:46:34 2.2 C 69 % -2.88 C
1589 11-02-2009 05:58:34 2.1 C 69 % -2.98 C
1590 11-02-2009 06:10:34 2.1 C 69 % -2.98 C
1591 11-02-2009 06:22:34 2.2 C 67 % -3.28 C
1592 11-02-2009 06:34:34 2.2 C 66 % -3.48 C
1593 11-02-2009 06:46:34 2.1 C 67 % -3.37 C
1594 11-02-2009 06:58:34 2.1 C 67 % -3.37 C
1595 11-02-2009 07:10:32 2 C 67 % -3.47 C
1596 11-02-2009 07:22:32 2.1 C 66 % -3.57 C
1597 11-02-2009 07:34:32 2.1 C 65 % -3.78 C
1598 11-02-2009 07:46:32 2 C 65 % -3.87 C
1599 11-02-2009 07:58:32 2 C 65 % -3.87 C
1600 11-02-2009 08:10:31 2 C 64 % -4.08 C
Sensor: Nr:Datum:Temp:Feuchte:Taupunkt:
Aussen-T/F 1601 11-02-2009 08:22:32 2.1 C 65 % -3.78 C
1602 11-02-2009 08:34:31 2 C 64 % -4.08 C
1603 11-02-2009 08:46:31 1.7 C 66 % -3.95 C
1604 11-02-2009 08:58:31 1.7 C 66 % -3.95 C
1605 11-02-2009 09:10:31 1.9 C 67 % -3.56 C
1606 11-02-2009 09:22:31 1.8 C 66 % -3.86 C
1607 11-02-2009 09:34:31 1.8 C 66 % -3.86 C
1608 11-02-2009 09:46:31 1.7 C 67 % -3.75 C
1609 11-02-2009 09:58:31 2.4 C 65 % -3.49 C
1610 11-02-2009 10:10:31 2.9 C 62 % -3.65 C
1611 11-02-2009 10:22:30 3 C 59 % -4.21 C
1612 11-02-2009 10:34:30 3.2 C 57 % -4.48 C
1613 11-02-2009 10:46:30 3.2 C 56 % -4.71 C
1614 11-02-2009 10:58:30 3.7 C 55 % -4.49 C
1615 11-02-2009 11:10:30 3.8 C 53 % -4.88 C
1616 11-02-2009 11:22:29 3.8 C 52 % -5.13 C
1617 11-02-2009 11:34:30 4 C 48 % -6 C
1618 11-02-2009 11:46:29 4.5 C 46 % -6.09 C
1619 11-02-2009 11:58:29 4.6 C 43 % -6.88 C
1620 11-02-2009 12:10:29 4.6 C 43 % -6.88 C
1621 11-02-2009 12:22:29 4.5 C 42 % -7.27 C
1622 11-02-2009 12:34:29 3.6 C 51 % -5.57 C
1623 11-02-2009 12:46:29 3.7 C 56 % -4.25 C
1624 11-02-2009 12:58:29 3.4 C 56 % -4.53 C
1625 11-02-2009 13:10:28 3.3 C 60 % -3.71 C
Sensor: Nr:Datum:Temp:Feuchte:Taupunkt:
Aussen-T/F 1626 11-02-2009 13:22:29 3.6 C 64 % -2.56 C
1627 11-02-2009 13:34:28 3.7 C 63 % -2.68 C
1628 11-02-2009 13:46:28 3.7 C 59 % -3.55 C
1629 11-02-2009 13:58:28 4.4 C 56 % -3.59 C
1630 11-02-2009 14:10:28 5.2 C 44 % -6.04 C
1631 11-02-2009 14:22:28 6.5 C 36 % -7.47 C
1632 11-02-2009 14:34:28 6.2 C 35 % -8.1 C
1633 11-02-2009 14:46:28 5.9 C 32 % -9.5 C
1634 11-02-2009 14:58:28 5.6 C 30 % -10.58 C
1635 11-02-2009 15:10:28 5.6 C 32 % -9.77 C
1636 11-02-2009 15:22:27 5.3 C 31 % -10.43 C
1637 11-02-2009 15:34:27 5 C 36 % -8.8 C
1638 11-02-2009 15:46:27 4.7 C 41 % -7.4 C
1639 11-02-2009 15:58:27 4.6 C 41 % -7.49 C
1640 11-02-2009 16:10:27 4.6 C 41 % -7.49 C
1641 11-02-2009 16:22:26 4.3 C 42 % -7.46 C
1642 11-02-2009 16:34:27 4.2 C 43 % -7.24 C
1643 11-02-2009 16:46:26 4 C 45 % -6.84 C
1644 11-02-2009 16:58:26 3.8 C 48 % -6.18 C
1645 11-02-2009 17:10:26 3.7 C 50 % -5.74 C
1646 11-02-2009 17:22:27 3.6 C 50 % -5.83 C
1647 11-02-2009 17:34:26 3.5 C 52 % -5.41 C
1648 11-02-2009 17:46:26 3.4 C 52 % -5.5 C
1649 11-02-2009 17:58:26 3.4 C 53 % -5.25 C
1650 11-02-2009 18:10:26 3.4 C 55 % -4.77 C
Sensor: Nr:Datum:Temp:Feuchte:Taupunkt:
Aussen-T/F 1651 11-02-2009 18:22:26 3.2 C 56 % -4.71 C
1652 11-02-2009 18:34:25 3.1 C 58 % -4.34 C
1653 11-02-2009 18:46:26 3.1 C 58 % -4.34 C
1654 11-02-2009 18:58:26 3 C 58 % -4.44 C
1655 11-02-2009 19:10:25 2.9 C 60 % -4.08 C
1656 11-02-2009 19:22:25 2.9 C 60 % -4.08 C
1657 11-02-2009 19:34:25 3 C 58 % -4.44 C
1658 11-02-2009 19:46:25 3 C 58 % -4.44 C
1659 11-02-2009 19:58:25 3 C 58 % -4.44 C
1660 11-02-2009 20:10:25 2.9 C 59 % -4.31 C
1661 11-02-2009 20:22:24 2.9 C 60 % -4.08 C
1662 11-02-2009 20:34:25 2.8 C 60 % -4.18 C
1663 11-02-2009 20:46:24 2.8 C 61 % -3.96 C
1664 11-02-2009 20:58:24 2.6 C 63 % -3.72 C
1665 11-02-2009 21:10:24 2.4 C 68 % -2.89 C
1666 11-02-2009 21:23:26 2.2 C 70 % -2.69 C
1667 11-02-2009 21:35:26 2.1 C 71 % -2.6 C
1668 11-02-2009 21:47:26 1.8 C 75 % -2.15 C
1669 11-02-2009 21:59:26 1.6 C 79 % -1.64 C
1670 11-02-2009 22:11:26 1.5 C 81 % -1.4 C
1671 11-02-2009 22:23:26 1.1 C 84 % -1.29 C
1672 11-02-2009 22:35:26 1.1 C 86 % -0.97 C
1673 11-02-2009 22:47:26 1 C 87 % -0.91 C
1674 11-02-2009 22:59:26 1.1 C 88 % -0.66 C
1675 11-02-2009 23:11:26 1.3 C 89 % -0.31 C
Sensor: Nr:Datum:Temp:Feuchte:Taupunkt:
Aussen-T/F 1676 11-02-2009 23:23:26 1.3 C 89 % -0.31 C
1677 11-02-2009 23:35:26 1.3 C 88 % -0.46 C
1678 11-02-2009 23:47:26 1.4 C 88 % -0.36 C
1679 11-02-2009 23:59:26 1.4 C 86 % -0.68 C
1680 12-02-2009 00:11:26 1.3 C 86 % -0.78 C
1681 12-02-2009 00:23:26 1 C 86 % -1.07 C
1682 12-02-2009 00:35:27 1.1 C 86 % -0.97 C
1683 12-02-2009 00:47:27 1.2 C 85 % -1.03 C
1684 12-02-2009 00:59:27 1.1 C 84 % -1.29 C
1685 12-02-2009 01:11:27 1 C 84 % -1.39 C
1686 12-02-2009 01:23:27 1 C 85 % -1.23 C
1687 12-02-2009 01:35:27 1 C 84 % -1.39 C
1688 12-02-2009 01:47:27 1.1 C 82 % -1.62 C
1689 12-02-2009 01:59:27 1.2 C 80 % -1.86 C
1690 12-02-2009 02:11:27 1.1 C 79 % -2.12 C
1691 12-02-2009 02:23:27 1.1 C 79 % -2.12 C
1692 12-02-2009 02:35:27 1.1 C 79 % -2.12 C
1693 12-02-2009 02:47:27 1.1 C 79 % -2.12 C
1694 12-02-2009 02:59:27 0.8 C 81 % -2.08 C
1695 12-02-2009 03:11:27 0.8 C 82 % -1.91 C
1696 12-02-2009 03:23:27 0.8 C 84 % -1.59 C
1697 12-02-2009 03:35:27 0.8 C 84 % -1.59 C
1698 12-02-2009 03:47:27 1 C 81 % -1.88 C
1699 12-02-2009 03:59:27 1 C 77 % -2.57 C
1700 12-02-2009 04:11:27 0.6 C 76 % -3.13 C
Sensor: Nr:Datum:Temp:Feuchte:Taupunkt:
Aussen-T/F 1701 12-02-2009 04:23:27 0.5 C 76 % -3.23 C
1702 12-02-2009 04:35:28 0.2 C 76 % -3.52 C
1703 12-02-2009 04:47:28 -0.1 C 75 % -3.99 C
1704 12-02-2009 04:59:28 -0.4 C 76 % -4.1 C
1705 12-02-2009 05:11:28 -0.5 C 75 % -4.38 C
1706 12-02-2009 05:23:28 -0.6 C 75 % -4.47 C
1707 12-02-2009 05:35:28 -0.8 C 75 % -4.67 C
1708 12-02-2009 05:47:28 -0.7 C 75 % -4.57 C
1709 12-02-2009 05:59:28 -0.7 C 75 % -4.57 C
1710 12-02-2009 06:11:28 -0.5 C 73 % -4.73 C
1711 12-02-2009 06:23:28 -0.5 C 73 % -4.73 C
1712 12-02-2009 06:35:28 -0.4 C 73 % -4.64 C
1713 12-02-2009 06:47:26 -0.3 C 73 % -4.54 C
1714 12-02-2009 06:59:26 -0.4 C 73 % -4.64 C
1715 12-02-2009 07:11:25 -0.3 C 75 % -4.18 C
1716 12-02-2009 07:23:25 -0.2 C 76 % -3.91 C
1717 12-02-2009 07:35:24 -0.2 C 76 % -3.91 C
1718 12-02-2009 07:47:25 -0.2 C 74 % -4.26 C
1719 12-02-2009 07:59:25 -0.1 C 75 % -3.99 C
1720 12-02-2009 08:11:24 0 C 75 % -3.89 C
1721 12-02-2009 08:23:24 0.1 C 75 % -3.79 C
1722 12-02-2009 08:35:25 0.1 C 74 % -3.97 C
1723 12-02-2009 08:47:24 0.1 C 74 % -3.97 C
1724 12-02-2009 08:59:24 0.2 C 74 % -3.87 C
1725 12-02-2009 09:11:24 0.4 C 73 % -3.86 C
Sensor: Nr:Datum:Temp:Feuchte:Taupunkt:
Aussen-T/F 1726 12-02-2009 09:23:24 0.4 C 74 % -3.68 C
1727 12-02-2009 09:35:24 0.6 C 74 % -3.49 C
1728 12-02-2009 09:47:23 0.8 C 75 % -3.11 C
1729 12-02-2009 09:59:23 1 C 73 % -3.28 C
1730 12-02-2009 10:11:23 0.9 C 74 % -3.2 C
1731 12-02-2009 10:23:23 1 C 74 % -3.1 C
1732 12-02-2009 10:35:23 1.3 C 71 % -3.36 C
1733 12-02-2009 10:47:22 1.4 C 70 % -3.46 C
1734 12-02-2009 10:59:22 1.6 C 68 % -3.65 C
1735 12-02-2009 11:11:23 1.8 C 66 % -3.86 C
1736 12-02-2009 11:23:23 2.1 C 65 % -3.78 C
1737 12-02-2009 11:35:22 1.7 C 66 % -3.95 C
1738 12-02-2009 11:47:23 1.6 C 68 % -3.65 C
1739 12-02-2009 11:59:23 2 C 63 % -4.29 C
1740 12-02-2009 12:11:22 2.4 C 57 % -5.23 C
1741 12-02-2009 12:23:22 2.5 C 59 % -4.68 C
1742 12-02-2009 12:35:21 2.6 C 61 % -4.15 C
1743 12-02-2009 12:47:22 2.9 C 57 % -4.76 C
1744 12-02-2009 12:59:22 3 C 60 % -3.99 C
1745 12-02-2009 13:11:21 3.6 C 58 % -3.87 C
1746 12-02-2009 13:23:21 3.6 C 56 % -4.34 C
1747 12-02-2009 13:35:22 2.7 C 58 % -4.72 C
1748 12-02-2009 13:47:21 1.4 C 68 % -3.84 C
1749 12-02-2009 13:59:21 1 C 75 % -2.92 C
1750 12-02-2009 14:11:21 0.9 C 79 % -2.32 C
Sensor: Nr:Datum:Temp:Feuchte:Taupunkt:
Aussen-T/F 1751 12-02-2009 14:23:21 1.9 C 79 % -1.35 C
1752 12-02-2009 14:35:21 2.1 C 74 % -2.04 C
1753 12-02-2009 14:47:20 2.5 C 72 % -2.02 C
1754 12-02-2009 14:59:20 2.4 C 71 % -2.31 C
1755 12-02-2009 15:11:21 2.2 C 70 % -2.69 C
1756 12-02-2009 15:23:21 1.8 C 72 % -2.7 C
1757 12-02-2009 15:35:20 2.6 C 72 % -1.93 C
1758 12-02-2009 15:47:20 2.7 C 68 % -2.6 C
1759 12-02-2009 15:59:20 2.6 C 67 % -2.9 C
1760 12-02-2009 16:11:20 3.2 C 63 % -3.15 C
1761 12-02-2009 16:23:20 3.1 C 61 % -3.67 C
1762 12-02-2009 16:35:19 2.8 C 62 % -3.74 C
1763 12-02-2009 16:47:20 2.3 C 64 % -3.79 C
1764 12-02-2009 16:59:20 1.2 C 71 % -3.46 C
1765 12-02-2009 17:11:19 0.9 C 76 % -2.84 C
1766 12-02-2009 17:23:19 0.8 C 78 % -2.59 C
1767 12-02-2009 17:35:19 0.6 C 80 % -2.44 C
1768 12-02-2009 17:47:19 0.3 C 82 % -2.4 C
1769 12-02-2009 17:59:19 0.2 C 84 % -2.18 C
1770 12-02-2009 18:11:19 0.1 C 85 % -2.11 C
1771 12-02-2009 18:23:18 0.1 C 85 % -2.11 C
1772 12-02-2009 18:35:19 0.1 C 85 % -2.11 C
1773 12-02-2009 18:47:18 0 C 85 % -2.21 C
1774 12-02-2009 18:59:18 0 C 86 % -2.05 C
1775 12-02-2009 19:11:18 0.1 C 86 % -1.96 C
Sensor: Nr:Datum:Temp:Feuchte:Taupunkt:
Aussen-T/F 1776 12-02-2009 19:23:18 0.1 C 86 % -1.96 C
1777 12-02-2009 19:35:18 0.2 C 87 % -1.7 C
1778 12-02-2009 19:47:17 0.1 C 87 % -1.8 C
1779 12-02-2009 19:59:17 -0.2 C 87 % -2.1 C
1780 12-02-2009 20:11:18 -0.3 C 87 % -2.2 C
1781 12-02-2009 20:23:18 -0.4 C 87 % -2.29 C
1782 12-02-2009 20:35:17 -0.6 C 87 % -2.49 C
1783 12-02-2009 20:47:18 -0.5 C 86 % -2.55 C
1784 12-02-2009 20:59:18 -0.4 C 86 % -2.45 C
1785 12-02-2009 21:11:17 -0.5 C 86 % -2.55 C
1786 12-02-2009 21:23:17 -0.6 C 86 % -2.65 C
1787 12-02-2009 21:35:16 -0.7 C 86 % -2.74 C
1788 12-02-2009 21:47:17 -0.7 C 86 % -2.74 C
1789 12-02-2009 21:59:17 -0.6 C 87 % -2.49 C
1790 12-02-2009 22:11:16 -0.6 C 87 % -2.49 C
1791 12-02-2009 22:23:16 -0.5 C 87 % -2.39 C
1792 12-02-2009 22:36:17 -0.7 C 87 % -2.59 C
1793 12-02-2009 22:48:17 -1 C 87 % -2.88 C
1794 12-02-2009 23:00:17 -1.3 C 86 % -3.33 C
1795 12-02-2009 23:12:17 -1.5 C 87 % -3.38 C
1796 12-02-2009 23:24:17 -1.6 C 87 % -3.48 C
1797 12-02-2009 23:36:17 -1.5 C 87 % -3.38 C
1798 12-02-2009 23:48:17 -1.5 C 88 % -3.22 C
1799 13-02-2009 00:00:17 -1.5 C 88 % -3.22 C
1800 13-02-2009 00:12:17 -1.6 C 88 % -3.32 C
Sensor: Nr:Datum:Temp:Feuchte:Taupunkt:
Aussen-T/F 1801 13-02-2009 00:24:17 -1.2 C 89 % -2.78 C
1802 13-02-2009 00:36:17 -1.1 C 89 % -2.68 C
1803 13-02-2009 00:48:18 -1 C 89 % -2.58 C
1804 13-02-2009 01:00:18 -0.9 C 89 % -2.48 C
1805 13-02-2009 01:12:18 -0.7 C 89 % -2.28 C
1806 13-02-2009 01:24:18 -0.5 C 89 % -2.09 C
1807 13-02-2009 01:36:18 -0.4 C 89 % -1.99 C
1808 13-02-2009 01:48:18 -0.4 C 89 % -1.99 C
1809 13-02-2009 02:00:18 -0.4 C 89 % -1.99 C
1810 13-02-2009 02:12:18 -0.3 C 89 % -1.89 C
1811 13-02-2009 02:24:18 -0.3 C 89 % -1.89 C
1812 13-02-2009 02:36:18 -0.3 C 89 % -1.89 C
1813 13-02-2009 02:48:18 -0.2 C 89 % -1.79 C
1814 13-02-2009 03:00:18 -0.3 C 88 % -2.04 C
1815 13-02-2009 03:12:18 -0.3 C 88 % -2.04 C
1816 13-02-2009 03:24:18 -0.3 C 88 % -2.04 C
1817 13-02-2009 03:36:18 -0.3 C 88 % -2.04 C
1818 13-02-2009 03:48:18 -0.3 C 88 % -2.04 C
1819 13-02-2009 04:00:18 -0.3 C 88 % -2.04 C
1820 13-02-2009 04:12:18 -0.3 C 88 % -2.04 C
1821 13-02-2009 04:24:18 -0.4 C 87 % -2.29 C
1822 13-02-2009 04:36:19 -0.4 C 87 % -2.29 C
1823 13-02-2009 04:48:19 -0.4 C 87 % -2.29 C
1824 13-02-2009 05:00:19 -0.4 C 87 % -2.29 C
1825 13-02-2009 05:12:19 -0.5 C 86 % -2.55 C
Sensor: Nr:Datum:Temp:Feuchte:Taupunkt:
Aussen-T/F 1826 13-02-2009 05:24:19 -0.6 C 86 % -2.65 C
1827 13-02-2009 05:36:19 -0.6 C 85 % -2.8 C
1828 13-02-2009 05:48:19 -0.5 C 85 % -2.71 C
1829 13-02-2009 06:00:19 -0.4 C 84 % -2.77 C
1830 13-02-2009 06:12:19 -0.4 C 84 % -2.77 C
1831 13-02-2009 06:24:19 -0.3 C 83 % -2.83 C
1832 13-02-2009 06:36:19 -0.4 C 83 % -2.93 C
1833 13-02-2009 06:48:19 -0.4 C 82 % -3.09 C
1834 13-02-2009 07:00:08 -0.4 C 82 % -3.09 C
1835 13-02-2009 07:12:17 -0.5 C 82 % -3.19 C
1836 13-02-2009 07:24:18 -0.5 C 82 % -3.19 C
1837 13-02-2009 07:36:17 -0.5 C 83 % -3.03 C
1838 13-02-2009 07:48:17 -0.5 C 82 % -3.19 C
1839 13-02-2009 08:00:16 -0.5 C 82 % -3.19 C
1840 13-02-2009 08:12:16 -0.5 C 82 % -3.19 C
1841 13-02-2009 08:24:17 -0.5 C 82 % -3.19 C
1842 13-02-2009 08:36:16 -0.5 C 82 % -3.19 C
1843 13-02-2009 08:48:16 -0.4 C 82 % -3.09 C
1844 13-02-2009 09:00:16 -0.4 C 82 % -3.09 C
1845 13-02-2009 09:12:16 -0.3 C 81 % -3.16 C
1846 13-02-2009 09:24:16 -0.1 C 81 % -2.96 C
1847 13-02-2009 09:36:16 0.1 C 80 % -2.93 C
1848 13-02-2009 09:48:16 0.1 C 80 % -2.93 C
1849 13-02-2009 10:00:15 0.1 C 79 % -3.1 C
1850 13-02-2009 10:12:15 0.2 C 79 % -3 C
Sensor: Nr:Datum:Temp:Feuchte:Taupunkt:
Aussen-T/F 1851 13-02-2009 10:24:16 0.4 C 79 % -2.81 C
1852 13-02-2009 10:36:15 0.4 C 78 % -2.98 C
1853 13-02-2009 10:48:15 0.5 C 78 % -2.88 C
1854 13-02-2009 11:00:15 0.6 C 78 % -2.78 C
1855 13-02-2009 11:12:15 0.7 C 78 % -2.69 C
1856 13-02-2009 11:24:15 0.9 C 78 % -2.49 C
1857 13-02-2009 11:36:15 1.1 C 77 % -2.47 C
1858 13-02-2009 11:48:15 1.2 C 76 % -2.55 C
1859 13-02-2009 12:00:15 1.3 C 77 % -2.28 C
1860 13-02-2009 12:12:15 1.4 C 77 % -2.18 C
1861 13-02-2009 12:24:14 1.6 C 76 % -2.16 C
1862 13-02-2009 12:36:14 1.8 C 75 % -2.15 C
1863 13-02-2009 12:48:14 1.8 C 74 % -2.33 C
1864 13-02-2009 13:00:14 1.8 C 75 % -2.15 C
1865 13-02-2009 13:12:14 1.7 C 76 % -2.07 C
1866 13-02-2009 13:24:13 1.5 C 78 % -1.91 C
1867 13-02-2009 13:36:14 1.7 C 79 % -1.54 C
1868 13-02-2009 13:48:13 1.8 C 78 % -1.62 C
1869 13-02-2009 14:00:13 2.1 C 76 % -1.68 C
1870 13-02-2009 14:12:13 2.3 C 75 % -1.66 C
1871 13-02-2009 14:24:14 2.3 C 75 % -1.66 C
1872 13-02-2009 14:36:13 2.3 C 75 % -1.66 C
1873 13-02-2009 14:48:13 2.4 C 75 % -1.57 C
1874 13-02-2009 15:00:12 2.2 C 76 % -1.58 C
1875 13-02-2009 15:12:12 2.2 C 77 % -1.4 C
Sensor: Nr:Datum:Temp:Feuchte:Taupunkt:
Aussen-T/F 1876 13-02-2009 15:24:13 2 C 77 % -1.6 C
1877 13-02-2009 15:36:12 2 C 79 % -1.25 C
1878 13-02-2009 15:48:12 2 C 79 % -1.25 C
1879 13-02-2009 16:00:12 1.8 C 79 % -1.44 C
1880 13-02-2009 16:12:12 1.7 C 79 % -1.54 C
1881 13-02-2009 16:24:12 1.7 C 79 % -1.54 C
1882 13-02-2009 16:36:12 1.5 C 79 % -1.74 C
1883 13-02-2009 16:48:12 1.4 C 80 % -1.66 C
1884 13-02-2009 17:00:12 1.4 C 81 % -1.49 C
1885 13-02-2009 17:12:12 1.4 C 80 % -1.66 C
1886 13-02-2009 17:24:11 1.4 C 80 % -1.66 C
1887 13-02-2009 17:36:12 1.2 C 79 % -2.03 C
1888 13-02-2009 17:48:11 1.2 C 79 % -2.03 C
1889 13-02-2009 18:00:11 1.2 C 78 % -2.2 C
1890 13-02-2009 18:12:11 1.2 C 77 % -2.37 C
1891 13-02-2009 18:24:11 1.2 C 77 % -2.37 C
1892 13-02-2009 18:36:11 1.2 C 76 % -2.55 C
1893 13-02-2009 18:48:10 1.3 C 74 % -2.81 C
1894 13-02-2009 19:00:10 1.4 C 72 % -3.08 C
1895 13-02-2009 19:12:10 1.4 C 72 % -3.08 C
1896 13-02-2009 19:24:11 1.2 C 71 % -3.46 C
1897 13-02-2009 19:36:10 1.3 C 69 % -3.75 C
1898 13-02-2009 19:48:10 1.2 C 68 % -4.04 C
1899 13-02-2009 20:00:10 1.2 C 68 % -4.04 C
1900 13-02-2009 20:12:10 1.1 C 69 % -3.94 C
Sensor: Nr:Datum:Temp:Feuchte:Taupunkt:
Aussen-T/F 1901 13-02-2009 20:24:10 1 C 70 % -3.84 C
1902 13-02-2009 20:36:10 1 C 72 % -3.47 C
1903 13-02-2009 20:48:09 0.9 C 74 % -3.2 C
1904 13-02-2009 21:00:09 0.9 C 73 % -3.38 C
1905 13-02-2009 21:12:09 1 C 72 % -3.47 C
1906 13-02-2009 21:24:09 0.9 C 74 % -3.2 C
1907 13-02-2009 21:36:09 0.7 C 78 % -2.69 C
1908 13-02-2009 21:48:08 0.6 C 80 % -2.44 C
1909 13-02-2009 22:01:09 0.6 C 81 % -2.28 C
1910 13-02-2009 22:13:09 0.6 C 82 % -2.11 C
1911 13-02-2009 22:25:09 0.4 C 83 % -2.14 C
1912 13-02-2009 22:37:09 0.4 C 85 % -1.82 C
1913 13-02-2009 22:49:09 0.4 C 85 % -1.82 C
1914 13-02-2009 23:01:10 0.4 C 86 % -1.66 C
1915 13-02-2009 23:13:10 0.4 C 86 % -1.66 C
1916 13-02-2009 23:25:10 0.4 C 86 % -1.66 C
1917 13-02-2009 23:37:10 0.5 C 86 % -1.56 C
1918 13-02-2009 23:49:10 0.6 C 85 % -1.62 C
1919 14-02-2009 00:01:10 0.4 C 84 % -1.98 C
1920 14-02-2009 00:13:10 0.4 C 84 % -1.98 C
1921 14-02-2009 00:25:10 0.5 C 84 % -1.88 C
1922 14-02-2009 00:37:10 0.6 C 83 % -1.95 C
1923 14-02-2009 00:49:10 0.5 C 83 % -2.04 C
1924 14-02-2009 01:01:10 0.5 C 83 % -2.04 C
1925 14-02-2009 01:13:10 0.5 C 83 % -2.04 C
Sensor: Nr:Datum:Temp:Feuchte:Taupunkt:
Aussen-T/F 1926 14-02-2009 01:25:10 0.4 C 83 % -2.14 C
1927 14-02-2009 01:37:10 0.5 C 82 % -2.21 C
1928 14-02-2009 01:49:10 0.5 C 81 % -2.37 C
1929 14-02-2009 02:01:10 0.6 C 80 % -2.44 C
1930 14-02-2009 02:13:10 0.5 C 79 % -2.71 C
1931 14-02-2009 02:25:10 0.3 C 81 % -2.57 C
1932 14-02-2009 02:37:10 0.2 C 83 % -2.34 C
1933 14-02-2009 02:49:11 0.2 C 85 % -2.02 C
1934 14-02-2009 03:01:11 0.2 C 85 % -2.02 C
1935 14-02-2009 03:13:11 0.3 C 85 % -1.92 C
1936 14-02-2009 03:25:11 0.2 C 85 % -2.02 C
1937 14-02-2009 03:37:11 0.1 C 85 % -2.11 C
1938 14-02-2009 03:49:11 0.1 C 86 % -1.96 C
1939 14-02-2009 04:01:11 0.2 C 86 % -1.86 C
1940 14-02-2009 04:13:11 0.2 C 87 % -1.7 C
1941 14-02-2009 04:25:11 0.2 C 87 % -1.7 C
1942 14-02-2009 04:37:11 0.2 C 88 % -1.55 C
1943 14-02-2009 04:49:11 0.2 C 88 % -1.55 C
1944 14-02-2009 05:01:11 0.2 C 88 % -1.55 C
1945 14-02-2009 05:13:11 0.1 C 88 % -1.65 C
1946 14-02-2009 05:25:11 0.2 C 88 % -1.55 C
1947 14-02-2009 05:37:11 0.2 C 88 % -1.55 C
1948 14-02-2009 05:49:11 0.2 C 88 % -1.55 C
1949 14-02-2009 06:01:11 0.2 C 88 % -1.55 C
1950 14-02-2009 06:13:11 0.2 C 87 % -1.7 C
Sensor: Nr:Datum:Temp:Feuchte:Taupunkt:
Aussen-T/F 1951 14-02-2009 06:25:11 0.2 C 87 % -1.7 C
1952 14-02-2009 06:37:12 0.2 C 86 % -1.86 C
1953 14-02-2009 06:49:12 0.2 C 86 % -1.86 C
1954 14-02-2009 07:01:12 0.2 C 86 % -1.86 C
1955 14-02-2009 07:13:12 0.1 C 86 % -1.96 C
1956 14-02-2009 07:25:12 0.1 C 86 % -1.96 C
1957 14-02-2009 07:37:12 0.2 C 86 % -1.86 C
1958 14-02-2009 07:49:10 0.3 C 86 % -1.76 C
1959 14-02-2009 08:01:09 0.4 C 85 % -1.82 C
1960 14-02-2009 08:13:09 0.5 C 83 % -2.04 C
1961 14-02-2009 08:25:09 0.4 C 82 % -2.3 C
1962 14-02-2009 08:37:09 0.3 C 80 % -2.73 C
1963 14-02-2009 08:49:09 0.2 C 79 % -3 C
1964 14-02-2009 09:01:08 0.2 C 78 % -3.17 C
1965 14-02-2009 09:13:08 0.2 C 78 % -3.17 C
1966 14-02-2009 09:25:08 0.4 C 78 % -2.98 C
1967 14-02-2009 09:37:09 0.3 C 78 % -3.07 C
1968 14-02-2009 09:49:08 0.3 C 78 % -3.07 C
1969 14-02-2009 10:01:08 0.4 C 77 % -3.15 C
1970 14-02-2009 10:13:08 0.2 C 75 % -3.69 C
1971 14-02-2009 10:25:08 0.1 C 74 % -3.97 C
1972 14-02-2009 10:37:08 0.3 C 72 % -4.14 C
1973 14-02-2009 10:49:07 0.6 C 70 % -4.23 C
1974 14-02-2009 11:01:08 0.8 C 66 % -4.81 C
1975 14-02-2009 11:13:08 0.6 C 67 % -4.81 C
Sensor: Nr:Datum:Temp:Feuchte:Taupunkt:
Aussen-T/F 1976 14-02-2009 11:25:07 0.9 C 67 % -4.52 C
1977 14-02-2009 11:37:07 0.8 C 64 % -5.22 C
1978 14-02-2009 11:49:07 0.8 C 63 % -5.42 C
1979 14-02-2009 12:01:07 0.9 C 61 % -5.75 C
1980 14-02-2009 12:13:07 0.9 C 62 % -5.54 C
1981 14-02-2009 12:25:07 1.4 C 59 % -5.72 C
1982 14-02-2009 12:37:06 1.5 C 57 % -6.07 C
1983 14-02-2009 12:49:07 2 C 55 % -6.07 C
1984 14-02-2009 13:01:06 1.8 C 52 % -6.99 C
1985 14-02-2009 13:13:06 2.4 C 51 % -6.68 C
1986 14-02-2009 13:25:06 2.6 C 49 % -7.02 C
1987 14-02-2009 13:37:06 2.9 C 46 % -7.56 C
1988 14-02-2009 13:49:06 3.1 C 44 % -7.95 C
1989 14-02-2009 14:01:05 3.4 C 42 % -8.27 C
1990 14-02-2009 14:13:05 3.7 C 41 % -8.31 C
1991 14-02-2009 14:25:06 3.7 C 42 % -8 C
1992 14-02-2009 14:37:06 3.8 C 43 % -7.61 C
1993 14-02-2009 14:49:05 3.6 C 44 % -7.49 C
1994 14-02-2009 15:01:06 4.1 C 42 % -7.64 C
1995 14-02-2009 15:13:06 4.2 C 40 % -8.17 C
1996 14-02-2009 15:25:05 3.6 C 43 % -7.79 C
1997 14-02-2009 15:37:05 3.3 C 44 % -7.76 C
1998 14-02-2009 15:49:05 2.9 C 45 % -7.84 C
1999 14-02-2009 16:01:05 2.9 C 45 % -7.84 C
2000 14-02-2009 16:13:05 3.2 C 44 % -7.85 C
Sensor: Nr:Datum:Temp:Feuchte:Taupunkt:
Aussen-T/F 2001 14-02-2009 16:25:04 3.3 C 41 % -8.67 C
2002 14-02-2009 16:37:04 3.9 C 42 % -7.82 C
2003 14-02-2009 16:49:04 3.9 C 39 % -8.77 C
2004 14-02-2009 17:01:04 3.3 C 40 % -8.98 C
2005 14-02-2009 17:13:04 2.6 C 44 % -8.4 C
2006 14-02-2009 17:25:04 2.2 C 46 % -8.2 C
2007 14-02-2009 17:37:04 1.5 C 47 % -8.56 C
2008 14-02-2009 17:49:04 0.8 C 49 % -8.68 C
2009 14-02-2009 18:01:03 0.4 C 52 % -8.29 C
2010 14-02-2009 18:13:03 0.2 C 52 % -8.47 C
2011 14-02-2009 18:25:04 0.2 C 50 % -8.97 C
2012 14-02-2009 18:37:03 -0.1 C 50 % -9.26 C
2013 14-02-2009 18:49:03 -0.3 C 51 % -9.2 C
2014 14-02-2009 19:01:03 -0.3 C 51 % -9.2 C
2015 14-02-2009 19:13:03 -0.8 C 54 % -8.93 C
2016 14-02-2009 19:25:03 -0.9 C 56 % -8.56 C
2017 14-02-2009 19:37:03 -1 C 59 % -7.99 C
2018 14-02-2009 19:49:03 -1.2 C 60 % -7.96 C
2019 14-02-2009 20:01:03 -1.3 C 62 % -7.63 C
2020 14-02-2009 20:13:03 -1.4 C 63 % -7.52 C
2021 14-02-2009 20:25:02 -1.6 C 64 % -7.51 C
2022 14-02-2009 20:37:02 -1.8 C 65 % -7.5 C
2023 14-02-2009 20:49:02 -2 C 66 % -7.49 C
2024 14-02-2009 21:01:01 -2.1 C 66 % -7.59 C
2025 14-02-2009 21:13:01 -2.3 C 66 % -7.78 C
Sensor: Nr:Datum:Temp:Feuchte:Taupunkt:
Aussen-T/F 2026 14-02-2009 21:25:02 -2.4 C 67 % -7.68 C
2027 14-02-2009 21:37:02 -2.6 C 68 % -7.68 C
2028 14-02-2009 21:49:01 -2.3 C 70 % -7.02 C
2029 14-02-2009 22:01:02 -2.2 C 70 % -6.92 C
2030 14-02-2009 22:13:02 -2.3 C 70 % -7.02 C
2031 14-02-2009 22:25:01 -2.4 C 70 % -7.11 C
2032 14-02-2009 22:37:01 -2.3 C 71 % -6.83 C
2033 14-02-2009 22:49:01 -2.3 C 70 % -7.02 C
2034 14-02-2009 23:01:01 -2.2 C 70 % -6.92 C
2035 14-02-2009 23:13:02 -2.5 C 70 % -7.21 C
2036 14-02-2009 23:25:00 -2.6 C 70 % -7.31 C
2037 14-02-2009 23:37:00 -2.8 C 71 % -7.31 C
2038 14-02-2009 23:49:00 -2.9 C 71 % -7.41 C
2039 15-02-2009 00:01:00 -2.9 C 72 % -7.23 C
2040 15-02-2009 00:13:00 -3.1 C 72 % -7.42 C
2041 15-02-2009 00:25:00 -3.3 C 72 % -7.62 C
2042 15-02-2009 00:37:00 -3.5 C 72 % -7.81 C
2043 15-02-2009 00:49:59 -3.5 C 73 % -7.63 C
2044 15-02-2009 01:12:59 -3.6 C 74 % -7.55 C
2045 15-02-2009 01:13:00 -3.7 C 74 % -7.65 C
2046 15-02-2009 01:25:00 -3.8 C 74 % -7.75 C
2047 15-02-2009 01:37:59 -3.9 C 75 % -7.67 C
2048 15-02-2009 01:49:59 -4 C 75 % -7.77 C
2049 15-02-2009 02:01:59 -4 C 76 % -7.59 C
2050 15-02-2009 02:13:59 -4.1 C 76 % -7.69 C
Sensor: Nr:Datum:Temp:Feuchte:Taupunkt:
Aussen-T/F 2051 15-02-2009 02:26:00 -4.2 C 77 % -7.62 C
2052 15-02-2009 02:37:58 -4.2 C 77 % -7.62 C
2053 15-02-2009 02:51:01 -4.4 C 77 % -7.81 C
2054 15-02-2009 03:03:01 -4.5 C 77 % -7.91 C
2055 15-02-2009 03:15:01 -4.6 C 78 % -7.84 C
2056 15-02-2009 03:27:01 -4.7 C 78 % -7.94 C
2057 15-02-2009 03:39:01 -4.7 C 78 % -7.94 C
2058 15-02-2009 03:51:01 -4.8 C 78 % -8.04 C
2059 15-02-2009 04:03:02 -4.9 C 78 % -8.13 C
2060 15-02-2009 04:15:01 -5 C 78 % -8.23 C
2061 15-02-2009 04:27:01 -5.2 C 78 % -8.43 C
2062 15-02-2009 04:39:02 -5.2 C 78 % -8.43 C
2063 15-02-2009 04:51:02 -5.5 C 78 % -8.72 C
2064 15-02-2009 05:02:59 -5.6 C 78 % -8.82 C
2065 15-02-2009 05:14:59 -5.4 C 78 % -8.62 C
2066 15-02-2009 05:26:59 -5.5 C 79 % -8.56 C
2067 15-02-2009 05:38:58 -5.6 C 78 % -8.82 C
2068 15-02-2009 05:50:58 -5.7 C 78 % -8.91 C
2069 15-02-2009 06:02:59 -5.7 C 79 % -8.75 C
2070 15-02-2009 06:14:59 -5.8 C 79 % -8.85 C
2071 15-02-2009 06:26:59 -5.8 C 79 % -8.85 C
2072 15-02-2009 06:38:58 -6 C 79 % -9.04 C
2073 15-02-2009 06:50:59 -6 C 79 % -9.04 C
2074 15-02-2009 07:02:58 -6.1 C 79 % -9.14 C
2075 15-02-2009 07:14:58 -6.1 C 79 % -9.14 C
Sensor: Nr:Datum:Temp:Feuchte:Taupunkt:
Aussen-T/F 2076 15-02-2009 07:26:59 -6.2 C 79 % -9.24 C
2077 15-02-2009 07:38:57 -6.3 C 79 % -9.33 C
2078 15-02-2009 07:50:58 -6.3 C 79 % -9.33 C
2079 15-02-2009 08:02:57 -6.3 C 79 % -9.33 C
2080 15-02-2009 08:14:57 -6.2 C 79 % -9.24 C
2081 15-02-2009 08:26:57 -6 C 79 % -9.04 C
2082 15-02-2009 08:38:58 -5.9 C 79 % -8.95 C
2083 15-02-2009 08:50:57 -5.6 C 79 % -8.65 C
2084 15-02-2009 09:02:57 -5.3 C 79 % -8.36 C
2085 15-02-2009 09:14:57 -5 C 79 % -8.07 C
2086 15-02-2009 09:26:57 -4.8 C 78 % -8.04 C
2087 15-02-2009 09:38:57 -4.6 C 77 % -8.01 C
2088 15-02-2009 09:50:56 -4.4 C 76 % -7.98 C
2089 15-02-2009 10:02:57 -4.2 C 75 % -7.96 C
2090 15-02-2009 10:14:56 -3.9 C 75 % -7.67 C
2091 15-02-2009 10:26:56 -3.5 C 73 % -7.63 C
2092 15-02-2009 10:38:56 -3.1 C 71 % -7.6 C
2093 15-02-2009 10:50:55 -2.9 C 70 % -7.59 C
2094 15-02-2009 11:02:56 -2.5 C 69 % -7.4 C
2095 15-02-2009 11:14:56 -2 C 67 % -7.3 C
2096 15-02-2009 11:26:56 -1.6 C 65 % -7.31 C
2097 15-02-2009 11:38:55 -1.2 C 64 % -7.13 C
2098 15-02-2009 11:50:56 -0.9 C 63 % -7.05 C
2099 15-02-2009 12:02:55 -0.4 C 62 % -6.78 C
2100 15-02-2009 12:14:55 -0.1 C 60 % -6.92 C
Sensor: Nr:Datum:Temp:Feuchte:Taupunkt:
Aussen-T/F 2101 15-02-2009 12:26:55 0.3 C 59 % -6.75 C
2102 15-02-2009 12:38:55 0.8 C 59 % -6.28 C
2103 15-02-2009 12:50:55 1 C 55 % -7.01 C
2104 15-02-2009 13:02:55 1.5 C 52 % -7.27 C
2105 15-02-2009 13:14:54 1.8 C 49 % -7.75 C
2106 15-02-2009 13:26:54 1.8 C 47 % -8.29 C
2107 15-02-2009 13:38:55 2 C 46 % -8.38 C
2108 15-02-2009 13:50:54 1.8 C 46 % -8.56 C
2109 15-02-2009 14:02:54 2 C 45 % -8.66 C
2110 15-02-2009 14:14:54 2.1 C 45 % -8.57 C
2111 15-02-2009 14:26:54 2.1 C 45 % -8.57 C
2112 15-02-2009 14:38:54 2.2 C 45 % -8.48 C
2113 15-02-2009 14:50:53 2.2 C 45 % -8.48 C
2114 15-02-2009 15:02:54 2.3 C 44 % -8.67 C
2115 15-02-2009 15:14:53 2.4 C 44 % -8.58 C
2116 15-02-2009 15:26:53 2.4 C 45 % -8.3 C
2117 15-02-2009 15:38:54 2.5 C 45 % -8.2 C
2118 15-02-2009 15:50:53 2.4 C 45 % -8.3 C
2119 15-02-2009 16:02:53 2.4 C 45 % -8.3 C
2120 15-02-2009 16:14:53 2.3 C 45 % -8.39 C
2121 15-02-2009 16:26:54 2.2 C 46 % -8.2 C
2122 15-02-2009 16:38:52 2.1 C 47 % -8.01 C
2123 15-02-2009 16:50:53 2 C 48 % -7.83 C
2124 15-02-2009 17:02:52 1.8 C 50 % -7.49 C
2125 15-02-2009 17:14:52 1.6 C 50 % -7.68 C
Sensor: Nr:Datum:Temp:Feuchte:Taupunkt:
Aussen-T/F 2126 15-02-2009 17:26:52 1.6 C 50 % -7.68 C
2127 15-02-2009 17:38:52 1.4 C 50 % -7.86 C
2128 15-02-2009 17:50:52 1.2 C 51 % -7.79 C
2129 15-02-2009 18:02:52 1.2 C 51 % -7.79 C
2130 15-02-2009 18:14:51 1.1 C 51 % -7.89 C
2131 15-02-2009 18:26:51 0.9 C 53 % -7.58 C
2132 15-02-2009 18:38:52 0.7 C 54 % -7.52 C
2133 15-02-2009 18:50:51 0.7 C 54 % -7.52 C
2134 15-02-2009 19:02:51 0.7 C 53 % -7.76 C
2135 15-02-2009 19:14:51 0.8 C 54 % -7.43 C
2136 15-02-2009 19:26:51 1 C 52 % -7.73 C
2137 15-02-2009 19:38:51 1.1 C 51 % -7.89 C
2138 15-02-2009 19:50:50 1.2 C 51 % -7.79 C
2139 15-02-2009 20:02:51 1.3 C 50 % -7.96 C
2140 15-02-2009 20:14:51 1.4 C 50 % -7.86 C
2141 15-02-2009 20:26:51 1.4 C 50 % -7.86 C
2142 15-02-2009 20:38:50 1.4 C 50 % -7.86 C
2143 15-02-2009 20:50:51 1.4 C 51 % -7.61 C
2144 15-02-2009 21:02:50 1.3 C 54 % -6.96 C
2145 15-02-2009 21:14:50 1.2 C 57 % -6.36 C
2146 15-02-2009 21:26:50 1 C 60 % -5.87 C
2147 15-02-2009 21:38:49 0.8 C 64 % -5.22 C
2148 15-02-2009 21:50:00 0.8 C 65 % -5.01 C
2149 15-02-2009 22:03:51 0.6 C 68 % -4.61 C
2150 15-02-2009 22:15:51 0.5 C 70 % -4.32 C
Sensor: Nr:Datum:Temp:Feuchte:Taupunkt:
Aussen-T/F 2151 15-02-2009 22:27:51 0.5 C 72 % -3.95 C
2152 15-02-2009 22:39:51 0.5 C 72 % -3.95 C
2153 15-02-2009 22:51:51 0.4 C 73 % -3.86 C
2154 15-02-2009 23:03:51 0.4 C 75 % -3.5 C
2155 15-02-2009 23:15:51 0.3 C 76 % -3.42 C
2156 15-02-2009 23:27:51 0.3 C 77 % -3.25 C
2157 15-02-2009 23:39:51 0.2 C 78 % -3.17 C
2158 15-02-2009 23:51:51 0.2 C 78 % -3.17 C
2159 16-02-2009 00:03:51 0.2 C 78 % -3.17 C
2160 16-02-2009 00:15:51 0.2 C 79 % -3 C
2161 16-02-2009 00:27:51 0.1 C 80 % -2.93 C
2162 16-02-2009 00:39:51 0.1 C 82 % -2.6 C
2163 16-02-2009 00:51:51 0 C 83 % -2.53 C
2164 16-02-2009 01:03:51 0 C 83 % -2.53 C
2165 16-02-2009 01:15:51 0 C 83 % -2.53 C
2166 16-02-2009 01:27:51 0 C 83 % -2.53 C
2167 16-02-2009 01:39:52 0 C 83 % -2.53 C
2168 16-02-2009 01:51:52 0 C 83 % -2.53 C
2169 16-02-2009 02:03:52 0 C 83 % -2.53 C
2170 16-02-2009 02:15:52 0.1 C 82 % -2.6 C
2171 16-02-2009 02:27:52 0.1 C 81 % -2.76 C
2172 16-02-2009 02:39:52 0.2 C 81 % -2.67 C
2173 16-02-2009 02:51:52 0.2 C 80 % -2.83 C
2174 16-02-2009 03:03:52 0.2 C 80 % -2.83 C
2175 16-02-2009 03:15:52 0.2 C 80 % -2.83 C
Sensor: Nr:Datum:Temp:Feuchte:Taupunkt:
Aussen-T/F 2176 16-02-2009 03:27:52 0.2 C 80 % -2.83 C
2177 16-02-2009 03:39:52 0.3 C 80 % -2.73 C
2178 16-02-2009 03:51:52 0.3 C 79 % -2.9 C
2179 16-02-2009 04:03:52 0.3 C 78 % -3.07 C
2180 16-02-2009 04:15:52 0.4 C 78 % -2.98 C
2181 16-02-2009 04:27:52 0.4 C 78 % -2.98 C
2182 16-02-2009 04:39:52 0.4 C 78 % -2.98 C
2183 16-02-2009 04:51:52 0.4 C 78 % -2.98 C
2184 16-02-2009 05:03:52 0.5 C 78 % -2.88 C
2185 16-02-2009 05:15:52 0.5 C 78 % -2.88 C
2186 16-02-2009 05:27:52 0.5 C 78 % -2.88 C
2187 16-02-2009 05:39:53 0.5 C 78 % -2.88 C
2188 16-02-2009 05:51:53 0.4 C 78 % -2.98 C
2189 16-02-2009 06:03:53 0.4 C 79 % -2.81 C
2190 16-02-2009 06:15:53 0.4 C 81 % -2.47 C
2191 16-02-2009 06:27:53 0.3 C 82 % -2.4 C
2192 16-02-2009 06:39:53 0.4 C 83 % -2.14 C
2193 16-02-2009 06:51:53 0.4 C 83 % -2.14 C
2194 16-02-2009 07:03:51 0.4 C 84 % -1.98 C
2195 16-02-2009 07:15:50 0.4 C 85 % -1.82 C
2196 16-02-2009 07:27:50 0.4 C 85 % -1.82 C
2197 16-02-2009 07:39:51 0.4 C 85 % -1.82 C
2198 16-02-2009 07:51:50 0.5 C 85 % -1.72 C
2199 16-02-2009 08:03:50 0.5 C 85 % -1.72 C
2200 16-02-2009 08:15:50 0.5 C 85 % -1.72 C
Sensor: Nr:Datum:Temp:Feuchte:Taupunkt:
Aussen-T/F 2201 16-02-2009 08:27:50 0.5 C 85 % -1.72 C
2202 16-02-2009 08:39:50 0.6 C 85 % -1.62 C
2203 16-02-2009 08:51:49 0.7 C 85 % -1.53 C
2204 16-02-2009 09:03:50 0.8 C 85 % -1.43 C
2205 16-02-2009 09:15:50 1 C 83 % -1.55 C
2206 16-02-2009 09:27:50 1.1 C 83 % -1.46 C
2207 16-02-2009 09:39:49 1.2 C 82 % -1.52 C
2208 16-02-2009 09:51:50 1.3 C 81 % -1.59 C
2209 16-02-2009 10:03:49 1.3 C 80 % -1.76 C
2210 16-02-2009 10:15:49 1.3 C 80 % -1.76 C
2211 16-02-2009 10:27:49 1.5 C 82 % -1.23 C
2212 16-02-2009 10:39:48 1.5 C 83 % -1.06 C
2213 16-02-2009 10:51:49 1.4 C 84 % -1 C
2214 16-02-2009 11:03:48 1.2 C 85 % -1.03 C
2215 16-02-2009 11:15:48 1.5 C 86 % -0.58 C
2216 16-02-2009 11:27:48 1.6 C 87 % -0.32 C
2217 16-02-2009 11:39:48 1.7 C 86 % -0.38 C
2218 16-02-2009 11:51:48 1.8 C 86 % -0.29 C
2219 16-02-2009 12:03:48 1.9 C 87 % -0.03 C
2220 16-02-2009 12:15:47 2.1 C 86 % 0.01 C
2221 16-02-2009 12:27:47 2.3 C 86 % 0.21 C
2222 16-02-2009 12:39:48 2.6 C 84 % 0.18 C
2223 16-02-2009 12:51:47 2.7 C 83 % 0.11 C
2224 16-02-2009 13:03:47 2.8 C 82 % 0.04 C
2225 16-02-2009 13:15:47 3 C 81 % 0.07 C
Sensor: Nr:Datum:Temp:Feuchte:Taupunkt:
Aussen-T/F 2226 16-02-2009 13:27:47 3.4 C 80 % 0.29 C
2227 16-02-2009 13:39:47 3.8 C 78 % 0.33 C
2228 16-02-2009 13:51:46 3.8 C 78 % 0.33 C
2229 16-02-2009 14:03:47 3.9 C 77 % 0.25 C
2230 16-02-2009 14:15:47 4 C 76 % 0.16 C
2231 16-02-2009 14:27:47 3.8 C 77 % 0.15 C
2232 16-02-2009 14:39:46 3.8 C 78 % 0.33 C
2233 16-02-2009 14:51:47 3.6 C 78 % 0.13 C
2234 16-02-2009 15:03:46 3.5 C 79 % 0.21 C
2235 16-02-2009 15:15:46 3.4 C 81 % 0.46 C
2236 16-02-2009 15:27:46 3.4 C 82 % 0.63 C
2237 16-02-2009 15:39:45 3.4 C 83 % 0.79 C
2238 16-02-2009 15:51:46 3.4 C 84 % 0.96 C
2239 16-02-2009 16:03:45 3.4 C 85 % 1.12 C
2240 16-02-2009 16:15:45 3.4 C 85 % 1.12 C
2241 16-02-2009 16:27:45 3.4 C 86 % 1.29 C
2242 16-02-2009 16:39:46 3.3 C 86 % 1.19 C
2243 16-02-2009 16:51:45 3.3 C 87 % 1.35 C
2244 16-02-2009 17:03:45 3.3 C 87 % 1.35 C
2245 16-02-2009 17:15:45 3.3 C 88 % 1.51 C
2246 16-02-2009 17:27:45 3.2 C 88 % 1.41 C
2247 16-02-2009 17:39:45 3.2 C 88 % 1.41 C
2248 16-02-2009 17:51:44 3.2 C 89 % 1.57 C
2249 16-02-2009 18:03:45 3.2 C 89 % 1.57 C
2250 16-02-2009 18:15:44 3.3 C 90 % 1.82 C
Sensor: Nr:Datum:Temp:Feuchte:Taupunkt:
Aussen-T/F 2251 16-02-2009 18:27:44 3.3 C 90 % 1.82 C
2252 16-02-2009 18:39:44 3.3 C 90 % 1.82 C
2253 16-02-2009 18:51:44 3.3 C 90 % 1.82 C
2254 16-02-2009 19:03:44 3.4 C 91 % 2.07 C
2255 16-02-2009 19:15:44 3.4 C 91 % 2.07 C
2256 16-02-2009 19:27:44 3.5 C 91 % 2.17 C
2257 16-02-2009 19:39:43 3.4 C 91 % 2.07 C
2258 16-02-2009 19:51:44 3.4 C 91 % 2.07 C
2259 16-02-2009 20:03:43 3.4 C 91 % 2.07 C
2260 16-02-2009 20:15:43 3.6 C 91 % 2.27 C
2261 16-02-2009 20:27:43 3.6 C 91 % 2.27 C
2262 16-02-2009 20:39:43 3.5 C 91 % 2.17 C
2263 16-02-2009 20:51:43 3.5 C 91 % 2.17 C
2264 16-02-2009 21:03:43 3.5 C 91 % 2.17 C
2265 16-02-2009 21:15:43 3.5 C 91 % 2.17 C
2266 16-02-2009 21:27:43 3.6 C 91 % 2.27 C
2267 16-02-2009 21:39:42 3.4 C 91 % 2.07 C
2268 16-02-2009 21:52:59 3.5 C 91 % 2.17 C
2269 16-02-2009 22:04:59 3.3 C 91 % 1.98 C
2270 16-02-2009 22:16:59 3.3 C 92 % 2.13 C
2271 16-02-2009 22:28:59 3.3 C 92 % 2.13 C
2272 16-02-2009 22:40:59 3.4 C 92 % 2.23 C
2273 16-02-2009 22:52:59 3.4 C 93 % 2.38 C
2274 16-02-2009 23:04:59 3.5 C 93 % 2.48 C
2275 16-02-2009 23:16:59 3.8 C 93 % 2.77 C
Sensor: Nr:Datum:Temp:Feuchte:Taupunkt:
Aussen-T/F 2276 16-02-2009 23:28:59 3.9 C 93 % 2.87 C
2277 16-02-2009 23:40:59 3.9 C 92 % 2.72 C
2278 16-02-2009 23:52:59 4 C 91 % 2.67 C
2279 17-02-2009 00:04:59 4 C 91 % 2.67 C
2280 17-02-2009 00:16:59 4 C 91 % 2.67 C
2281 17-02-2009 00:28:59 3.9 C 91 % 2.57 C
2282 17-02-2009 00:40:59 3.9 C 92 % 2.72 C
2283 17-02-2009 00:51:59 3.9 C 92 % 2.72 C
2284 17-02-2009 01:04:00 3.9 C 92 % 2.72 C
2285 17-02-2009 01:16:00 3.9 C 92 % 2.72 C
2286 17-02-2009 01:28:00 3.9 C 92 % 2.72 C
2287 17-02-2009 01:40:00 4 C 92 % 2.82 C
2288 17-02-2009 01:52:00 3.9 C 93 % 2.87 C
2289 17-02-2009 02:04:00 3.9 C 93 % 2.87 C
2290 17-02-2009 02:16:00 3.9 C 93 % 2.87 C
2291 17-02-2009 02:28:00 3.9 C 93 % 2.87 C
2292 17-02-2009 02:40:00 3.9 C 93 % 2.87 C
2293 17-02-2009 02:52:00 3.9 C 93 % 2.87 C
2294 17-02-2009 03:04:00 4 C 93 % 2.97 C
2295 17-02-2009 03:16:00 4 C 93 % 2.97 C
2296 17-02-2009 03:28:00 4 C 93 % 2.97 C
2297 17-02-2009 03:40:00 4 C 93 % 2.97 C
2298 17-02-2009 03:52:00 4 C 93 % 2.97 C
2299 17-02-2009 04:04:00 4 C 93 % 2.97 C
2300 17-02-2009 04:16:00 4.1 C 94 % 3.22 C
Sensor: Nr:Datum:Temp:Feuchte:Taupunkt:
Aussen-T/F 2301 17-02-2009 04:28:00 4.2 C 94 % 3.32 C
2302 17-02-2009 04:40:00 4.2 C 94 % 3.32 C
2303 17-02-2009 04:52:00 4.3 C 94 % 3.42 C
2304 17-02-2009 05:04:00 4.3 C 94 % 3.42 C
2305 17-02-2009 05:16:01 4.3 C 94 % 3.42 C
2306 17-02-2009 05:28:01 4.4 C 94 % 3.52 C
2307 17-02-2009 05:40:01 4.4 C 94 % 3.52 C
2308 17-02-2009 05:52:01 4.4 C 94 % 3.52 C
2309 17-02-2009 06:04:01 4.5 C 94 % 3.62 C
2310 17-02-2009 06:16:01 4.4 C 94 % 3.52 C
2311 17-02-2009 06:28:01 4.4 C 94 % 3.52 C
2312 17-02-2009 06:40:01 4.4 C 94 % 3.52 C
2313 17-02-2009 06:52:01 4.5 C 94 % 3.62 C
2314 17-02-2009 07:04:43 4.5 C 94 % 3.62 C
2315 17-02-2009 07:16:43 4.7 C 95 % 3.97 C
2316 17-02-2009 07:28:43 4.7 C 95 % 3.97 C
2317 17-02-2009 07:40:43 4.6 C 95 % 3.87 C
2318 17-02-2009 07:52:43 4.7 C 95 % 3.97 C
2319 17-02-2009 08:04:42 4.6 C 95 % 3.87 C
2320 17-02-2009 08:16:43 4.6 C 95 % 3.87 C
2321 17-02-2009 08:28:44 4.8 C 95 % 4.07 C
2322 17-02-2009 08:40:42 5 C 95 % 4.27 C
2323 17-02-2009 08:52:42 5.1 C 95 % 4.37 C
2324 17-02-2009 09:04:42 5.3 C 95 % 4.57 C
2325 17-02-2009 09:16:42 5.5 C 95 % 4.76 C
Sensor: Nr:Datum:Temp:Feuchte:Taupunkt:
Aussen-T/F 2326 17-02-2009 09:28:42 5.5 C 95 % 4.76 C
2327 17-02-2009 09:40:42 5.6 C 95 % 4.86 C
2328 17-02-2009 09:52:42 5.6 C 94 % 4.71 C
2329 17-02-2009 10:04:42 5.7 C 94 % 4.81 C
2330 17-02-2009 10:16:41 5.7 C 94 % 4.81 C
2331 17-02-2009 10:28:41 5.7 C 93 % 4.66 C
2332 17-02-2009 10:40:41 6 C 92 % 4.8 C
2333 17-02-2009 10:52:41 6 C 92 % 4.8 C
2334 17-02-2009 11:04:41 5.9 C 93 % 4.86 C
2335 17-02-2009 11:16:40 5.9 C 93 % 4.86 C
2336 17-02-2009 11:28:40 6 C 92 % 4.8 C
2337 17-02-2009 11:40:41 6 C 92 % 4.8 C
2338 17-02-2009 11:52:41 6 C 92 % 4.8 C
2339 17-02-2009 12:04:40 6.1 C 92 % 4.9 C
2340 17-02-2009 12:16:41 6.3 C 93 % 5.25 C
2341 17-02-2009 12:28:41 6.3 C 93 % 5.25 C
2342 17-02-2009 12:40:40 6.3 C 93 % 5.25 C
2343 17-02-2009 12:52:40 6.6 C 93 % 5.55 C
2344 17-02-2009 13:04:39 6.7 C 93 % 5.65 C
2345 17-02-2009 13:16:40 6.7 C 92 % 5.49 C
2346 17-02-2009 13:28:40 6.5 C 92 % 5.3 C
2347 17-02-2009 13:40:39 6.5 C 92 % 5.3 C
2348 17-02-2009 13:52:39 6.4 C 90 % 4.88 C
2349 17-02-2009 14:04:40 6.4 C 90 % 4.88 C
2350 17-02-2009 14:16:39 6.5 C 88 % 4.66 C
Sensor: Nr:Datum:Temp:Feuchte:Taupunkt:
Aussen-T/F 2351 17-02-2009 14:28:39 6.7 C 86 % 4.53 C
2352 17-02-2009 14:40:39 6.8 C 83 % 4.12 C
2353 17-02-2009 14:52:39 7 C 80 % 3.79 C
2354 17-02-2009 15:04:39 6.9 C 80 % 3.7 C
2355 17-02-2009 15:16:38 6.9 C 79 % 3.52 C
2356 17-02-2009 15:28:38 7 C 75 % 2.88 C
2357 17-02-2009 15:40:38 6.9 C 77 % 3.16 C
2358 17-02-2009 15:52:38 6.8 C 73 % 2.31 C
2359 17-02-2009 16:04:38 5.9 C 72 % 1.25 C
2360 17-02-2009 16:16:38 5.5 C 72 % 0.86 C
2361 17-02-2009 16:28:38 5.1 C 73 % 0.67 C
2362 17-02-2009 16:40:38 4.9 C 74 % 0.67 C
2363 17-02-2009 16:52:38 4.6 C 72 % 0 C
2364 17-02-2009 17:04:37 4.4 C 72 % -0.19 C
2365 17-02-2009 17:16:38 4 C 71 % -0.77 C
2366 17-02-2009 17:28:38 3.7 C 71 % -1.06 C
2367 17-02-2009 17:40:37 3.6 C 70 % -1.35 C
2368 17-02-2009 17:52:37 3.4 C 68 % -1.93 C
2369 17-02-2009 18:04:37 3.1 C 68 % -2.22 C
2370 17-02-2009 18:16:37 2.9 C 68 % -2.41 C
2371 17-02-2009 18:28:37 2.8 C 69 % -2.31 C
2372 17-02-2009 18:40:37 2.5 C 69 % -2.6 C
2373 17-02-2009 18:52:37 2.3 C 66 % -3.38 C
2374 17-02-2009 19:04:37 2.1 C 61 % -4.62 C
2375 17-02-2009 19:16:36 2.1 C 59 % -5.06 C
Sensor: Nr:Datum:Temp:Feuchte:Taupunkt:
Aussen-T/F 2376 17-02-2009 19:28:36 1.9 C 56 % -5.93 C
2377 17-02-2009 19:40:36 1.6 C 55 % -6.45 C
2378 17-02-2009 19:52:36 1.1 C 57 % -6.45 C
2379 17-02-2009 20:04:36 0.7 C 56 % -7.05 C
2380 17-02-2009 20:16:35 0.3 C 54 % -7.9 C
2381 17-02-2009 20:28:35 0 C 55 % -7.94 C
2382 17-02-2009 20:40:36 -0.3 C 56 % -8 C
2383 17-02-2009 20:52:35 -0.4 C 54 % -8.56 C
2384 17-02-2009 21:04:36 -0.5 C 55 % -8.42 C
2385 17-02-2009 21:16:35 -0.7 C 53 % -9.08 C
2386 17-02-2009 21:28:35 -0.9 C 54 % -9.03 C
2387 17-02-2009 21:41:36 -1 C 54 % -9.12 C
2388 17-02-2009 21:53:36 -1.2 C 54 % -9.31 C
2389 17-02-2009 22:05:36 -1.3 C 54 % -9.4 C
2390 17-02-2009 22:17:36 -1.5 C 57 % -8.9 C
2391 17-02-2009 22:29:36 -1.7 C 58 % -8.87 C
2392 17-02-2009 22:41:36 -1.9 C 60 % -8.62 C
2393 17-02-2009 22:53:36 -2 C 59 % -8.93 C
2394 17-02-2009 23:05:36 -2.2 C 60 % -8.9 C
2395 17-02-2009 23:17:36 -2.3 C 60 % -9 C
2396 17-02-2009 23:29:36 -2.4 C 61 % -8.88 C
2397 17-02-2009 23:41:36 -2.6 C 62 % -8.86 C
2398 17-02-2009 23:53:36 -2.6 C 62 % -8.86 C
2399 18-02-2009 00:05:36 -2.8 C 63 % -8.85 C
2400 18-02-2009 00:17:36 -2.9 C 64 % -8.74 C
Sensor: Nr:Datum:Temp:Feuchte:Taupunkt:
Aussen-T/F 2401 18-02-2009 00:29:37 -2.9 C 65 % -8.55 C
2402 18-02-2009 00:41:37 -3 C 66 % -8.45 C
2403 18-02-2009 00:53:37 -3.2 C 65 % -8.83 C
2404 18-02-2009 01:05:37 -3.3 C 65 % -8.93 C
2405 18-02-2009 01:17:37 -3.4 C 65 % -9.02 C
2406 18-02-2009 01:29:37 -3.5 C 66 % -8.92 C
2407 18-02-2009 01:41:37 -3.5 C 66 % -8.92 C
2408 18-02-2009 01:53:37 -3.6 C 66 % -9.02 C
2409 18-02-2009 02:05:37 -3.7 C 66 % -9.11 C
2410 18-02-2009 02:17:37 -3.7 C 67 % -8.92 C
2411 18-02-2009 02:29:37 -3.7 C 68 % -8.73 C
2412 18-02-2009 02:41:37 -3.8 C 68 % -8.83 C
2413 18-02-2009 02:53:37 -4 C 68 % -9.02 C
2414 18-02-2009 03:05:37 -4 C 69 % -8.83 C
2415 18-02-2009 03:17:37 -4.1 C 69 % -8.93 C
2416 18-02-2009 03:29:37 -4.3 C 69 % -9.12 C
2417 18-02-2009 03:41:37 -4.3 C 70 % -8.94 C
2418 18-02-2009 03:53:37 -4.5 C 70 % -9.13 C
2419 18-02-2009 04:05:37 -4.5 C 70 % -9.13 C
2420 18-02-2009 04:17:37 -4.7 C 70 % -9.32 C
2421 18-02-2009 04:29:37 -4.8 C 70 % -9.42 C
2422 18-02-2009 04:41:38 -4.8 C 70 % -9.42 C
2423 18-02-2009 04:53:38 -4.9 C 70 % -9.52 C
2424 18-02-2009 05:05:38 -4.9 C 70 % -9.52 C
2425 18-02-2009 05:17:38 -5.1 C 71 % -9.53 C
Sensor: Nr:Datum:Temp:Feuchte:Taupunkt:
Aussen-T/F 2426 18-02-2009 05:29:38 -5 C 72 % -9.25 C
2427 18-02-2009 05:41:38 -5.1 C 72 % -9.35 C
2428 18-02-2009 05:53:38 -5.4 C 72 % -9.64 C
2429 18-02-2009 06:05:38 -5.5 C 72 % -9.74 C
2430 18-02-2009 06:17:38 -5.6 C 72 % -9.83 C
2431 18-02-2009 06:29:38 -5.7 C 73 % -9.75 C
2432 18-02-2009 06:41:38 -5.5 C 73 % -9.56 C
2433 18-02-2009 06:53:38 -5.5 C 74 % -9.39 C
2434 18-02-2009 07:05:36 -5.7 C 74 % -9.58 C
2435 18-02-2009 07:17:35 -6.1 C 73 % -10.14 C
2436 18-02-2009 07:29:36 -6.2 C 73 % -10.24 C
2437 18-02-2009 07:41:36 -5.9 C 74 % -9.78 C
2438 18-02-2009 07:53:35 -5.8 C 75 % -9.51 C
2439 18-02-2009 08:05:35 -5.7 C 75 % -9.41 C
2440 18-02-2009 08:17:35 -5.6 C 76 % -9.15 C
2441 18-02-2009 08:29:35 -5.8 C 76 % -9.34 C
2442 18-02-2009 08:41:35 -5.9 C 76 % -9.44 C
2443 18-02-2009 08:53:34 -5.7 C 76 % -9.24 C
2444 18-02-2009 09:05:35 -5.7 C 76 % -9.24 C
2445 18-02-2009 09:17:35 -5.5 C 77 % -8.88 C
2446 18-02-2009 09:29:34 -5.4 C 77 % -8.79 C
2447 18-02-2009 09:41:34 -4.9 C 77 % -8.3 C
2448 18-02-2009 09:53:35 -4.7 C 77 % -8.11 C
2449 18-02-2009 10:05:34 -4.2 C 77 % -7.62 C
2450 18-02-2009 10:17:34 -3.5 C 75 % -7.28 C
Sensor: Nr:Datum:Temp:Feuchte:Taupunkt:
Aussen-T/F 2451 18-02-2009 10:29:34 -2.4 C 70 % -7.11 C
2452 18-02-2009 10:41:34 -1.7 C 62 % -8.01 C
2453 18-02-2009 10:53:34 -1.3 C 57 % -8.71 C
2454 18-02-2009 11:05:34 -1.5 C 54 % -9.59 C
2455 18-02-2009 11:17:33 -1.3 C 54 % -9.4 C
2456 18-02-2009 11:29:33 -1 C 52 % -9.6 C
2457 18-02-2009 11:41:33 -0.7 C 46 % -10.87 C
2458 18-02-2009 11:53:33 -0.3 C 48 % -9.97 C
2459 18-02-2009 12:05:33 0 C 48 % -9.67 C
2460 18-02-2009 12:17:32 0.2 C 48 % -9.49 C
2461 18-02-2009 12:29:33 0.5 C 46 % -9.75 C
2462 18-02-2009 12:41:33 0.7 C 45 % -9.85 C
2463 18-02-2009 12:53:32 1.1 C 40 % -10.96 C
2464 18-02-2009 13:05:32 1.9 C 38 % -10.89 C
2465 18-02-2009 13:17:33 2.3 C 36 % -11.21 C
2466 18-02-2009 13:29:32 2.7 C 35 % -11.2 C
2467 18-02-2009 13:41:32 2.8 C 31 % -12.62 C
2468 18-02-2009 13:53:32 3.6 C 25 % -14.55 C
2469 18-02-2009 14:05:32 3.6 C 25 % -14.55 C
2470 18-02-2009 14:17:32 4.4 C 20 % -16.55 C
2471 18-02-2009 14:29:31 4.8 C 20 % -16.22 C
2472 18-02-2009 14:41:31 5.5 C 20 % -15.64 C
2473 18-02-2009 14:53:32 5.7 C 20 % -15.47 C
2474 18-02-2009 15:05:31 5.9 C 20 % -15.3 C
2475 18-02-2009 15:17:31 5.5 C 20 % -15.64 C
Sensor: Nr:Datum:Temp:Feuchte:Taupunkt:
Aussen-T/F 2476 18-02-2009 15:29:31 5.7 C 20 % -15.47 C
2477 18-02-2009 15:41:31 6 C 20 % -15.22 C
2478 18-02-2009 15:53:31 6 C 20 % -15.22 C
2479 18-02-2009 16:05:31 6.7 C 20 % -14.64 C
2480 18-02-2009 16:17:30 6.9 C 20 % -14.47 C
2481 18-02-2009 16:29:31 5.1 C 20 % -15.97 C
2482 18-02-2009 16:41:31 5.5 C 20 % -15.64 C
2483 18-02-2009 16:53:30 5.7 C 20 % -15.47 C
2484 18-02-2009 17:05:30 5.4 C 20 % -15.72 C
2485 18-02-2009 17:17:30 4.7 C 25 % -13.61 C
2486 18-02-2009 17:29:30 3.2 C 30 % -12.67 C
2487 18-02-2009 17:41:30 1.9 C 37 % -11.22 C
2488 18-02-2009 17:53:30 1 C 41 % -10.75 C
2489 18-02-2009 18:05:29 0.4 C 43 % -10.69 C
2490 18-02-2009 18:17:29 -0.1 C 46 % -10.32 C
2491 18-02-2009 18:29:30 -0.4 C 48 % -10.06 C
2492 18-02-2009 18:41:30 -0.6 C 49 % -9.98 C
2493 18-02-2009 18:53:29 -0.9 C 52 % -9.51 C
2494 18-02-2009 19:05:29 -1 C 50 % -10.1 C
2495 18-02-2009 19:17:29 -1.2 C 51 % -10.03 C
2496 18-02-2009 19:29:29 -1.3 C 51 % -10.12 C
2497 18-02-2009 19:41:29 -1.4 C 53 % -9.73 C
2498 18-02-2009 19:53:28 -1.6 C 53 % -9.92 C
2499 18-02-2009 20:05:29 -1.7 C 54 % -9.77 C
2500 18-02-2009 20:17:28 -1.8 C 55 % -9.63 C
Sensor: Nr:Datum:Temp:Feuchte:Taupunkt:
Aussen-T/F 2501 18-02-2009 20:29:28 -1.9 C 55 % -9.73 C
2502 18-02-2009 20:41:28 -2 C 55 % -9.82 C
2503 18-02-2009 20:53:28 -2.1 C 53 % -10.38 C
2504 18-02-2009 21:05:28 -2.2 C 55 % -10.01 C
2505 18-02-2009 21:17:28 -2.3 C 55 % -10.1 C
2506 18-02-2009 21:29:27 -2.3 C 54 % -10.33 C
2507 18-02-2009 21:41:27 -2.4 C 53 % -10.66 C
2508 18-02-2009 21:53:28 -2.6 C 57 % -9.93 C
2509 18-02-2009 22:06:27 -2.7 C 58 % -9.81 C
2510 18-02-2009 22:18:27 -2.9 C 59 % -9.78 C
2511 18-02-2009 22:30:27 -2.9 C 60 % -9.57 C
2512 18-02-2009 22:42:27 -2.9 C 61 % -9.36 C
2513 18-02-2009 22:54:27 -3.1 C 61 % -9.55 C
2514 18-02-2009 23:06:27 -3.3 C 61 % -9.73 C
2515 18-02-2009 23:18:27 -3.2 C 62 % -9.43 C
2516 18-02-2009 23:30:27 -2.9 C 62 % -9.15 C
2517 18-02-2009 23:42:28 -2.7 C 61 % -9.17 C
2518 18-02-2009 23:54:28 -2.5 C 61 % -8.98 C

Legende:
   Min
   Max


Maximal/Minimal-Werte vom 29.01.2009 - 18.02.2009

Sensor Min Max Avg
Temp
(Aussen-T/F)
-6.3 °C
15-02-2009  07:38:57
10.6 °C
05-02-2009  14:28:45
1.53 °C
Feuchte
(Aussen-T/F)
20 %
18-02-2009  14:17:32
95 %
10-02-2009  02:57:41
69.16 %
Taupunkt
(Aussen-T/F)
-16.55 C
18-02-2009  14:17:32
5.66 C
10-02-2009  06:09:41
-3.86 C

Die Daten stammen von einer Davis Vantage Pro 2 Wetter-Station und werden unter Linux mit der Software wview2wettercgi und aufbereitet. Alle Angaben erfolgen ohne Gewähr für ihre Vollständigkeit oder Richtigkeit.
Kontakt: Rainer Krienke krienke@uni-koblenz.de . Meine Webseiten an der Uni Koblenz oder privat.
Version: $Revision: 0.78 $